UA3859 / N445AW 7700 Squawk Report (22nd of September, 2021)

Aircraft CRJ2 Reg No. N445AW Age N/A
Model Regional-Jet Jet engines 2 First flight 05-03
Registered 01-18 Rollout 05-03 Delivered 30-05-03
Construction No. 7804 Line No. N/A Series 200LR
ADSHEX A55D45 Airline name United Express Owner Air Wisconsin
Airfield based Chicago O`Hare~IL~N First tracked N/A

Flight history for N445AW

Route Flight No Date Playback
Washington Dulles International (IAD) - Greater Rochester Intl (ROC) UA3952 2021-10-22 13:34:00
Syracuse Hancock Intl (SYR) - Washington Dulles International (IAD) UA3915 2021-10-22 11:11:00
Washington Dulles International (IAD) - Syracuse Hancock Intl (SYR) UA3815 2021-10-22 10:08:00
Asheville Regional Airport (AVL) - Washington Dulles International (IAD) UA3791 2021-10-22 00:55:00
Washington Dulles International (IAD) - Asheville Regional Airport (AVL) UA3723 2021-10-21 22:49:00
Akron Canton Regional Airport (CAK) - Washington Dulles International (IAD) UA3745 2021-10-21 19:55:00
Washington Dulles International (IAD) - Akron Canton Regional Airport (CAK) UA3804 2021-10-21 18:17:00
Bangor Intl (BGR) - Washington Dulles International (IAD) UA3947 2021-10-21 15:09:00
???? N/A 2021-10-20 23:35:00
Ithaca Tompkins Rgnl (ITH) - Washington Dulles International (IAD) UA3830 2021-10-20 20:05:00
Washington Dulles International (IAD) - Ithaca Tompkins Rgnl (ITH) UA3942 2021-10-20 19:05:00
Greater Rochester Intl (ROC) - Washington Dulles International (IAD) UA3855 2021-10-20 15:41:00
Washington Dulles International (IAD) - Greater Rochester Intl (ROC) UA3952 2021-10-20 13:50:00
Chicago Ohare Intl (ORD) - Bishop International (FNT) UA3904 2021-10-20 11:35:00
Washington Dulles International (IAD) - Portland Intl Jetport (PWM) UA3756 2021-10-19 23:28:00
James M Cox Dayton Intl (DAY) - Washington Dulles International (IAD) UA3879 2021-10-19 20:23:00
Washington Dulles International (IAD) - James M Cox Dayton Intl (DAY) UA3796 2021-10-19 18:21:00
Richmond Intl (RIC) - Washington Dulles International (IAD) UA3906 2021-10-19 14:57:00
Washington Dulles International (IAD) - Richmond Intl (RIC) UA3919 2021-10-19 14:31:00
Akron Canton Regional Airport (CAK) - Washington Dulles International (IAD) UA3747 2021-10-19 11:24:00
Time Lat Lon Altitude Heading Speed Vertical Rate
2021-09-22 17:34:03 GMT 38.183636 -85.738251 0 284 0 0
2021-09-22 17:33:53 GMT 38.183613 -85.738152 0 284 5 0
2021-09-22 17:33:46 GMT 38.183418 -85.737892 0 45 1 0
2021-09-22 17:33:44 GMT 38.183430 -85.737900 0 45 1 0
2021-09-22 17:33:43 GMT 38.183472 -85.737953 0 45 1 0
2021-09-22 17:33:41 GMT 38.183460 -85.737938 0 45 1 0
2021-09-22 17:33:40 GMT 38.183479 -85.737938 0 46 2 0
2021-09-22 17:33:38 GMT 38.183529 -85.737633 0 47 3 0
2021-09-22 17:33:37 GMT 38.183498 -85.737640 0 47 3 0
2021-09-22 17:33:34 GMT 38.183441 -85.737778 0 312 2 0
2021-09-22 17:33:32 GMT 38.183449 -85.737762 0 312 2 0
2021-09-22 17:33:31 GMT 38.183460 -85.737747 0 313 2 0
2021-09-22 17:33:30 GMT 38.183491 -85.737701 0 314 2 0
2021-09-22 17:33:27 GMT 38.183521 -85.737671 0 316 2 0
2021-09-22 17:33:26 GMT 38.183521 -85.737671 0 316 2 0
2021-09-22 17:33:24 GMT 38.183521 -85.737679 0 317 3 0
2021-09-22 17:33:23 GMT 38.183510 -85.737679 0 317 3 0
2021-09-22 17:33:21 GMT 38.183498 -85.737671 0 317 3 0
2021-09-22 17:33:19 GMT 38.183449 -85.737579 0 318 1 0
2021-09-22 17:33:17 GMT 38.183418 -85.737518 0 318 2 0
2021-09-22 17:33:16 GMT 38.183449 -85.737549 0 318 0 0
2021-09-22 17:33:11 GMT 38.183460 -85.737572 0 318 0 0
2021-09-22 17:33:10 GMT 38.183460 -85.737556 0 318 0 0
2021-09-22 17:33:07 GMT 38.183449 -85.737556 0 318 0 0
2021-09-22 17:33:06 GMT 38.183449 -85.737549 0 318 0 0
2021-09-22 17:33:05 GMT 38.183441 -85.737549 0 318 1 0
2021-09-22 17:33:03 GMT 38.183460 -85.737572 0 318 0 0
2021-09-22 17:33:00 GMT 38.183498 -85.737595 0 318 0 0
2021-09-22 17:32:55 GMT 38.183460 -85.737572 0 318 0 0
2021-09-22 17:32:54 GMT 38.183449 -85.737572 0 318 0 0
2021-09-22 17:32:50 GMT 38.183460 -85.737556 0 318 0 0
2021-09-22 17:32:41 GMT 38.183460 -85.737579 0 318 0 0
2021-09-22 17:32:38 GMT 38.183460 -85.737610 0 318 0 0
2021-09-22 17:32:36 GMT 38.183460 -85.737610 0 318 0 0
2021-09-22 17:32:35 GMT 38.183460 -85.737572 0 318 0 0
2021-09-22 17:32:30 GMT 38.183460 -85.737572 0 318 0 0
2021-09-22 17:32:26 GMT 38.183472 -85.737572 0 318 0 0
2021-09-22 17:32:24 GMT 38.183460 -85.737602 0 318 0 0
2021-09-22 17:32:23 GMT 38.183460 -85.737610 0 318 0 0
2021-09-22 17:32:20 GMT 38.183460 -85.737663 0 319 2 0
2021-09-22 17:32:18 GMT 38.183460 -85.737640 0 320 2 0
2021-09-22 17:32:17 GMT 38.183498 -85.737617 0 319 4 0
2021-09-22 17:32:16 GMT 38.183472 -85.737572 0 322 3 0
2021-09-22 17:32:14 GMT 38.183449 -85.737556 0 322 2 0
2021-09-22 17:32:13 GMT 38.183418 -85.737587 0 324 5 0
2021-09-22 17:32:11 GMT 38.183411 -85.737549 0 11 4 0
2021-09-22 17:32:10 GMT 38.183430 -85.737511 0 13 4 0
2021-09-22 17:32:08 GMT 38.183418 -85.737457 0 19 6 0
2021-09-22 17:32:07 GMT 38.183399 -85.737427 0 31 6 0
2021-09-22 17:32:06 GMT 38.183319 -85.737480 0 26 4 0
2021-09-22 17:32:04 GMT 38.183350 -85.737480 0 26 8 0
2021-09-22 17:32:02 GMT 38.183281 -85.737511 0 34 8 0
2021-09-22 17:32:01 GMT 38.183262 -85.737534 0 36 9 0
2021-09-22 17:31:59 GMT 38.183182 -85.737602 0 35 8 0
2021-09-22 17:31:58 GMT 38.183151 -85.737617 0 39 7 0
2021-09-22 17:31:57 GMT 38.183121 -85.737640 0 43 8 0
2021-09-22 17:31:56 GMT 38.183079 -85.737671 0 46 7 0
2021-09-22 17:31:55 GMT 38.183029 -85.737717 0 51 7 0
2021-09-22 17:31:53 GMT 38.183022 -85.737740 0 53 9 0
2021-09-22 17:31:52 GMT 38.182961 -85.737831 0 62 8 0
2021-09-22 17:31:50 GMT 38.182930 -85.737831 0 74 11 0
2021-09-22 17:31:48 GMT 38.182911 -85.737930 0 63 12 0
2021-09-22 17:31:47 GMT 38.182892 -85.738007 0 56 12 0
2021-09-22 17:31:45 GMT 38.182850 -85.738136 0 47 9 0
2021-09-22 17:31:44 GMT 38.182850 -85.738159 0 50 12 0
2021-09-22 17:31:42 GMT 38.182770 -85.738243 0 54 14 0
2021-09-22 17:31:41 GMT 38.182709 -85.738327 0 57 11 0
2021-09-22 17:31:40 GMT 38.182671 -85.738411 0 58 17 0
2021-09-22 17:31:38 GMT 38.182598 -85.738541 0 60 11 0
2021-09-22 17:31:37 GMT 38.182571 -85.738617 0 59 9 0
2021-09-22 17:31:35 GMT 38.182529 -85.738701 0 60 11 0
2021-09-22 17:31:34 GMT 38.182522 -85.738762 0 60 12 0
2021-09-22 17:31:32 GMT 38.182449 -85.738861 0 65 13 0
2021-09-22 17:31:30 GMT 38.182419 -85.738998 0 57 12 0
2021-09-22 17:31:29 GMT 38.182381 -85.739067 0 58 10 0
2021-09-22 17:31:28 GMT 38.182350 -85.739120 0 61 10 0
2021-09-22 17:31:26 GMT 38.182301 -85.739243 0 61 8 0
2021-09-22 17:31:25 GMT 38.182289 -85.739250 0 61 11 0
2021-09-22 17:31:24 GMT 38.182259 -85.739326 0 62 9 0
2021-09-22 17:31:22 GMT 38.182209 -85.739433 0 67 9 0
2021-09-22 17:31:21 GMT 38.182220 -85.739471 0 53 11 0
2021-09-22 17:31:20 GMT 38.182201 -85.739532 0 48 12 0
2021-09-22 17:31:18 GMT 38.182129 -85.739632 0 52 11 0
2021-09-22 17:31:16 GMT 38.182049 -85.739738 0 61 9 0
2021-09-22 17:31:15 GMT 38.182030 -85.739769 0 63 11 0
2021-09-22 17:31:14 GMT 38.182018 -85.739822 0 63 12 0
2021-09-22 17:31:12 GMT 38.181950 -85.739937 0 69 11 0
2021-09-22 17:31:11 GMT 38.181961 -85.740028 0 56 10 0
2021-09-22 17:31:09 GMT 38.181889 -85.740120 0 62 10 0
2021-09-22 17:31:08 GMT 38.181889 -85.740181 0 53 10 0
2021-09-22 17:31:07 GMT 38.181870 -85.740196 0 56 12 0
2021-09-22 17:31:05 GMT 38.181808 -85.740334 0 58 12 0
2021-09-22 17:31:04 GMT 38.181782 -85.740387 0 60 13 0
2021-09-22 17:31:03 GMT 38.181740 -85.740479 0 58 10 0
2021-09-22 17:31:02 GMT 38.181721 -85.740562 0 56 12 0
2021-09-22 17:31:00 GMT 38.181679 -85.740570 0 62 14 0
2021-09-22 17:30:59 GMT 38.181629 -85.740639 0 67 14 0
2021-09-22 17:30:57 GMT 38.181580 -85.740807 0 57 12 0
2021-09-22 17:30:56 GMT 38.181561 -85.740883 0 55 12 0
2021-09-22 17:30:55 GMT 38.181499 -85.741020 0 49 11 0
2021-09-22 17:30:53 GMT 38.181469 -85.741074 0 51 11 0
2021-09-22 17:30:51 GMT 38.181412 -85.741142 0 62 14 0
2021-09-22 17:30:50 GMT 38.181351 -85.741203 0 72 12 0
2021-09-22 17:30:49 GMT 38.181290 -85.741310 0 83 13 0
2021-09-22 17:30:47 GMT 38.181301 -85.741379 0 78 14 0
2021-09-22 17:30:46 GMT 38.181271 -85.741524 0 85 9 0
2021-09-22 17:30:44 GMT 38.181259 -85.741623 0 92 10 0
2021-09-22 17:30:43 GMT 38.181252 -85.741676 0 93 9 0
2021-09-22 17:30:42 GMT 38.181252 -85.741791 0 97 10 0
2021-09-22 17:30:40 GMT 38.181259 -85.741837 0 97 10 0
2021-09-22 17:30:39 GMT 38.181278 -85.741959 0 93 9 0
2021-09-22 17:30:37 GMT 38.181271 -85.742020 0 92 8 0
2021-09-22 17:30:35 GMT 38.181309 -85.742119 0 70 7 0
2021-09-22 17:30:34 GMT 38.181320 -85.742180 0 64 6 0
2021-09-22 17:30:32 GMT 38.181320 -85.742249 0 56 7 0
2021-09-22 17:30:31 GMT 38.181278 -85.742310 0 57 7 0
2021-09-22 17:30:29 GMT 38.181229 -85.742348 0 42 5 0
2021-09-22 17:30:28 GMT 38.181252 -85.742378 0 26 6 0
2021-09-22 17:30:26 GMT 38.181259 -85.742508 0 349 5 0
2021-09-22 17:30:25 GMT 38.181221 -85.742531 0 336 4 0
2021-09-22 17:30:23 GMT 38.181171 -85.742531 0 328 2 0
2021-09-22 17:30:22 GMT 38.181160 -85.742523 0 328 2 0
2021-09-22 17:30:21 GMT 38.181129 -85.742439 0 328 1 0
2021-09-22 17:30:19 GMT 38.181110 -85.742416 0 327 1 0
2021-09-22 17:30:18 GMT 38.181099 -85.742432 0 327 1 0
2021-09-22 17:30:15 GMT 38.181091 -85.742462 0 327 2 0
2021-09-22 17:30:13 GMT 38.181110 -85.742416 0 332 1 0
2021-09-22 17:30:12 GMT 38.181099 -85.742432 0 332 2 0
2021-09-22 17:30:10 GMT 38.181091 -85.742432 0 333 0 0
2021-09-22 17:30:09 GMT 38.181099 -85.742416 0 332 0 0
2021-09-22 17:30:08 GMT 38.181099 -85.742432 0 332 0 0
2021-09-22 17:30:07 GMT 38.181099 -85.742439 0 332 0 0
2021-09-22 17:30:04 GMT 38.181099 -85.742439 0 332 0 0
2021-09-22 17:30:03 GMT 38.181091 -85.742439 0 332 0 0
2021-09-22 17:30:01 GMT 38.181099 -85.742432 0 332 0 0
2021-09-22 17:29:59 GMT 38.181091 -85.742439 0 333 0 0
2021-09-22 17:29:58 GMT 38.181099 -85.742432 0 335 0 0
2021-09-22 17:29:56 GMT 38.181099 -85.742439 0 335 0 0
2021-09-22 17:29:55 GMT 38.181099 -85.742447 0 336 0 0
2021-09-22 17:29:53 GMT 38.181110 -85.742409 0 332 2 0
2021-09-22 17:29:52 GMT 38.181099 -85.742432 0 327 2 0
2021-09-22 17:29:50 GMT 38.181110 -85.742470 0 325 2 0
2021-09-22 17:29:49 GMT 38.181099 -85.742470 0 325 2 0
2021-09-22 17:29:48 GMT 38.181091 -85.742500 0 317 7 0
2021-09-22 17:29:46 GMT 38.181068 -85.742470 0 316 7 0
2021-09-22 17:29:45 GMT 38.181030 -85.742416 0 318 9 0
2021-09-22 17:29:43 GMT 38.180988 -85.742378 0 320 8 0
2021-09-22 17:29:41 GMT 38.180950 -85.742317 0 319 9 0
2021-09-22 17:29:40 GMT 38.180901 -85.742287 0 313 8 0
2021-09-22 17:29:38 GMT 38.180859 -85.742241 0 321 9 0
2021-09-22 17:29:37 GMT 38.180820 -85.742210 0 324 9 0
2021-09-22 17:29:35 GMT 38.180779 -85.742104 0 342 10 0
2021-09-22 17:29:34 GMT 38.180729 -85.742104 0 332 9 0
2021-09-22 17:29:33 GMT 38.180698 -85.742104 0 327 13 0
2021-09-22 17:29:31 GMT 38.180611 -85.742043 0 338 14 0
2021-09-22 17:29:30 GMT 38.180550 -85.741959 0 356 13 0
2021-09-22 17:29:29 GMT 38.180420 -85.741890 0 27 11 0
2021-09-22 17:29:27 GMT 38.180340 -85.741913 0 38 9 0
2021-09-22 17:29:26 GMT 38.180290 -85.741959 0 38 12 0
2021-09-22 17:29:24 GMT 38.180229 -85.741989 0 44 11 0
2021-09-22 17:29:23 GMT 38.180210 -85.742058 0 43 11 0
2021-09-22 17:29:21 GMT 38.180119 -85.742142 0 58 10 0
2021-09-22 17:29:19 GMT 38.180031 -85.742203 0 80 10 0
2021-09-22 17:29:18 GMT 38.180031 -85.742241 0 82 13 0
2021-09-22 17:29:17 GMT 38.180012 -85.742393 0 85 12 0
2021-09-22 17:29:15 GMT 38.180012 -85.742447 0 88 13 0
2021-09-22 17:29:14 GMT 38.179970 -85.742599 0 106 13 0
2021-09-22 17:29:12 GMT 38.179981 -85.742691 0 107 13 0
2021-09-22 17:29:10 GMT 38.180019 -85.742828 0 108 13 0
2021-09-22 17:29:09 GMT 38.180038 -85.742882 0 107 15 0
2021-09-22 17:29:07 GMT 38.180080 -85.743073 0 107 13 0
2021-09-22 17:29:06 GMT 38.180099 -85.743141 0 110 13 0
2021-09-22 17:29:05 GMT 38.180130 -85.743210 0 111 13 0
2021-09-22 17:29:03 GMT 38.180161 -85.743370 0 114 13 0
2021-09-22 17:29:02 GMT 38.180199 -85.743408 0 109 15 0
2021-09-22 17:29:00 GMT 38.180241 -85.743607 0 113 12 0
2021-09-22 17:28:59 GMT 38.180290 -85.743683 0 104 10 0
2021-09-22 17:28:57 GMT 38.180309 -85.743820 0 113 9 0
2021-09-22 17:28:56 GMT 38.180321 -85.743881 0 112 8 0
2021-09-22 17:28:54 GMT 38.180351 -85.743919 0 105 13 0
2021-09-22 17:28:53 GMT 38.180382 -85.744011 0 106 11 0
2021-09-22 17:28:52 GMT 38.180408 -85.744148 0 108 8 0
2021-09-22 17:28:50 GMT 38.180420 -85.744186 0 106 9 0
2021-09-22 17:28:49 GMT 38.180450 -85.744217 0 102 11 0
2021-09-22 17:28:47 GMT 38.180462 -85.744370 0 107 9 0
2021-09-22 17:28:46 GMT 38.180481 -85.744476 0 106 8 0
2021-09-22 17:28:44 GMT 38.180500 -85.744530 0 103 7 0
2021-09-22 17:28:43 GMT 38.180531 -85.744629 0 81 5 0
2021-09-22 17:28:41 GMT 38.180550 -85.744659 0 73 5 0
2021-09-22 17:28:40 GMT 38.180519 -85.744713 0 80 4 0
2021-09-22 17:28:38 GMT 38.180519 -85.744713 0 83 6 0
2021-09-22 17:28:37 GMT 38.180511 -85.744713 0 77 10 0
2021-09-22 17:28:35 GMT 38.180519 -85.744881 0 42 6 0
2021-09-22 17:28:34 GMT 38.180500 -85.744904 0 26 6 0
2021-09-22 17:28:32 GMT 38.180481 -85.744957 0 2 8 0
2021-09-22 17:28:30 GMT 38.180420 -85.745003 0 340 6 0
2021-09-22 17:28:29 GMT 38.180389 -85.745010 0 339 7 0
2021-09-22 17:28:27 GMT 38.180328 -85.744980 0 343 8 0
2021-09-22 17:28:26 GMT 38.180321 -85.744957 0 346 10 0
2021-09-22 17:28:24 GMT 38.180241 -85.744949 0 341 13 0
2021-09-22 17:28:23 GMT 38.180130 -85.744911 0 340 13 0
2021-09-22 17:28:21 GMT 38.180080 -85.744881 0 342 14 0
2021-09-22 17:28:20 GMT 38.180031 -85.744850 0 346 16 0
2021-09-22 17:28:19 GMT 38.179878 -85.744812 0 346 14 0
2021-09-22 17:28:17 GMT 38.179810 -85.744781 0 348 14 0
2021-09-22 17:28:16 GMT 38.179668 -85.744751 0 346 12 0
2021-09-22 17:28:14 GMT 38.179619 -85.744751 0 341 13 0
2021-09-22 17:28:13 GMT 38.179501 -85.744690 0 345 13 0
2021-09-22 17:28:11 GMT 38.179451 -85.744667 0 348 15 0
2021-09-22 17:28:10 GMT 38.179371 -85.744652 0 346 14 0
2021-09-22 17:28:08 GMT 38.179249 -85.744637 0 338 15 0
2021-09-22 17:28:07 GMT 38.179192 -85.744621 0 337 15 0
2021-09-22 17:28:05 GMT 38.179050 -85.744537 0 340 13 0
2021-09-22 17:28:04 GMT 38.178989 -85.744492 0 342 12 0
2021-09-22 17:28:03 GMT 38.178928 -85.744492 0 342 13 0
2021-09-22 17:28:01 GMT 38.178810 -85.744431 0 347 12 0
2021-09-22 17:28:00 GMT 38.178749 -85.744400 0 347 11 0
2021-09-22 17:27:59 GMT 38.178711 -85.744400 0 346 13 0
2021-09-22 17:27:57 GMT 38.178581 -85.744339 0 353 11 0
2021-09-22 17:27:56 GMT 38.178551 -85.744339 0 352 14 0
2021-09-22 17:27:55 GMT 38.178490 -85.744308 0 352 13 0
2021-09-22 17:27:53 GMT 38.178371 -85.744324 0 340 10 0
2021-09-22 17:27:51 GMT 38.178268 -85.744278 0 343 10 0
2021-09-22 17:27:50 GMT 38.178211 -85.744263 0 342 8 0
2021-09-22 17:27:49 GMT 38.178181 -85.744247 0 342 9 0
2021-09-22 17:27:47 GMT 38.178108 -85.744232 0 342 12 0
2021-09-22 17:27:46 GMT 38.178059 -85.744186 0 347 11 0
2021-09-22 17:27:44 GMT 38.177959 -85.744171 0 343 10 0
2021-09-22 17:27:43 GMT 38.177921 -85.744186 0 336 12 0
2021-09-22 17:27:41 GMT 38.177849 -85.744133 0 346 16 0
2021-09-22 17:27:40 GMT 38.177792 -85.744102 0 348 17 0
2021-09-22 17:27:38 GMT 38.177631 -85.744057 0 351 18 0
2021-09-22 17:27:36 GMT 38.177448 -85.744041 0 340 17 0
2021-09-22 17:27:35 GMT 38.177368 -85.744011 0 339 17 0
2021-09-22 17:27:34 GMT 38.177319 -85.744003 0 338 19 0
2021-09-22 17:27:32 GMT 38.177151 -85.743874 0 349 19 0
2021-09-22 17:27:31 GMT 38.177052 -85.743828 0 352 17 0
2021-09-22 17:27:29 GMT 38.176899 -85.743828 0 344 18 0
2021-09-22 17:27:28 GMT 38.176819 -85.743813 0 342 19 0
2021-09-22 17:27:26 GMT 38.176651 -85.743713 0 349 19 0
2021-09-22 17:27:25 GMT 38.176559 -85.743683 0 348 18 0
2021-09-22 17:27:23 GMT 38.176380 -85.743660 0 341 17 0
2021-09-22 17:27:22 GMT 38.176300 -85.743607 0 343 16 0
2021-09-22 17:27:20 GMT 38.176151 -85.743561 0 345 14 0
2021-09-22 17:27:19 GMT 38.176079 -85.743538 0 342 14 0
2021-09-22 17:27:18 GMT 38.175991 -85.743500 0 348 17 0
2021-09-22 17:27:16 GMT 38.175911 -85.743477 0 347 17 0
2021-09-22 17:27:15 GMT 38.175789 -85.743446 0 344 12 0
2021-09-22 17:27:13 GMT 38.175690 -85.743393 0 353 15 0
2021-09-22 17:27:12 GMT 38.175549 -85.743370 0 348 14 0
2021-09-22 17:27:10 GMT 38.175499 -85.743370 0 346 15 0
2021-09-22 17:27:09 GMT 38.175419 -85.743317 0 349 14 0
2021-09-22 17:27:07 GMT 38.175270 -85.743309 0 348 10 0
2021-09-22 17:27:06 GMT 38.175220 -85.743263 0 356 9 0
2021-09-22 17:27:05 GMT 38.175171 -85.743271 0 347 9 0
2021-09-22 17:27:04 GMT 38.175091 -85.743294 0 333 11 0
2021-09-22 17:27:02 GMT 38.175049 -85.743263 0 331 11 0
2021-09-22 17:27:00 GMT 38.174950 -85.743179 0 337 9 0
2021-09-22 17:26:59 GMT 38.174900 -85.743149 0 346 9 0
2021-09-22 17:26:57 GMT 38.174850 -85.743057 0 11 13 0
2021-09-22 17:26:56 GMT 38.174789 -85.743057 0 10 13 0
2021-09-22 17:26:55 GMT 38.174721 -85.743073 0 10 13 0
2021-09-22 17:26:53 GMT 38.174629 -85.743111 0 4 17 0
2021-09-22 17:26:52 GMT 38.174549 -85.743134 0 4 17 0
2021-09-22 17:26:50 GMT 38.174381 -85.743156 0 357 12 0
2021-09-22 17:26:49 GMT 38.174332 -85.743156 0 6 12 0
2021-09-22 17:26:48 GMT 38.174221 -85.743088 0 24 13 0
2021-09-22 17:26:46 GMT 38.174160 -85.743156 0 17 11 0
2021-09-22 17:26:45 GMT 38.174110 -85.743187 0 15 11 0
2021-09-22 17:26:43 GMT 38.174000 -85.743210 0 24 11 0
2021-09-22 17:26:42 GMT 38.173939 -85.743202 0 35 11 0
2021-09-22 17:26:41 GMT 38.173859 -85.743233 0 38 14 0
2021-09-22 17:26:39 GMT 38.173790 -85.743301 0 38 11 0
2021-09-22 17:26:37 GMT 38.173729 -85.743393 0 28 13 0
2021-09-22 17:26:36 GMT 38.173679 -85.743431 0 28 14 0
2021-09-22 17:26:34 GMT 38.173599 -85.743538 0 18 17 0
2021-09-22 17:26:33 GMT 38.173439 -85.743599 0 20 16 0
2021-09-22 17:26:32 GMT 38.173389 -85.743683 0 10 17 0
2021-09-22 17:26:30 GMT 38.173321 -85.743690 0 9 17 0
2021-09-22 17:26:28 GMT 38.173149 -85.743698 0 12 18 0
2021-09-22 17:26:27 GMT 38.173069 -85.743721 0 16 18 0
2021-09-22 17:26:25 GMT 38.172890 -85.743752 0 19 16 0
2021-09-22 17:26:24 GMT 38.172798 -85.743797 0 14 15 0
2021-09-22 17:26:22 GMT 38.172649 -85.743813 0 13 17 0
2021-09-22 17:26:21 GMT 38.172588 -85.743843 0 3 21 0
2021-09-22 17:26:19 GMT 38.172401 -85.743889 0 353 26 0
2021-09-22 17:26:18 GMT 38.172279 -85.743874 0 351 28 0
2021-09-22 17:26:16 GMT 38.172050 -85.743858 0 346 37 0
2021-09-22 17:26:15 GMT 38.171719 -85.743797 0 343 43 0
2021-09-22 17:26:13 GMT 38.171471 -85.743683 0 345 42 0
2021-09-22 17:26:12 GMT 38.171291 -85.743622 0 345 44 0
2021-09-22 17:26:10 GMT 38.170910 -85.743492 0 345 53 0
2021-09-22 17:26:08 GMT 38.170448 -85.743332 450 345 61 0
2021-09-22 17:26:07 GMT 38.170181 -85.743248 450 345 65 0
2021-09-22 17:26:05 GMT 38.169579 -85.743103 450 342 72 0
2021-09-22 17:26:04 GMT 38.169258 -85.742989 450 342 76 0
2021-09-22 17:26:02 GMT 38.168598 -85.742638 450 347 88 0
2021-09-22 17:26:01 GMT 38.168228 -85.742538 450 347 93 0
2021-09-22 17:25:59 GMT 38.167389 -85.742287 450 346 101 32
2021-09-22 17:25:58 GMT 38.166950 -85.742188 450 345 108 32
2021-09-22 17:25:57 GMT 38.166481 -85.742050 450 344 112 32
2021-09-22 17:25:55 GMT 38.165508 -85.741669 450 346 120 32
2021-09-22 17:25:54 GMT 38.164429 -85.741379 475 344 124 32
2021-09-22 17:25:52 GMT 38.163898 -85.741188 475 344 127 -832
2021-09-22 17:25:51 GMT 38.162781 -85.740791 475 345 131 -832
2021-09-22 17:25:49 GMT 38.162189 -85.740578 500 345 132 -832
2021-09-22 17:25:48 GMT 38.161041 -85.740158 500 346 137 -832
2021-09-22 17:25:46 GMT 38.160419 -85.740013 500 345 137 -832
2021-09-22 17:25:44 GMT 38.159199 -85.739632 525 344 140 -832
2021-09-22 17:25:43 GMT 38.158581 -85.739418 550 344 140 -832
2021-09-22 17:25:42 GMT 38.157951 -85.739189 550 345 139 -832
2021-09-22 17:25:40 GMT 38.156700 -85.738747 575 345 140 -832
2021-09-22 17:25:39 GMT 38.156101 -85.738564 575 345 143 -832
2021-09-22 17:25:37 GMT 38.154758 -85.738129 625 344 135 -832
2021-09-22 17:25:36 GMT 38.154148 -85.737953 625 343 135 -832
2021-09-22 17:25:34 GMT 38.152981 -85.737518 650 345 142 -736
2021-09-22 17:25:33 GMT 38.152351 -85.737343 650 344 143 -736
2021-09-22 17:25:32 GMT 38.151070 -85.736877 700 344 141 -736
2021-09-22 17:25:30 GMT 38.150459 -85.736649 800 345 143 -736
2021-09-22 17:25:29 GMT 38.149139 -85.736282 800 343 140 -736
2021-09-22 17:25:27 GMT 38.148491 -85.736031 800 343 136 -736
2021-09-22 17:25:25 GMT 38.147282 -85.735603 800 344 137 -736
2021-09-22 17:25:24 GMT 38.146671 -85.735336 800 346 136 -736
2021-09-22 17:25:22 GMT 38.145432 -85.734978 800 344 138 -736
2021-09-22 17:25:21 GMT 38.144218 -85.734497 900 347 142 -736
2021-09-22 17:25:19 GMT 38.143581 -85.734299 900 347 142 -736
2021-09-22 17:25:18 GMT 38.142979 -85.734100 900 348 146 -736
2021-09-22 17:25:16 GMT 38.141640 -85.733810 875 345 142 -736
2021-09-22 17:25:15 GMT 38.141022 -85.733582 900 344 144 -736
2021-09-22 17:25:13 GMT 38.139709 -85.733139 900 345 143 -736
2021-09-22 17:25:12 GMT 38.139069 -85.732826 900 348 139 -736
2021-09-22 17:25:11 GMT 38.138439 -85.732697 1,000 347 141 -736
2021-09-22 17:25:09 GMT 38.137199 -85.732391 1,000 345 144 -736
2021-09-22 17:25:08 GMT 38.136551 -85.732147 1,000 346 143 -736
2021-09-22 17:25:07 GMT 38.135899 -85.731987 1,000 344 143 -736
2021-09-22 17:25:05 GMT 38.134621 -85.731552 1,100 344 142 -736
2021-09-22 17:25:04 GMT 38.133961 -85.731354 1,100 343 140 -736
2021-09-22 17:25:02 GMT 38.132740 -85.730873 1,100 344 141 -736
2021-09-22 17:25:01 GMT 38.132111 -85.730659 1,100 344 142 -736
2021-09-22 17:25:00 GMT 38.131470 -85.730377 1,100 346 141 -736
2021-09-22 17:24:58 GMT 38.130169 -85.729988 1,100 346 136 -736
2021-09-22 17:24:57 GMT 38.129608 -85.729782 1,200 348 141 -736
2021-09-22 17:24:56 GMT 38.128342 -85.729530 1,200 345 143 -736
2021-09-22 17:24:54 GMT 38.127670 -85.729332 1,200 345 141 -736
2021-09-22 17:24:52 GMT 38.126389 -85.728920 1,200 344 141 -736
2021-09-22 17:24:51 GMT 38.125771 -85.728706 1,200 344 142 -736
2021-09-22 17:24:49 GMT 38.124489 -85.728279 1,200 344 140 -736
2021-09-22 17:24:48 GMT 38.123878 -85.728043 1,400 345 141 -736
2021-09-22 17:24:46 GMT 38.122608 -85.727623 1,400 345 140 -736
2021-09-22 17:24:45 GMT 38.121922 -85.727417 1,400 345 137 -736
2021-09-22 17:24:43 GMT 38.120708 -85.727013 1,400 345 138 -736
2021-09-22 17:24:42 GMT 38.120079 -85.726830 1,400 344 137 -736
2021-09-22 17:24:41 GMT 38.118870 -85.726410 1,400 344 139 -736
2021-09-22 17:24:39 GMT 38.118252 -85.726143 1,400 345 139 -736
2021-09-22 17:24:38 GMT 38.117661 -85.725960 1,400 345 142 -736
2021-09-22 17:24:37 GMT 38.116428 -85.725548 1,400 346 146 -736
2021-09-22 17:24:35 GMT 38.115841 -85.725327 1,400 346 151 -448
2021-09-22 17:24:34 GMT 38.114079 -85.725014 1,500 345 140 -448
2021-09-22 17:24:32 GMT 38.113461 -85.724808 1,500 345 140 -448
2021-09-22 17:24:31 GMT 38.112831 -85.724609 1,500 345 140 -448
2021-09-22 17:24:29 GMT 38.111580 -85.724220 1,500 345 140 -448
2021-09-22 17:24:28 GMT 38.110950 -85.724007 1,500 345 140 -448
2021-09-22 17:24:26 GMT 38.109699 -85.723602 1,500 345 140 -448
2021-09-22 17:24:25 GMT 38.109009 -85.723503 1,600 344 139 -448
2021-09-22 17:24:23 GMT 38.107761 -85.723083 1,600 344 139 -448
2021-09-22 17:24:21 GMT 38.106522 -85.722649 1,600 344 139 -448
2021-09-22 17:24:20 GMT 38.105709 -85.722397 1,700 344 136 -448
2021-09-22 17:24:19 GMT 38.104488 -85.721977 1,700 344 136 -448
2021-09-22 17:24:17 GMT 38.103889 -85.721771 1,700 344 136 -448
2021-09-22 17:24:15 GMT 38.102619 -85.721451 1,700 343 135 -448
2021-09-22 17:24:14 GMT 38.102020 -85.721237 1,700 343 135 -448
2021-09-22 17:24:13 GMT 38.101421 -85.721024 1,700 343 135 -448
2021-09-22 17:24:11 GMT 38.099930 -85.720657 1,700 342 129 -448
2021-09-22 17:24:10 GMT 38.099361 -85.720428 1,700 342 129 -448
2021-09-22 17:24:09 GMT 38.098209 -85.719978 1,700 342 129 -448
2021-09-22 17:24:07 GMT 38.097641 -85.719757 1,700 342 129 -448
2021-09-22 17:24:06 GMT 38.096710 -85.719490 1,800 343 122 -448
2021-09-22 17:24:05 GMT 38.096169 -85.719276 1,800 343 122 -448
2021-09-22 17:24:03 GMT 38.095100 -85.718842 1,800 343 122 -448
2021-09-22 17:24:02 GMT 38.094360 -85.718407 1,900 344 139 -448
2021-09-22 17:24:00 GMT 38.093731 -85.718201 1,900 344 139 -448
2021-09-22 17:23:59 GMT 38.092491 -85.717758 1,900 344 139 -448
2021-09-22 17:23:57 GMT 38.091961 -85.717537 2,000 345 144 -448
2021-09-22 17:23:56 GMT 38.091320 -85.717323 2,000 345 144 -448
2021-09-22 17:23:54 GMT 38.090012 -85.716881 2,000 345 142 -448
2021-09-22 17:23:53 GMT 38.089371 -85.716682 2,000 344 142 -448
2021-09-22 17:23:52 GMT 38.088730 -85.716461 2,000 344 142 -448
2021-09-22 17:23:51 GMT 38.087421 -85.716019 2,000 344 143 -448
2021-09-22 17:23:49 GMT 38.086819 -85.715797 2,000 344 146 -448
2021-09-22 17:23:48 GMT 38.085548 -85.715393 2,100 344 153 -448
2021-09-22 17:23:46 GMT 38.084911 -85.715149 2,100 344 157 -448
2021-09-22 17:23:45 GMT 38.084221 -85.714897 2,100 345 157 -448
2021-09-22 17:23:43 GMT 38.082840 -85.714417 2,200 345 160 -448
2021-09-22 17:23:42 GMT 38.082088 -85.714180 2,200 345 157 -448
2021-09-22 17:23:40 GMT 38.080669 -85.713707 2,200 344 156 -448
2021-09-22 17:23:39 GMT 38.079979 -85.713478 2,200 345 157 -448
2021-09-22 17:23:37 GMT 38.078621 -85.712997 2,200 345 162 -448
2021-09-22 17:23:36 GMT 38.077888 -85.712769 2,200 345 161 -448
2021-09-22 17:23:35 GMT 38.077160 -85.712532 2,200 345 161 -448
2021-09-22 17:23:33 GMT 38.075722 -85.712051 2,300 345 161 -1312
2021-09-22 17:23:32 GMT 38.074268 -85.711578 2,300 344 161 -1312
2021-09-22 17:23:30 GMT 38.073601 -85.711342 2,300 344 164 -1312
2021-09-22 17:23:29 GMT 38.072842 -85.711098 2,300 344 163 -1312
2021-09-22 17:23:27 GMT 38.071350 -85.710609 2,300 344 160 -1312
2021-09-22 17:23:26 GMT 38.069920 -85.710098 2,400 344 162 -1312
2021-09-22 17:23:24 GMT 38.069149 -85.709831 2,400 344 160 -1312
2021-09-22 17:23:23 GMT 38.067741 -85.709351 2,400 344 166 -1312
2021-09-22 17:23:21 GMT 38.067001 -85.709106 2,400 343 167 -1312
2021-09-22 17:23:20 GMT 38.066311 -85.708862 2,500 344 173 -1312
2021-09-22 17:23:18 GMT 38.064819 -85.708298 2,500 345 180 -1312
2021-09-22 17:23:17 GMT 38.064060 -85.708000 2,500 346 183 -1312
2021-09-22 17:23:15 GMT 38.062469 -85.707451 2,500 346 188 -1312
2021-09-22 17:23:09 GMT 38.058014 -85.706039 2,525 346 176 -960
2021-09-22 17:23:05 GMT 38.055130 -85.705109 2,575 346 179 -1024
2021-09-22 17:23:00 GMT 38.049454 -85.703293 2,700 347 181 -960
2021-09-22 17:22:57 GMT 38.048309 -85.702942 2,725 347 180 -896
2021-09-22 17:22:50 GMT 38.042023 -85.701065 2,825 347 183 -448
2021-09-22 17:22:46 GMT 38.039509 -85.700348 2,825 347 185 -512
2021-09-22 17:22:38 GMT 38.032574 -85.698318 3,000 348 190 -768
2021-09-22 17:22:35 GMT 38.030045 -85.697624 2,975 348 190 -704
2021-09-22 17:22:29 GMT 38.024754 -85.696167 3,000 348 197 64
2021-09-22 17:22:25 GMT 38.021496 -85.695267 3,000 348 200 128
2021-09-22 17:22:15 GMT 38.011871 -85.692421 3,025 346 204 -256
2021-09-22 17:22:05 GMT 38.002625 -85.689156 3,000 343 210 192
2021-09-22 17:21:54 GMT 37.992783 -85.685005 3,000 340 212 0
2021-09-22 17:21:44 GMT 37.983505 -85.679749 2,975 323 213 0
2021-09-22 17:21:37 GMT 37.978226 -85.673897 2,975 316 216 0
2021-09-22 17:21:34 GMT 37.975937 -85.671097 2,975 316 217 0
2021-09-22 17:21:23 GMT 37.968018 -85.661217 2,975 315 230 -64
2021-09-22 17:21:15 GMT 37.960098 -85.650932 3,000 309 243 64
2021-09-22 17:21:12 GMT 37.960098 -85.650932 3,000 312 242 64
2021-09-22 17:21:02 GMT 37.953434 -85.638908 3,000 295 245 -64
2021-09-22 17:20:51 GMT 37.948406 -85.624397 3,000 294 250 -128
2021-09-22 17:20:40 GMT 37.943192 -85.608635 3,050 293 253 -576
2021-09-22 17:20:31 GMT 37.939095 -85.596275 3,225 293 254 -1600
2021-09-22 17:20:23 GMT 37.935791 -85.586243 3,425 293 256 -1664
2021-09-22 17:20:09 GMT 37.929337 -85.566254 3,800 293 255 -1664
2021-09-22 17:20:00 GMT 37.925270 -85.554062 4,050 293 255 -1600
2021-09-22 17:19:54 GMT 37.921829 -85.543701 4,225 293 259 -1600
2021-09-22 17:19:49 GMT 37.920181 -85.538734 4,325 293 256 -1728
2021-09-22 17:19:00 GMT 37.897152 -85.469391 5,625 293 264 -1600
2021-09-22 17:18:55 GMT 37.894684 -85.461990 5,750 293 264 -1600
2021-09-22 17:18:45 GMT 37.890198 -85.448387 6,025 293 265 -1664
2021-09-22 17:18:20 GMT 37.883331 -85.416664 6,700 294 268
2021-09-22 17:17:49 GMT 37.861111 -85.361389 7,600 287 275
2021-09-22 17:17:20 GMT 37.849998 -85.316666 8,300 297 279
We lost coverage of the aircraft here for a total of 5 minutes
2021-09-22 17:12:16 GMT 37.651199 -84.912041 10,650 274 281 -1792
2021-09-22 17:12:10 GMT 37.650612 -84.899773 10,875 275 283 -1856
2021-09-22 17:11:59 GMT 37.649689 -84.882126 11,200 275 283 -1856
2021-09-22 17:11:32 GMT 37.647213 -84.839409 11,975 275 279 -1792
2021-09-22 17:11:27 GMT 37.646576 -84.829819 12,150 275 279 -1856
2021-09-22 17:11:18 GMT 37.645615 -84.815094 12,425 275 283 -1856
2021-09-22 17:11:08 GMT 37.644608 -84.799347 12,725 275 287 -1856
2021-09-22 17:10:55 GMT 37.643303 -84.778450 13,100 275 293 -1792
2021-09-22 17:10:47 GMT 37.642319 -84.762505 13,350 275 298 -1856
2021-09-22 17:10:36 GMT 37.641037 -84.743629 13,700 275 305 -1856
2021-09-22 17:10:24 GMT 37.639847 -84.725044 14,025 275 310 -1920
2021-09-22 17:10:14 GMT 37.638786 -84.705544 14,350 275 317 -1792
2021-09-22 17:10:01 GMT 37.637192 -84.679283 14,750 275 325 -1920
2021-09-22 17:09:52 GMT 37.636181 -84.664230 15,025 276 332 -2112
2021-09-22 17:09:43 GMT 37.634689 -84.644463 15,400 276 336 -2304
2021-09-22 17:09:32 GMT 37.633118 -84.622719 15,800 275 339 -2368
2021-09-22 17:09:20 GMT 37.631760 -84.602783 16,175 276 343 -2304
2021-09-22 17:09:10 GMT 37.630131 -84.579086 16,600 276 349 -2304
2021-09-22 17:08:59 GMT 37.628586 -84.558144 16,975 276 353 -2240
2021-09-22 17:08:48 GMT 37.627029 -84.537575 17,350 276 359 -2368
2021-09-22 17:08:39 GMT 37.625519 -84.515778 17,725 275 365 -2368
2021-09-22 17:08:28 GMT 37.623962 -84.493279 18,125 275 370 -2368
2021-09-22 17:08:15 GMT 37.622028 -84.466652 18,575 276 377 -2368
2021-09-22 17:08:06 GMT 37.620621 -84.445183 18,950 275 384 -2368
2021-09-22 17:07:56 GMT 37.619144 -84.421570 19,325 275 392 -2240
2021-09-22 17:07:44 GMT 37.617371 -84.396973 19,675 276 403 -2176
2021-09-22 17:07:29 GMT 37.614719 -84.361687 20,175 276 413 -2112
2021-09-22 17:07:23 GMT 37.613464 -84.344910 20,400 276 414 -2112
2021-09-22 17:07:13 GMT 37.611740 -84.321182 20,725 276 413 -2176
2021-09-22 17:06:58 GMT 37.609360 -84.288101 21,200 276 411 -2176
2021-09-22 17:06:52 GMT 37.608307 -84.270515 21,450 272 405 -2176
2021-09-22 17:06:34 GMT 37.611603 -84.228905 22,075 254 382 -2112
2021-09-22 17:06:29 GMT 37.613277 -84.221375 22,175 253 381 -1856
2021-09-22 17:06:19 GMT 37.618515 -84.200974 22,475 252 379 -1920
2021-09-22 17:06:12 GMT 37.622910 -84.184196 22,725 252 379 -1920
2021-09-22 17:06:02 GMT 37.628403 -84.163277 23,025 252 377 -1728
2021-09-22 17:05:44 GMT 37.638416 -84.125298 23,400 252 371 -1088
2021-09-22 17:05:40 GMT 37.640045 -84.119087 23,450 252 373 -1152
2021-09-22 17:05:36 GMT 37.643211 -84.107147 23,575 252 369 -1152
2021-09-22 17:05:30 GMT 37.645908 -84.096878 23,650 252 369 -1152
2021-09-22 17:05:18 GMT 37.651821 -84.074547 23,825 252 364 -1088
2021-09-22 17:05:09 GMT 37.656712 -84.056099 23,950 252 362 -832
2021-09-22 17:04:59 GMT 37.661877 -84.036575 23,975 253 361 -128
2021-09-22 17:04:51 GMT 37.666206 -84.019798 24,000 252 360 0
2021-09-22 17:04:48 GMT 37.667908 -84.013214 24,000 253 360 0
2021-09-22 17:04:39 GMT 37.672440 -83.995621 24,000 252 360 0
2021-09-22 17:04:31 GMT 37.676422 -83.980484 24,000 252 360 0
2021-09-22 17:04:21 GMT 37.681778 -83.959679 24,000 252 360 -64
2021-09-22 17:04:17 GMT 37.684296 -83.950096 24,000 252 360 -64
2021-09-22 17:04:12 GMT 37.686859 -83.940048 24,000 252 361 0
2021-09-22 17:03:59 GMT 37.693161 -83.915787 24,000 252 363 -128
2021-09-22 17:03:49 GMT 37.698376 -83.895660 24,000 252 363 -64
2021-09-22 17:03:40 GMT 37.703659 -83.875298 24,000 252 364 64
2021-09-22 17:03:33 GMT 37.707413 -83.860802 24,000 252 364 64
2021-09-22 17:03:22 GMT 37.712769 -83.840118 24,000 253 366 -192
2021-09-22 17:03:17 GMT 37.715088 -83.830940 24,000 253 366 -192
2021-09-22 17:03:06 GMT 37.721416 -83.806458 24,025 253 368 -64
2021-09-22 17:02:57 GMT 37.725906 -83.788986 24,150 253 370 -1024
2021-09-22 17:02:49 GMT 37.730438 -83.771278 24,275 253 370 -1024
2021-09-22 17:02:37 GMT 37.736160 -83.749069 24,450 253 370 -1088
2021-09-22 17:02:25 GMT 37.742413 -83.724594 24,650 252 370 -1088
2021-09-22 17:02:18 GMT 37.747116 -83.706505 24,800 253 370 -1024
2021-09-22 17:02:06 GMT 37.752457 -83.685783 24,975 252 370 -1088
2021-09-22 17:01:57 GMT 37.757683 -83.665489 25,150 253 370 -1088
2021-09-22 17:01:47 GMT 37.763500 -83.642860 25,325 253 370 -1088
2021-09-22 17:01:34 GMT 37.769669 -83.618813 25,525 253 370 -1024
2021-09-22 17:01:26 GMT 37.774292 -83.600639 25,675 253 371 -1088
2021-09-22 17:01:14 GMT 37.780025 -83.578133 25,850 253 372 -1088
2021-09-22 17:01:02 GMT 37.786377 -83.553009 26,050 253 373 -1024
2021-09-22 17:00:53 GMT 37.791824 -83.531387 26,225 253 374 -1088
2021-09-22 17:00:44 GMT 37.795856 -83.515381 26,350 253 375 -1088
2021-09-22 17:00:32 GMT 37.802124 -83.490425 26,550 253 377 -1088
2021-09-22 17:00:23 GMT 37.807354 -83.469643 26,725 253 378 -1088
2021-09-22 17:00:12 GMT 37.812790 -83.447945 26,900 253 380 -1152
2021-09-22 17:00:02 GMT 37.818649 -83.424622 27,100 253 381 -1152
2021-09-22 16:59:51 GMT 37.823914 -83.403763 27,250 253 383 -1088
2021-09-22 16:59:41 GMT 37.829453 -83.381966 27,425 253 385 -1088
2021-09-22 16:59:32 GMT 37.834854 -83.360573 27,600 253 385 -1152
2021-09-22 16:59:20 GMT 37.840576 -83.337898 27,775 253 384 -1024
2021-09-22 16:59:10 GMT 37.845993 -83.316315 27,925 253 382 -832
2021-09-22 16:59:01 GMT 37.851345 -83.295059 28,000 253 382 -64
2021-09-22 16:58:49 GMT 37.857330 -83.271515 28,000 253 382 0
2021-09-22 16:58:43 GMT 37.861359 -83.255333 28,000 253 382 0
2021-09-22 16:58:39 GMT 37.862705 -83.249977 28,000 253 382 0
2021-09-22 16:58:30 GMT 37.868225 -83.228096 28,000 253 383 -64
2021-09-22 16:58:19 GMT 37.873646 -83.206505 28,000 253 383 -64
2021-09-22 16:58:09 GMT 37.879089 -83.184715 28,000 253 384 0
2021-09-22 16:57:58 GMT 37.884659 -83.162704 28,000 253 384 -64
2021-09-22 16:57:50 GMT 37.889191 -83.144768 28,000 253 383 0
2021-09-22 16:57:47 GMT 37.890869 -83.138145 28,000 253 384 0
2021-09-22 16:57:38 GMT 37.895966 -83.117828 28,000 253 383 0
2021-09-22 16:57:27 GMT 37.901482 -83.095810 28,025 253 383 -64
2021-09-22 16:57:16 GMT 37.906998 -83.073761 28,025 253 383 0
2021-09-22 16:57:07 GMT 37.912655 -83.050850 28,000 253 383 64
2021-09-22 16:56:56 GMT 37.918007 -83.029472 28,000 253 384 -64
2021-09-22 16:56:49 GMT 37.921646 -83.014679 28,000 253 384 0
2021-09-22 16:56:44 GMT 37.924210 -83.004395 28,000 253 384 64
2021-09-22 16:56:36 GMT 37.928879 -82.985519 28,000 253 384 -128
2021-09-22 16:56:27 GMT 37.933823 -82.965363 28,000 253 384 -64
2021-09-22 16:56:24 GMT 37.934906 -82.960869 28,000 253 384 0
2021-09-22 16:56:18 GMT 37.937943 -82.948586 28,000 253 385 64
2021-09-22 16:56:15 GMT 37.939865 -82.940872 28,000 253 385 64
2021-09-22 16:56:07 GMT 37.943939 -82.924324 28,000 253 385 -128
2021-09-22 16:56:03 GMT 37.945724 -82.917206 28,000 253 385 -192
2021-09-22 16:55:57 GMT 37.949890 -82.900261 28,025 253 385 -128
2021-09-22 16:55:54 GMT 37.950966 -82.895966 28,025 253 384 -64
2021-09-22 16:55:47 GMT 37.954605 -82.881149 28,025 253 384 64
2021-09-22 16:55:44 GMT 37.956554 -82.873215 28,025 253 384 128
2021-09-22 16:55:36 GMT 37.960045 -82.859009 28,000 253 384 128
2021-09-22 16:55:33 GMT 37.962021 -82.851112 27,975 253 384 128
2021-09-22 16:55:22 GMT 37.967697 -82.828323 28,000 253 385 -256
2021-09-22 16:55:13 GMT 37.972984 -82.806580 28,025 253 384 -64
2021-09-22 16:55:02 GMT 37.978573 -82.784309 28,000 253 383 192
2021-09-22 16:54:51 GMT 37.984039 -82.762230 28,000 253 384 -64
2021-09-22 16:54:42 GMT 37.989605 -82.739227 28,000 253 384 64
2021-09-22 16:54:30 GMT 37.995163 -82.716652 28,000 253 384 -128
2021-09-22 16:54:20 GMT 38.000336 -82.695610 28,000 253 384 0
2021-09-22 16:54:15 GMT 38.003448 -82.682755 28,000 253 384 64
2021-09-22 16:54:10 GMT 38.005783 -82.673347 28,000 253 383 128
2021-09-22 16:54:00 GMT 38.011208 -82.651222 28,000 253 383 0
2021-09-22 16:53:53 GMT 38.014744 -82.637131 28,000 253 383 -64
2021-09-22 16:53:50 GMT 38.016747 -82.628952 28,000 253 383 -64
2021-09-22 16:53:43 GMT 38.019745 -82.616776 28,000 253 383 -128
2021-09-22 16:53:38 GMT 38.022583 -82.605209 28,000 253 383 -64
2021-09-22 16:53:29 GMT 38.027546 -82.584885 28,000 253 382 0
2021-09-22 16:53:25 GMT 38.029175 -82.578209 28,000 253 382 0
2021-09-22 16:53:19 GMT 38.033176 -82.561775 28,000 253 382 0
2021-09-22 16:53:12 GMT 38.036499 -82.548286 28,000 253 382 0
2021-09-22 16:53:07 GMT 38.038578 -82.539986 28,000 253 381 64
2021-09-22 16:53:03 GMT 38.041672 -82.527428 28,000 253 382 0
2021-09-22 16:52:58 GMT 38.043934 -82.518250 28,000 253 382 0
2021-09-22 16:52:52 GMT 38.046936 -82.506096 28,000 253 382 0
2021-09-22 16:52:47 GMT 38.049377 -82.496040 28,000 253 382 0
2021-09-22 16:52:36 GMT 38.054916 -82.473412 28,000 253 382 -64
2021-09-22 16:52:26 GMT 38.060623 -82.449936 28,000 253 381 -64
2021-09-22 16:52:16 GMT 38.065567 -82.429657 28,000 253 381 64
2021-09-22 16:52:06 GMT 38.070923 -82.407455 28,000 253 382 0
2021-09-22 16:51:55 GMT 38.076782 -82.383438 28,000 254 383 64
2021-09-22 16:51:44 GMT 38.081863 -82.362343 28,000 254 384 -64
2021-09-22 16:51:34 GMT 38.087177 -82.340141 28,000 254 385 -64
2021-09-22 16:51:24 GMT 38.092484 -82.317871 28,000 254 386 64
2021-09-22 16:51:14 GMT 38.097839 -82.295540 28,000 253 387 0
2021-09-22 16:51:04 GMT 38.103333 -82.273026 28,000 254 387 0
2021-09-22 16:50:53 GMT 38.108685 -82.250816 28,000 253 389 0
2021-09-22 16:50:42 GMT 38.114319 -82.227524 28,000 254 389 0
2021-09-22 16:50:33 GMT 38.119720 -82.205025 28,000 254 390 0
2021-09-22 16:50:22 GMT 38.125076 -82.182877 28,000 254 390 -64
2021-09-22 16:50:10 GMT 38.131119 -82.157867 28,000 254 391 64
2021-09-22 16:50:01 GMT 38.136063 -82.137177 28,000 254 394 64
2021-09-22 16:49:58 GMT 38.137920 -82.129494 28,000 254 394 64
2021-09-22 16:49:50 GMT 38.141972 -82.112709 28,000 254 394 -64
2021-09-22 16:49:41 GMT 38.147186 -82.091248 28,000 253 394 0
2021-09-22 16:49:32 GMT 38.151466 -82.073784 28,000 254 397 0
2021-09-22 16:49:29 GMT 38.153458 -82.065590 27,975 254 396 0
2021-09-22 16:49:19 GMT 38.158405 -82.044884 28,000 254 397 -64
2021-09-22 16:49:13 GMT 38.161617 -82.031509 27,975 254 397 -128
2021-09-22 16:49:10 GMT 38.163849 -82.022133 28,000 254 397 -128
2021-09-22 16:49:01 GMT 38.168335 -82.003120 28,000 254 398 64
2021-09-22 16:48:58 GMT 38.169994 -81.996223 28,000 254 399 192
2021-09-22 16:48:48 GMT 38.175064 -81.974838 28,000 254 401 -128
2021-09-22 16:48:39 GMT 38.180794 -81.951202 28,025 253 402 -256
2021-09-22 16:48:28 GMT 38.186241 -81.928574 28,025 254 404 128
2021-09-22 16:48:17 GMT 38.192200 -81.903610 28,000 254 405 128
2021-09-22 16:48:08 GMT 38.197403 -81.881981 28,000 253 406 128
2021-09-22 16:48:00 GMT 38.201340 -81.865562 28,000 253 406 -64
2021-09-22 16:47:57 GMT 38.203049 -81.858475 28,000 254 407 -64
2021-09-22 16:47:46 GMT 38.208710 -81.834877 28,000 254 410 -64
2021-09-22 16:47:36 GMT 38.214405 -81.810707 28,000 254 411 -128
2021-09-22 16:47:31 GMT 38.217224 -81.798882 28,025 254 416 128
2021-09-22 16:47:25 GMT 38.220612 -81.784561 28,000 254 413 64
2021-09-22 16:47:16 GMT 38.225811 -81.762466 28,000 254 414 64
2021-09-22 16:47:08 GMT 38.230591 -81.742195 28,000 254 416 128
2021-09-22 16:47:05 GMT 38.231598 -81.737991 28,000 254 416 128
2021-09-22 16:46:59 GMT 38.234844 -81.724129 27,975 254 417 64
2021-09-22 16:46:54 GMT 38.237682 -81.711891 27,975 254 418 -128
2021-09-22 16:46:50 GMT 38.240337 -81.700607 28,000 254 420 -320
2021-09-22 16:46:45 GMT 38.243088 -81.689018 28,025 254 420 -256
2021-09-22 16:46:38 GMT 38.246246 -81.675529 28,025 254 422 -128
2021-09-22 16:46:34 GMT 38.248810 -81.664886 28,025 254 422 0
2021-09-22 16:46:26 GMT 38.253139 -81.646568 28,025 254 423 128
2021-09-22 16:46:23 GMT 38.254532 -81.640572 28,000 254 424 128
2021-09-22 16:46:19 GMT 38.257462 -81.628181 28,000 254 425 64
2021-09-22 16:46:14 GMT 38.260353 -81.615936 28,000 254 426 0
2021-09-22 16:46:08 GMT 38.263458 -81.602760 28,000 254 427 -64
2021-09-22 16:46:02 GMT 38.266434 -81.590317 28,000 254 427 64
2021-09-22 16:45:56 GMT 38.269958 -81.575417 28,000 254 426 0
2021-09-22 16:45:53 GMT 38.272270 -81.565544 28,000 254 426 0
2021-09-22 16:45:48 GMT 38.275269 -81.552856 28,000 254 426 0
2021-09-22 16:45:42 GMT 38.278061 -81.540817 28,000 254 426 -64
2021-09-22 16:45:36 GMT 38.281208 -81.527687 28,000 254 425 -64
2021-09-22 16:45:31 GMT 38.284142 -81.515213 28,000 254 425 0
2021-09-22 16:45:27 GMT 38.286942 -81.502953 28,000 254 425 -64
2021-09-22 16:45:22 GMT 38.289734 -81.490974 28,000 254 425 -64
2021-09-22 16:45:16 GMT 38.292526 -81.479050 28,000 254 424 0
2021-09-22 16:45:11 GMT 38.295406 -81.466850 28,000 254 424 64
2021-09-22 16:45:05 GMT 38.298569 -81.453224 28,000 254 424 64
2021-09-22 16:44:59 GMT 38.301910 -81.438843 28,000 254 424 64
2021-09-22 16:44:55 GMT 38.304623 -81.427139 28,000 254 425 0
2021-09-22 16:44:51 GMT 38.307045 -81.416573 28,000 254 425 -64
2021-09-22 16:44:45 GMT 38.309875 -81.404366 28,000 254 424 0
2021-09-22 16:44:40 GMT 38.312759 -81.391922 28,000 254 424 0
2021-09-22 16:44:34 GMT 38.315704 -81.379318 28,000 254 424 0
2021-09-22 16:44:29 GMT 38.318588 -81.366898 28,000 254 424 64
2021-09-22 16:44:25 GMT 38.321476 -81.354477 28,000 254 424 64
2021-09-22 16:44:20 GMT 38.324364 -81.342056 28,000 254 423 0
2021-09-22 16:44:14 GMT 38.327362 -81.329391 28,000 254 423 0
2021-09-22 16:44:08 GMT 38.330429 -81.316010 28,000 254 423 -64
2021-09-22 16:44:04 GMT 38.332928 -81.305275 28,000 254 423 -64
2021-09-22 16:43:59 GMT 38.335815 -81.292854 28,000 254 423 0
2021-09-22 16:43:53 GMT 38.338852 -81.279716 28,000 254 423 0
2021-09-22 16:43:48 GMT 38.341446 -81.268494 28,000 254 423 0
2021-09-22 16:43:42 GMT 38.344612 -81.254646 28,000 254 422 -64
2021-09-22 16:43:38 GMT 38.347126 -81.243660 28,000 254 422 0
2021-09-22 16:43:33 GMT 38.350021 -81.231041 28,000 254 422 0
2021-09-22 16:43:28 GMT 38.353130 -81.217445 28,000 254 422 0
2021-09-22 16:43:21 GMT 38.356018 -81.204742 28,000 254 422 0
2021-09-22 16:43:17 GMT 38.358536 -81.193817 28,000 254 422 0
2021-09-22 16:43:11 GMT 38.362164 -81.177795 28,000 254 422 0
2021-09-22 16:43:06 GMT 38.364349 -81.168304 28,000 254 421 64
2021-09-22 16:43:00 GMT 38.367371 -81.155190 28,000 254 421 64
2021-09-22 16:42:57 GMT 38.369797 -81.144485 28,000 254 421 0
2021-09-22 16:42:45 GMT 38.375748 -81.118492 28,000 254 421 0
2021-09-22 16:42:40 GMT 38.379135 -81.103760 28,000 254 420 -64
2021-09-22 16:42:36 GMT 38.381248 -81.094505 28,000 254 420 0
2021-09-22 16:42:29 GMT 38.384216 -81.081436 28,000 254 420 -64
2021-09-22 16:42:25 GMT 38.386597 -81.070976 28,000 254 420 -64
2021-09-22 16:42:19 GMT 38.389816 -81.057007 28,000 254 420 0
2021-09-22 16:42:14 GMT 38.392365 -81.045853 28,000 254 420 0
2021-09-22 16:42:10 GMT 38.395168 -81.033249 28,000 254 420 0
2021-09-22 16:42:05 GMT 38.397961 -81.020889 28,000 254 420 -64
2021-09-22 16:41:54 GMT 38.403362 -80.997124 28,000 254 420 0
2021-09-22 16:41:44 GMT 38.408947 -80.972466 28,000 254 420 -64
2021-09-22 16:41:33 GMT 38.414860 -80.946289 28,000 254 420 64
2021-09-22 16:41:22 GMT 38.420471 -80.921349 28,000 254 420 0
2021-09-22 16:41:12 GMT 38.425659 -80.898254 28,000 255 421 0
2021-09-22 16:41:06 GMT 38.429710 -80.880188 28,000 255 421 -64
2021-09-22 16:41:03 GMT 38.431274 -80.873230 28,000 255 421 -64
2021-09-22 16:40:55 GMT 38.434830 -80.857300 28,000 255 421 -64
2021-09-22 16:40:51 GMT 38.437225 -80.846535 28,000 255 420 64
2021-09-22 16:40:44 GMT 38.440475 -80.831787 28,000 255 421 -64
2021-09-22 16:40:40 GMT 38.443165 -80.819580 28,000 255 421 0
2021-09-22 16:40:35 GMT 38.445492 -80.809082 28,000 255 421 -64
2021-09-22 16:40:29 GMT 38.448795 -80.794312 28,000 255 421 -64
2021-09-22 16:40:19 GMT 38.453842 -80.771606 28,000 255 421 -64
2021-09-22 16:40:11 GMT 38.458946 -80.748474 28,000 255 420 0
2021-09-22 16:40:06 GMT 38.460892 -80.739662 28,000 255 420 0
2021-09-22 16:40:00 GMT 38.464737 -80.721985 28,000 256 421 0
2021-09-22 16:39:57 GMT 38.465275 -80.719360 28,000 256 421 64
2021-09-22 16:39:47 GMT 38.469139 -80.693909 28,000 262 424 -64
2021-09-22 16:39:39 GMT 38.471420 -80.672119 28,000 263 424 64
2021-09-22 16:39:29 GMT 38.473892 -80.648605 28,000 263 424 128
2021-09-22 16:39:18 GMT 38.477940 -80.609741 28,000 263 423 -128
2021-09-22 16:38:53 GMT 38.483139 -80.559517 28,000 263 423 64
2021-09-22 16:38:43 GMT 38.485886 -80.532768 28,000 263 423 -128
2021-09-22 16:38:30 GMT 38.488876 -80.504333 28,000 263 423 64
2021-09-22 16:38:24 GMT 38.490372 -80.489723 28,000 263 422 0
2021-09-22 16:38:21 GMT 38.494091 -80.453430 28,000 263 422 0
2021-09-22 16:38:11 GMT 38.494091 -80.453430 28,000 263 422 0
2021-09-22 16:38:05 GMT 38.495499 -80.439384 28,000 263 422 64
2021-09-22 16:38:01 GMT 38.496323 -80.430969 28,000 263 422 64
2021-09-22 16:37:54 GMT 38.498051 -80.413940 28,000 263 422 -64
2021-09-22 16:37:50 GMT 38.498981 -80.404602 28,000 263 422 -64
2021-09-22 16:37:43 GMT 38.500809 -80.386604 28,000 263 422 0
2021-09-22 16:37:40 GMT 38.501678 -80.377930 28,000 263 421 0
2021-09-22 16:37:32 GMT 38.503822 -80.357300 28,000 263 421 0
2021-09-22 16:37:29 GMT 38.504196 -80.353584 28,000 263 421 0
2021-09-22 16:37:22 GMT 38.505981 -80.335915 28,000 263 420 -128
2021-09-22 16:37:16 GMT 38.507359 -80.321899 28,000 263 419 0
2021-09-22 16:37:07 GMT 38.509735 -80.298592 28,000 263 418 0
2021-09-22 16:36:59 GMT 38.511921 -80.277283 28,000 263 418 0
2021-09-22 16:36:52 GMT 38.513580 -80.260918 28,000 263 418 64
2021-09-22 16:36:46 GMT 38.515179 -80.244507 28,000 263 418 128
2021-09-22 16:36:41 GMT 38.516052 -80.235962 28,000 263 418 0
2021-09-22 16:36:38 GMT 38.516922 -80.227180 28,000 263 418 0
2021-09-22 16:36:26 GMT 38.519836 -80.198120 28,000 263 417 -64
2021-09-22 16:36:21 GMT 38.521187 -80.184998 28,000 263 416 0
2021-09-22 16:36:18 GMT 38.522022 -80.176208 28,000 263 416 -64
2021-09-22 16:36:07 GMT 38.524490 -80.151917 28,000 263 415 0
2021-09-22 16:35:56 GMT 38.527130 -80.125443 28,000 263 414 0
2021-09-22 16:35:13 GMT 38.537521 -80.020531 28,000 263 413 -64
2021-09-22 16:35:01 GMT 38.540180 -79.993286 28,000 263 412 -64
2021-09-22 16:34:55 GMT 38.541779 -79.976707 28,025 263 410 0
2021-09-22 16:34:41 GMT 38.545029 -79.944107 28,000 263 409 0
2021-09-22 16:34:31 GMT 38.547207 -79.921814 28,000 263 409 64
2021-09-22 16:34:19 GMT 38.550327 -79.890381 28,000 263 407 -64
2021-09-22 16:34:00 GMT 38.554871 -79.844154 28,000 263 401 -64
2021-09-22 16:33:52 GMT 38.556519 -79.827141 28,000 264 403 64
2021-09-22 16:32:55 GMT 38.569107 -79.694107 28,000 264 389 0
2021-09-22 16:32:48 GMT 38.570671 -79.677673 28,000 264 394 0
2021-09-22 16:32:29 GMT 38.574646 -79.634636 28,000 264 391 64
2021-09-22 16:32:25 GMT 38.575699 -79.624069 28,000 264 389 0
2021-09-22 16:32:15 GMT 38.577702 -79.602905 28,000 264 388 -128
2021-09-22 16:31:50 GMT 38.583344 -79.543640 28,025 264 382 0
2021-09-22 16:31:37 GMT 38.585754 -79.518066 28,000 264 377 64
2021-09-22 16:31:36 GMT 38.587509 -79.499695 27,975 264 377 64
2021-09-22 16:31:20 GMT 38.589340 -79.480354 28,025 264 374 -256
2021-09-22 16:31:14 GMT 38.590733 -79.465332 28,025 264 370 1152
2021-09-22 16:31:01 GMT 38.593201 -79.438416 27,850 264 371 1024
2021-09-22 16:30:52 GMT 38.594925 -79.419868 27,750 264 372 384
2021-09-22 16:30:41 GMT 38.597530 -79.392212 27,675 264 370 576
2021-09-22 16:30:30 GMT 38.599487 -79.371826 27,600 264 370 576
2021-09-22 16:29:55 GMT 38.606655 -79.294128 27,325 266 366 512
2021-09-22 16:29:24 GMT 38.613739 -79.228264 27,000 250 361 256
2021-09-22 16:29:09 GMT 38.624405 -79.202705 26,950 234 354 640
2021-09-22 16:29:07 GMT 38.626907 -79.198547 26,925 231 353 1024
2021-09-22 16:29:04 GMT 38.630356 -79.193275 26,875 231 353 960
2021-09-22 16:29:00 GMT 38.634399 -79.187012 26,825 231 353 832
2021-09-22 16:28:57 GMT 38.637985 -79.181519 26,775 231 353 832
2021-09-22 16:28:55 GMT 38.641941 -79.175415 26,725 231 353 896
2021-09-22 16:28:53 GMT 38.641941 -79.175415 26,725 231 353 896
2021-09-22 16:28:50 GMT 38.644688 -79.171265 26,675 231 354 960
2021-09-22 16:28:49 GMT 38.645828 -79.169510 26,650 231 354 960
2021-09-22 16:28:46 GMT 38.648876 -79.164856 26,625 231 354 832
2021-09-22 16:28:41 GMT 38.654251 -79.156670 26,550 231 353 768
2021-09-22 16:28:37 GMT 38.658234 -79.150581 26,525 230 354 704
2021-09-22 16:28:34 GMT 38.661392 -79.145744 26,475 230 352 704
2021-09-22 16:28:29 GMT 38.666245 -79.138405 26,425 231 353 704
2021-09-22 16:28:26 GMT 38.669502 -79.133484 26,400 231 352 320
2021-09-22 16:28:25 GMT 38.671051 -79.131058 26,400 231 352 320
2021-09-22 16:28:23 GMT 38.673038 -79.128052 26,375 231 352 192
2021-09-22 16:28:21 GMT 38.675262 -79.124725 26,375 230 350 192
2021-09-22 16:28:19 GMT 38.679016 -79.118996 26,375 230 350 192
2021-09-22 16:28:17 GMT 38.679016 -79.118996 26,375 230 349 256
2021-09-22 16:28:15 GMT 38.681305 -79.115532 26,375 230 349 256
2021-09-22 16:28:14 GMT 38.684536 -79.110657 26,350 230 347 448
2021-09-22 16:28:11 GMT 38.685795 -79.108765 26,350 230 347 448
2021-09-22 16:28:06 GMT 38.691425 -79.100281 26,325 230 347 512
2021-09-22 16:28:02 GMT 38.694672 -79.095474 26,275 230 346 832
2021-09-22 16:28:00 GMT 38.696320 -79.092964 26,250 230 346 832
2021-09-22 16:27:57 GMT 38.700180 -79.087158 26,200 230 346 1344
2021-09-22 16:27:48 GMT 38.709412 -79.073143 25,975 230 350 1408
2021-09-22 16:27:47 GMT 38.710373 -79.071716 25,950 230 350 1408
2021-09-22 16:27:46 GMT 38.711819 -79.069519 25,925 230 351 1216
2021-09-22 16:27:43 GMT 38.714981 -79.064758 25,875 231 351 512
2021-09-22 16:27:41 GMT 38.717377 -79.061081 25,850 231 351 512
2021-09-22 16:27:39 GMT 38.719776 -79.057373 25,825 231 351 512
2021-09-22 16:27:36 GMT 38.722664 -79.052917 25,800 235 350 192
2021-09-22 16:27:34 GMT 38.723686 -79.051270 25,800 235 350 192
2021-09-22 16:27:31 GMT 38.726761 -79.046211 25,800 235 350 192
2021-09-22 16:27:26 GMT 38.731384 -79.038155 25,775 238 350 256
2021-09-22 16:27:15 GMT 38.740307 -79.018066 25,650 246 351 704
2021-09-22 16:27:01 GMT 38.747475 -78.991516 25,600 255 352 192
2021-09-22 16:26:55 GMT 38.750244 -78.978500 25,575 255 349 320
2021-09-22 16:26:48 GMT 38.753994 -78.961243 25,500 255 347 896
2021-09-22 16:26:43 GMT 38.755299 -78.955322 25,450 255 347 768
2021-09-22 16:26:39 GMT 38.757763 -78.943848 25,325 255 347 1664
2021-09-22 16:26:34 GMT 38.759125 -78.937721 25,225 255 352 1728
2021-09-22 16:26:26 GMT 38.763153 -78.919754 24,975 255 353 1408
2021-09-22 16:26:18 GMT 38.766609 -78.903381 24,825 256 355 832
2021-09-22 16:26:11 GMT 38.768799 -78.891907 24,800 258 356 704
2021-09-22 16:26:07 GMT 38.770569 -78.881416 24,725 258 355 640
2021-09-22 16:26:03 GMT 38.771824 -78.874207 24,700 258 355 512
2021-09-22 16:25:58 GMT 38.774151 -78.860291 24,625 258 354 384
2021-09-22 16:25:54 GMT 38.775284 -78.853531 24,625 258 351 320
2021-09-22 16:25:47 GMT 38.777573 -78.840157 24,575 258 349 320
2021-09-22 16:25:43 GMT 38.778946 -78.831848 24,550 258 348 512
2021-09-22 16:25:36 GMT 38.781052 -78.819145 24,425 259 347 832
2021-09-22 16:25:33 GMT 38.784576 -78.797890 23,400 259 351 1344
2021-09-22 16:25:26 GMT 38.784576 -78.797890 24,325 259 348 1408
2021-09-22 16:25:22 GMT 38.785812 -78.790245 24,250 259 348 1472
2021-09-22 16:25:14 GMT 38.788208 -78.775452 24,000 259 350 1536
2021-09-22 16:25:11 GMT 38.789246 -78.769165 24,000 259 351 1344
2021-09-22 16:25:05 GMT 38.791534 -78.755318 23,750 259 351 832
2021-09-22 16:25:01 GMT 38.792770 -78.747803 23,825 259 351 832
2021-09-22 16:24:55 GMT 38.795143 -78.733582 23,700 258 350 896
2021-09-22 16:24:50 GMT 38.796432 -78.725639 23,675 258 350 896
2021-09-22 16:24:45 GMT 38.798218 -78.714905 23,525 259 349 896
2021-09-22 16:24:41 GMT 38.799755 -78.705627 23,525 259 349 960
2021-09-22 16:24:38 GMT 38.800278 -78.702591 23,525 259 349 960
2021-09-22 16:24:34 GMT 38.802219 -78.690674 23,425 259 348 896
2021-09-22 16:24:31 GMT 38.802921 -78.686646 23,400 259 348 832
2021-09-22 16:24:28 GMT 38.803802 -78.681213 23,375 259 348 768
2021-09-22 16:24:25 GMT 38.805061 -78.673767 23,325 259 346 640
2021-09-22 16:24:18 GMT 38.807156 -78.660889 23,275 259 345 704
2021-09-22 16:24:13 GMT 38.809063 -78.649353 23,200 259 344 768
2021-09-22 16:24:08 GMT 38.810509 -78.640564 23,125 259 343 1024
2021-09-22 16:23:58 GMT 38.813599 -78.621269 22,975 259 343 1152
2021-09-22 16:23:50 GMT 38.816116 -78.605804 22,825 259 341 960
2021-09-22 16:23:47 GMT 38.817169 -78.599419 22,775 259 342 1024
2021-09-22 16:23:40 GMT 38.819458 -78.585144 22,675 259 341 1088
2021-09-22 16:23:37 GMT 38.820423 -78.579041 22,625 259 341 1472
2021-09-22 16:23:25 GMT 38.824242 -78.555603 22,350 259 344 1728
2021-09-22 16:23:13 GMT 38.828201 -78.530991 21,850 258 345 1152
2021-09-22 16:23:05 GMT 38.830765 -78.514992 21,825 258 345 1152
2021-09-22 16:23:00 GMT 38.832687 -78.503403 21,750 259 345 1088
2021-09-22 16:22:57 GMT 38.833271 -78.500000 21,700 259 344 640
2021-09-22 16:22:54 GMT 38.834297 -78.493591 21,700 259 344 640
2021-09-22 16:22:48 GMT 38.836761 -78.478882 21,650 258 341 384
2021-09-22 16:22:44 GMT 38.837723 -78.473129 21,625 258 341 384
2021-09-22 16:22:42 GMT 38.838390 -78.468994 21,600 259 340 512
2021-09-22 16:22:34 GMT 38.840767 -78.454468 21,500 259 336 896
2021-09-22 16:22:31 GMT 38.842072 -78.446442 21,475 259 336 1024
2021-09-22 16:22:22 GMT 38.844681 -78.430023 21,300 259 336 1280
2021-09-22 16:22:16 GMT 38.846603 -78.417900 21,200 259 335 1280
2021-09-22 16:22:11 GMT 38.847839 -78.410141 21,100 259 335 1408
2021-09-22 16:22:03 GMT 38.850403 -78.393127 20,900 260 337 1536
2021-09-22 16:21:56 GMT 38.852173 -78.379272 20,750 263 338 1088
2021-09-22 16:21:52 GMT 38.852825 -78.372559 20,700 265 338 960
2021-09-22 16:21:43 GMT 38.853973 -78.351151 20,550 269 337 960
2021-09-22 16:21:40 GMT 38.854065 -78.347565 20,525 269 337 1024
2021-09-22 16:21:35 GMT 38.854202 -78.337173 20,425 270 325 1408
2021-09-22 16:21:32 GMT 38.854221 -78.331848 20,325 271 336 1088
2021-09-22 16:21:26 GMT 38.854202 -78.316521 20,250 270 336 1600
2021-09-22 16:21:21 GMT 38.854202 -78.308937 20,150 270 336 1664
2021-09-22 16:21:17 GMT 38.854267 -78.299194 20,025 270 336 1536
2021-09-22 16:21:11 GMT 38.854313 -78.289673 19,925 270 336 1152
2021-09-22 16:21:06 GMT 38.854359 -78.280151 19,875 270 334 512
2021-09-22 16:21:00 GMT 38.854454 -78.267883 19,850 270 328 640
2021-09-22 16:20:56 GMT 38.854546 -78.259705 19,800 270 328 640
2021-09-22 16:20:48 GMT 38.854687 -78.245789 19,700 270 326 960
2021-09-22 16:20:45 GMT 38.854733 -78.239197 19,225 265 325 1536
2021-09-22 16:20:39 GMT 38.854935 -78.228630 19,475 267 325 1728
2021-09-22 16:20:36 GMT 38.855198 -78.219971 19,350 267 325 1728
2021-09-22 16:20:30 GMT 38.855850 -78.209045 19,150 263 324 1344
2021-09-22 16:20:25 GMT 38.856594 -78.199646 19,100 263 324 1344
2021-09-22 16:20:19 GMT 38.857571 -78.189697 18,975 261 323 1024
2021-09-22 16:20:14 GMT 38.858688 -78.180443 18,900 261 323 1024
2021-09-22 16:20:09 GMT 38.860085 -78.170105 18,825 260 321 960
2021-09-22 16:20:06 GMT 38.860970 -78.164124 18,775 260 317 896
2021-09-22 16:20:01 GMT 38.862396 -78.154228 18,700 260 317 896
2021-09-22 16:19:58 GMT 38.862946 -78.150528 18,575 260 317 896
2021-09-22 16:19:54 GMT 38.864136 -78.142578 18,600 260 317 960
2021-09-22 16:19:47 GMT 38.865906 -78.130066 18,275 260 315 1280
2021-09-22 16:19:44 GMT 38.866882 -78.123413 18,400 260 315 1344
2021-09-22 16:19:36 GMT 38.869034 -78.108612 18,225 260 314 1792
2021-09-22 16:19:29 GMT 38.870682 -78.097267 18,000 260 314 1920
2021-09-22 16:19:26 GMT 38.871677 -78.090881 17,900 260 314 1856
2021-09-22 16:19:18 GMT 38.873840 -78.076012 17,575 260 314 1728
2021-09-22 16:19:14 GMT 38.874802 -78.069801 17,575 260 314 1728
2021-09-22 16:19:07 GMT 38.877029 -78.055359 17,300 259 314 1856
2021-09-22 16:19:04 GMT 38.879963 -78.037903 16,725 258 313 1792
2021-09-22 16:18:57 GMT 38.879963 -78.037903 17,025 257 314 1664
2021-09-22 16:18:54 GMT 38.880661 -78.034096 17,025 257 314 1664
2021-09-22 16:18:47 GMT 38.883270 -78.020004 16,850 256 311 1472
2021-09-22 16:18:40 GMT 38.886250 -78.005188 16,650 256 310 1600
2021-09-22 16:18:34 GMT 38.888065 -77.996643 16,525 255 308 1664
2021-09-22 16:18:28 GMT 38.890182 -77.986931 16,375 254 308 1536
2021-09-22 16:18:25 GMT 38.891506 -77.981140 16,300 254 306 1536
2021-09-22 16:18:15 GMT 38.895859 -77.962929 16,050 253 305 1664
2021-09-22 16:18:04 GMT 38.900539 -77.944580 15,750 252 303 1664
2021-09-22 16:17:56 GMT 38.904282 -77.930862 15,475 251 302 1664
2021-09-22 16:17:53 GMT 38.905430 -77.926636 15,475 252 301 1536
2021-09-22 16:17:43 GMT 38.909134 -77.909668 15,275 262 301 1280
2021-09-22 16:17:33 GMT 38.910221 -77.890564 15,025 274 303 1728
2021-09-22 16:17:26 GMT 38.908733 -77.875549 14,750 285 308 2560
2021-09-22 16:17:21 GMT 38.907707 -77.870239 14,625 286 309 2688
2021-09-22 16:17:19 GMT 38.906544 -77.865295 14,500 290 312 2816
2021-09-22 16:17:14 GMT 38.903824 -77.856468 14,250 300 321 2752
2021-09-22 16:17:12 GMT 38.902542 -77.853065 14,175 299 320 2752
2021-09-22 16:17:08 GMT 38.900574 -77.848343 14,050 309 325 2048
2021-09-22 16:17:04 GMT 38.896954 -77.841125 13,675 323 323 1792
2021-09-22 16:17:01 GMT 38.893753 -77.835747 13,775 312 326 1792
2021-09-22 16:16:59 GMT 38.891144 -77.831985 13,700 315 327 1664
2021-09-22 16:16:54 GMT 38.886482 -77.826111 13,000 323 323 1792
2021-09-22 16:16:51 GMT 38.879498 -77.818665 13,450 322 327 1856
2021-09-22 16:16:48 GMT 38.879498 -77.818665 13,400 323 327 1920
2021-09-22 16:16:43 GMT 38.869675 -77.809021 13,175 323 325 1792
2021-09-22 16:16:39 GMT 38.869675 -77.809021 13,175 323 323 1792
2021-09-22 16:16:37 GMT 38.865856 -77.805298 13,100 323 323 1792
2021-09-22 16:16:30 GMT 38.857727 -77.797295 12,900 324 318 2048
2021-09-22 16:16:25 GMT 38.852509 -77.792282 12,750 324 318 2048
2021-09-22 16:16:20 GMT 38.846027 -77.786072 12,550 324 318 2176
2021-09-22 16:16:16 GMT 38.838089 -77.778549 12,075 324 320 3200
2021-09-22 16:16:13 GMT 38.838089 -77.778549 12,300 324 318 2944
2021-09-22 16:16:10 GMT 38.835415 -77.775940 12,175 324 318 3136
2021-09-22 16:16:07 GMT 38.830078 -77.770844 11,975 323 320 3136
2021-09-22 16:16:00 GMT 38.822708 -77.763741 11,700 323 325 2880
2021-09-22 16:15:57 GMT 38.818981 -77.760193 11,500 323 325 3008
2021-09-22 16:15:54 GMT 38.813908 -77.755310 11,325 324 327 2752
2021-09-22 16:15:50 GMT 38.809811 -77.751404 11,175 324 328 2752
2021-09-22 16:15:47 GMT 38.806732 -77.748512 11,075 324 328 2560
2021-09-22 16:15:41 GMT 38.799335 -77.741394 10,750 323 327 2560
2021-09-22 16:15:37 GMT 38.791237 -77.733276 9,925 258 281 192
2021-09-22 16:15:34 GMT 38.791237 -77.733276 10,550 321 325 2304
2021-09-22 16:15:31 GMT 38.788719 -77.730530 10,475 316 322 2048
2021-09-22 16:15:27 GMT 38.783691 -77.723999 10,350 307 317 1856
2021-09-22 16:15:19 GMT 38.777618 -77.712387 10,050 291 306 1536
2021-09-22 16:15:16 GMT 38.775780 -77.707214 10,050 291 306 1408
2021-09-22 16:15:12 GMT 38.774231 -77.701225 10,000 283 301 896
2021-09-22 16:15:09 GMT 38.773224 -77.694595 9,950 262 283 128
2021-09-22 16:15:05 GMT 38.772942 -77.689575 9,950 270 289 128
2021-09-22 16:14:58 GMT 38.774055 -77.676208 9,925 254 279 192
2021-09-22 16:14:55 GMT 38.775009 -77.672203 9,925 250 279 192
2021-09-22 16:14:53 GMT 38.776619 -77.667236 9,925 231 268 640
2021-09-22 16:14:46 GMT 38.780869 -77.658531 9,875 231 268 512
2021-09-22 16:14:42 GMT 38.783386 -77.654648 9,850 228 263 1152
2021-09-22 16:14:39 GMT 38.785858 -77.651192 9,650 228 261 1984
2021-09-22 16:14:36 GMT 38.789154 -77.646591 9,675 228 261 1728
2021-09-22 16:14:31 GMT 38.792770 -77.641579 9,550 228 261 1984
2021-09-22 16:14:27 GMT 38.795883 -77.637276 9,425 228 261 1856
2021-09-22 16:14:24 GMT 38.800278 -77.631065 9,250 228 259 2048
2021-09-22 16:14:20 GMT 38.803581 -77.628433 7,800 229 255 2496
2021-09-22 16:14:19 GMT 38.804359 -77.627289 7,800 229 255 2496
2021-09-22 16:14:18 GMT 38.805130 -77.626152 7,800 229 255 2496
2021-09-22 16:14:16 GMT 38.806679 -77.623878 7,800 229 255 2496
2021-09-22 16:14:14 GMT 38.808239 -77.621597 7,800 229 255 2496
2021-09-22 16:14:13 GMT 38.809010 -77.620468 7,800 229 255 2496
2021-09-22 16:14:12 GMT 38.809792 -77.619331 7,800 229 255 2496
2021-09-22 16:14:10 GMT 38.811340 -77.617058 7,800 229 255 2496
2021-09-22 16:14:09 GMT 38.812119 -77.615921 7,800 229 255 2496
2021-09-22 16:14:07 GMT 38.813671 -77.613640 7,800 229 255 2496
2021-09-22 16:14:06 GMT 38.814442 -77.612511 7,800 229 255 2496
2021-09-22 16:14:04 GMT 38.815990 -77.610229 7,800 229 255 2496
2021-09-22 16:14:03 GMT 38.816769 -77.609093 7,800 229 255 2496
2021-09-22 16:14:01 GMT 38.818321 -77.606819 7,800 229 255 2496
2021-09-22 16:14:00 GMT 38.819099 -77.605682 7,800 229 255 2496
2021-09-22 16:13:58 GMT 38.820648 -77.603409 7,800 229 255 2496
2021-09-22 16:13:57 GMT 38.821430 -77.602272 7,800 229 255 2496
2021-09-22 16:13:56 GMT 38.822979 -77.599991 8,050 229 255 2496
2021-09-22 16:13:54 GMT 38.823750 -77.598862 7,800 229 255 2496
2021-09-22 16:13:52 GMT 38.825310 -77.596581 7,800 229 255 2496
2021-09-22 16:13:51 GMT 38.826859 -77.594299 7,800 229 255 2496
2021-09-22 16:13:50 GMT 38.827801 -77.593330 7,400 229 254 2496
2021-09-22 16:13:47 GMT 38.829330 -77.591042 7,400 229 254 2496
2021-09-22 16:13:46 GMT 38.830090 -77.589890 7,400 229 254 2304
2021-09-22 16:13:44 GMT 38.831841 -77.587799 7,400 230 254 2304
2021-09-22 16:13:43 GMT 38.832588 -77.586647 7,400 230 254 2304
2021-09-22 16:13:42 GMT 38.834091 -77.584343 7,400 230 254 2304
2021-09-22 16:13:40 GMT 38.835072 -77.583672 7,200 231 256 2304
2021-09-22 16:13:38 GMT 38.836552 -77.581299 7,200 231 256 2304
2021-09-22 16:13:37 GMT 38.838020 -77.578934 7,200 231 256 2304
2021-09-22 16:13:35 GMT 38.839062 -77.577911 7,000 231 254 2304
2021-09-22 16:13:33 GMT 38.840488 -77.575531 7,000 231 254 2304
2021-09-22 16:13:32 GMT 38.841209 -77.574341 7,000 231 254 2304
2021-09-22 16:13:31 GMT 38.841202 -77.572319 6,800 228 253 2304
2021-09-22 16:13:29 GMT 38.842758 -77.570084 6,800 228 253 2304
2021-09-22 16:13:28 GMT 38.843552 -77.568962 6,800 228 253 2304
2021-09-22 16:13:27 GMT 38.844929 -77.566566 6,650 232 253 2688
2021-09-22 16:13:25 GMT 38.846500 -77.564339 6,400 228 253 2304
2021-09-22 16:13:23 GMT 38.847290 -77.563217 6,400 228 253 2304
2021-09-22 16:13:22 GMT 38.848110 -77.562080 6,400 231 251 2304
2021-09-22 16:13:20 GMT 38.849621 -77.559830 6,400 231 251 2304
2021-09-22 16:13:18 GMT 38.851131 -77.557571 6,400 231 251 2304
2021-09-22 16:13:17 GMT 38.852100 -77.556458 6,200 235 246 2304
2021-09-22 16:13:16 GMT 38.852798 -77.555321 6,200 235 246 2304
2021-09-22 16:13:14 GMT 38.854198 -77.553017 6,200 235 246 2304
2021-09-22 16:13:13 GMT 38.854912 -77.551880 6,200 235 246 2304
2021-09-22 16:13:11 GMT 38.856991 -77.550179 5,900 241 247 2304
2021-09-22 16:13:10 GMT 38.857540 -77.548897 5,900 241 247 2304
2021-09-22 16:13:08 GMT 38.858959 -77.546333 5,900 243 243 2304
2021-09-22 16:13:07 GMT 38.859482 -77.545052 5,900 243 243 2304
2021-09-22 16:13:05 GMT 38.860538 -77.542503 5,900 243 243 2304
2021-09-22 16:13:04 GMT 38.861061 -77.541229 5,900 243 243 2304
2021-09-22 16:13:02 GMT 38.862751 -77.539703 5,700 246 250 2304
2021-09-22 16:13:01 GMT 38.863701 -77.536987 5,700 246 250 2304
2021-09-22 16:12:59 GMT 38.864170 -77.535637 5,700 246 250 2304
2021-09-22 16:12:57 GMT 38.865452 -77.533524 5,400 247 256 2304
2021-09-22 16:12:56 GMT 38.865891 -77.532112 5,400 247 256 2304
2021-09-22 16:12:55 GMT 38.866821 -77.529068 5,200 244 248 2304
2021-09-22 16:12:53 GMT 38.867279 -77.527718 5,200 244 248 2304
2021-09-22 16:12:51 GMT 38.868191 -77.525017 5,200 244 248 2304
2021-09-22 16:12:49 GMT 38.868721 -77.522034 4,900 240 245 2304
2021-09-22 16:12:48 GMT 38.869251 -77.520752 4,900 240 245 2304
2021-09-22 16:12:46 GMT 38.870312 -77.518181 4,900 240 245 2304
2021-09-22 16:12:45 GMT 38.870838 -77.516899 4,900 240 245 480
2021-09-22 16:12:44 GMT 38.871651 -77.514061 4,700 236 240 480
2021-09-22 16:12:41 GMT 38.872841 -77.511650 4,700 236 240 480
2021-09-22 16:12:40 GMT 38.873779 -77.509079 4,600 233 238 480
2021-09-22 16:12:38 GMT 38.874420 -77.507927 4,600 233 238 480
2021-09-22 16:12:37 GMT 38.875710 -77.505638 4,600 233 238 480
2021-09-22 16:12:35 GMT 38.876129 -77.504013 4,400 230 229 480
2021-09-22 16:12:34 GMT 38.877480 -77.501907 4,400 230 229 480
2021-09-22 16:12:32 GMT 38.878151 -77.500862 4,400 230 229 480
2021-09-22 16:12:31 GMT 38.879570 -77.498589 4,300 229 220 480
2021-09-22 16:12:29 GMT 38.880230 -77.497597 4,300 229 220 480
2021-09-22 16:12:28 GMT 38.880890 -77.496613 4,300 229 220 480
2021-09-22 16:12:27 GMT 38.882252 -77.494629 4,225 229 217 480
2021-09-22 16:12:24 GMT 38.883560 -77.492683 4,225 229 217 480
2021-09-22 16:12:23 GMT 38.884220 -77.491631 4,200 227 213 480
2021-09-22 16:12:22 GMT 38.884880 -77.490692 4,200 227 213 480
2021-09-22 16:12:20 GMT 38.886101 -77.488853 4,125 226 214 480
2021-09-22 16:12:17 GMT 38.888180 -77.486008 3,900 225 205 480
2021-09-22 16:12:16 GMT 38.888802 -77.485130 3,900 224 202 480
2021-09-22 16:12:15 GMT 38.889450 -77.484230 3,900 223 202 480
2021-09-22 16:12:14 GMT 38.890099 -77.483391 3,900 223 201 480
2021-09-22 16:12:13 GMT 38.890789 -77.482521 3,900 223 199 480
2021-09-22 16:12:12 GMT 38.892181 -77.480827 3,850 223 193 480
2021-09-22 16:12:11 GMT 38.893002 -77.479950 3,700 224 186 480
2021-09-22 16:12:09 GMT 38.893639 -77.479210 3,700 225 187 480
2021-09-22 16:12:07 GMT 38.894909 -77.477722 3,600 227 190 480
2021-09-22 16:12:06 GMT 38.896160 -77.476089 3,600 228 190 480
2021-09-22 16:12:04 GMT 38.896759 -77.475250 3,600 228 190 480
2021-09-22 16:12:03 GMT 38.897320 -77.474442 3,425 229 191 480
2021-09-22 16:12:01 GMT 38.898449 -77.472710 3,425 228 192 480
2021-09-22 16:12:00 GMT 38.898998 -77.471832 3,375 227 192 480
2021-09-22 16:11:58 GMT 38.900169 -77.470192 3,200 227 195 480
2021-09-22 16:11:57 GMT 38.900810 -77.469353 3,200 228 194 480
2021-09-22 16:11:55 GMT 38.901970 -77.467598 3,100 227 195 480
2021-09-22 16:11:54 GMT 38.902561 -77.466789 3,100 227 197 480
2021-09-22 16:11:52 GMT 38.903740 -77.465103 2,950 228 199 480
2021-09-22 16:11:51 GMT 38.904411 -77.464211 2,950 229 195 480
2021-09-22 16:11:49 GMT 38.905548 -77.462502 2,800 229 195 480
2021-09-22 16:11:47 GMT 38.906689 -77.460762 2,800 230 193 480
2021-09-22 16:11:46 GMT 38.907909 -77.459007 2,800 231 187 -96
2021-09-22 16:11:44 GMT 38.908401 -77.458122 2,750 231 186 -96
2021-09-22 16:11:43 GMT 38.909561 -77.456367 2,700 232 177 -96
2021-09-22 16:11:41 GMT 38.910172 -77.455498 2,700 233 169 -96
2021-09-22 16:11:40 GMT 38.910721 -77.454697 2,700 234 168 -96
2021-09-22 16:11:38 GMT 38.911690 -77.453110 2,650 235 166 -96
2021-09-22 16:11:37 GMT 38.912189 -77.452271 2,650 235 163 -96
2021-09-22 16:11:35 GMT 38.913101 -77.450699 2,575 235 160 -96
2021-09-22 16:11:33 GMT 38.913952 -77.449203 2,400 235 163 -96
2021-09-22 16:11:32 GMT 38.914391 -77.448433 2,400 234 163 -96
2021-09-22 16:11:31 GMT 38.914799 -77.447617 2,400 232 162 -96
2021-09-22 16:11:29 GMT 38.915588 -77.446091 2,200 228 165 -96
2021-09-22 16:11:27 GMT 38.916569 -77.444710 2,200 226 165 -96
2021-09-22 16:11:26 GMT 38.917080 -77.443977 2,200 226 164 -96
2021-09-22 16:11:25 GMT 38.917580 -77.443298 1,900 224 163 -96
2021-09-22 16:11:23 GMT 38.919300 -77.441322 1,900 218 142 -96
2021-09-22 16:11:21 GMT 38.919842 -77.440781 725 216 140 -96
2021-09-22 16:11:19 GMT 38.920368 -77.438980 725 193 150 -96
2021-09-22 16:11:17 GMT 38.921711 -77.438560 725 193 150 -96
2021-09-22 16:11:16 GMT 38.922390 -77.438339 725 193 150 -96
2021-09-22 16:11:15 GMT 38.923061 -77.438133 725 193 150 -96
2021-09-22 16:11:13 GMT 38.924400 -77.437607 725 188 150 -96
2021-09-22 16:11:12 GMT 38.925079 -77.437431 725 187 151 -96
2021-09-22 16:11:10 GMT 38.926479 -77.437111 725 184 150 -96
2021-09-22 16:11:09 GMT 38.927860 -77.436943 725 184 152 -96
2021-09-22 16:11:07 GMT 38.928509 -77.436829 725 183 157 -96
2021-09-22 16:11:05 GMT 38.929970 -77.436729 725 183 157 -96
2021-09-22 16:11:04 GMT 38.930698 -77.436653 725 182 157 -96
2021-09-22 16:11:02 GMT 38.932140 -77.436546 650 182 161 -96
2021-09-22 16:11:01 GMT 38.932861 -77.436493 600 181 163 -96
2021-09-22 16:11:00 GMT 38.934380 -77.436447 475 182 161 -96
2021-09-22 16:10:58 GMT 38.935101 -77.436378 475 181 165 -96
2021-09-22 16:10:57 GMT 38.936600 -77.436317 375 181 165 -96
2021-09-22 16:10:55 GMT 38.937359 -77.436302 375 181 164 -96
2021-09-22 16:10:53 GMT 38.938862 -77.436241 350 180 161 -96
2021-09-22 16:10:52 GMT 38.939579 -77.436241 300 181 160 -96
2021-09-22 16:10:51 GMT 38.940331 -77.436241 300 181 158 -96
2021-09-22 16:10:50 GMT 38.941780 -77.436157 300 180 153 -96
2021-09-22 16:10:48 GMT 38.942490 -77.436157 300 180 150 -96
2021-09-22 16:10:47 GMT 38.943192 -77.436150 300 180 146 -96
2021-09-22 16:10:45 GMT 38.944530 -77.436119 300 180 139 -96
2021-09-22 16:10:44 GMT 38.945808 -77.436111 300 180 130 512
2021-09-22 16:10:42 GMT 38.946419 -77.436081 300 180 125 512
2021-09-22 16:10:40 GMT 38.947571 -77.436081 0 180 117 -96
2021-09-22 16:10:39 GMT 38.948101 -77.436058 0 179 115 0
2021-09-22 16:10:38 GMT 38.949162 -77.436089 0 181 103 0
2021-09-22 16:10:35 GMT 38.950100 -77.436073 0 181 97 0
2021-09-22 16:10:33 GMT 38.951401 -77.436012 0 180 82 0
2021-09-22 16:10:31 GMT 38.951771 -77.436028 0 181 78 0
2021-09-22 16:10:30 GMT 38.952141 -77.436020 0 181 71 0
2021-09-22 16:10:28 GMT 38.952801 -77.436012 0 181 59 0
2021-09-22 16:10:26 GMT 38.953362 -77.435966 0 179 45 0
2021-09-22 16:10:25 GMT 38.953621 -77.435959 0 177 37 0
2021-09-22 16:10:24 GMT 38.953831 -77.435982 0 178 30 0
2021-09-22 16:10:22 GMT 38.954128 -77.436020 0 183 21 0
2021-09-22 16:10:21 GMT 38.954430 -77.436012 0 180 7 0
2021-09-22 16:10:16 GMT 38.954571 -77.435959 0 180 0 0
2021-09-22 16:10:14 GMT 38.954571 -77.435966 0 180 0 0
2021-09-22 16:10:13 GMT 38.954571 -77.435959 0 180 0 0
2021-09-22 16:10:12 GMT 38.954571 -77.435966 0 180 0 0
2021-09-22 16:10:10 GMT 38.954571 -77.435966 0 180 0 0
2021-09-22 16:10:08 GMT 38.954578 -77.435982 0 180 0 0
2021-09-22 16:10:07 GMT 38.954571 -77.435989 0 180 0 0
2021-09-22 16:10:05 GMT 38.954578 -77.435982 0 180 0 0
2021-09-22 16:10:04 GMT 38.954609 -77.436028 0 180 2 0
2021-09-22 16:10:01 GMT 38.954578 -77.435982 0 180 0 0
2021-09-22 16:09:56 GMT 38.954578 -77.435966 0 180 0 0
2021-09-22 16:09:54 GMT 38.954578 -77.435982 0 180 0 0
2021-09-22 16:09:52 GMT 38.954578 -77.435989 0 180 1 0
2021-09-22 16:09:50 GMT 38.954578 -77.435997 0 180 2 0
2021-09-22 16:09:47 GMT 38.954571 -77.435959 0 180 0 0
2021-09-22 16:09:44 GMT 38.954578 -77.435959 0 180 1 0
2021-09-22 16:09:41 GMT 38.954578 -77.435959 0 181 0 0
2021-09-22 16:09:38 GMT 38.954571 -77.435966 0 181 1 0
2021-09-22 16:09:36 GMT 38.954559 -77.435966 0 181 0 0
2021-09-22 16:09:35 GMT 38.954571 -77.435966 0 182 0 0
2021-09-22 16:09:33 GMT 38.954571 -77.435959 0 182 2 0
2021-09-22 16:09:31 GMT 38.954571 -77.435982 0 187 2 0
2021-09-22 16:09:30 GMT 38.954552 -77.435989 0 192 2 0
2021-09-22 16:09:29 GMT 38.954521 -77.436012 0 206 6 0
2021-09-22 16:09:27 GMT 38.954521 -77.435944 0 182 9 0
2021-09-22 16:09:25 GMT 38.954601 -77.435921 0 187 6 0
2021-09-22 16:09:24 GMT 38.954632 -77.435944 0 184 6 0
2021-09-22 16:09:22 GMT 38.954670 -77.435921 0 154 7 0
2021-09-22 16:09:21 GMT 38.954708 -77.435921 0 133 7 0
2021-09-22 16:09:20 GMT 38.954781 -77.435928 0 100 7 0
2021-09-22 16:09:18 GMT 38.954830 -77.435928 0 90 9 0
2021-09-22 16:09:16 GMT 38.954842 -77.436012 0 90 11 0
2021-09-22 16:09:15 GMT 38.954830 -77.436142 0 96 11 0
2021-09-22 16:09:13 GMT 38.954830 -77.436188 0 96 11 0
2021-09-22 16:09:12 GMT 38.954861 -77.436279 0 89 9 0
2021-09-22 16:09:10 GMT 38.954849 -77.436378 0 92 12 0
2021-09-22 16:09:08 GMT 38.954842 -77.436531 0 94 12 0
2021-09-22 16:09:07 GMT 38.954868 -77.436691 0 84 9 0
2021-09-22 16:09:05 GMT 38.954868 -77.436707 0 85 11 0
2021-09-22 16:09:04 GMT 38.954861 -77.436783 0 95 10 0
2021-09-22 16:09:02 GMT 38.954849 -77.436920 0 97 6 0
2021-09-22 16:09:01 GMT 38.954861 -77.436958 0 104 5 0
2021-09-22 16:08:59 GMT 38.954861 -77.437111 0 112 2 0
2021-09-22 16:08:58 GMT 38.954861 -77.437134 0 112 1 0
2021-09-22 16:08:56 GMT 38.954880 -77.437157 0 112 1 0
2021-09-22 16:08:55 GMT 38.954891 -77.437187 0 112 1 0
2021-09-22 16:08:54 GMT 38.954849 -77.437149 0 112 1 0
2021-09-22 16:08:52 GMT 38.954861 -77.437157 0 112 1 0
2021-09-22 16:08:50 GMT 38.954868 -77.437172 0 112 1 0
2021-09-22 16:08:48 GMT 38.954861 -77.437157 0 113 1 0
2021-09-22 16:08:46 GMT 38.954861 -77.437187 0 112 1 0
2021-09-22 16:08:44 GMT 38.954880 -77.437187 0 112 0 0
2021-09-22 16:08:42 GMT 38.954880 -77.437180 0 112 1 0
2021-09-22 16:08:40 GMT 38.954868 -77.437180 0 112 1 0
2021-09-22 16:08:39 GMT 38.954880 -77.437202 0 112 1 0
2021-09-22 16:08:38 GMT 38.954868 -77.437172 0 112 0 0
2021-09-22 16:08:37 GMT 38.954868 -77.437180 0 112 1 0
2021-09-22 16:08:35 GMT 38.954880 -77.437187 0 112 2 0
2021-09-22 16:08:34 GMT 38.954861 -77.437172 0 112 2 0
2021-09-22 16:08:32 GMT 38.954880 -77.437187 0 112 0 0
2021-09-22 16:08:31 GMT 38.954880 -77.437180 0 112 0 0
2021-09-22 16:08:30 GMT 38.954891 -77.437187 0 112 0 0
2021-09-22 16:08:28 GMT 38.954891 -77.437172 0 112 1 0
2021-09-22 16:08:27 GMT 38.954880 -77.437180 0 122 1 0
2021-09-22 16:08:25 GMT 38.954868 -77.437172 0 122 1 0
2021-09-22 16:08:23 GMT 38.954861 -77.437187 0 122 0 0
2021-09-22 16:08:22 GMT 38.954861 -77.437202 0 121 1 0
2021-09-22 16:08:21 GMT 38.954861 -77.437210 0 116 3 0
2021-09-22 16:08:19 GMT 38.954861 -77.437149 0 109 1 0
2021-09-22 16:08:17 GMT 38.954849 -77.437141 0 111 2 0
2021-09-22 16:08:15 GMT 38.954849 -77.437149 0 111 3 0
2021-09-22 16:08:14 GMT 38.954880 -77.437172 0 82 5 0
2021-09-22 16:08:13 GMT 38.954880 -77.437187 0 82 5 0
2021-09-22 16:08:11 GMT 38.954891 -77.437263 0 86 6 0
2021-09-22 16:08:10 GMT 38.954849 -77.437271 0 92 7 0
2021-09-22 16:08:08 GMT 38.954880 -77.437378 0 94 3 0
2021-09-22 16:08:07 GMT 38.954861 -77.437378 0 101 4 0
2021-09-22 16:08:06 GMT 38.954849 -77.437424 0 99 5 0
2021-09-22 16:08:04 GMT 38.954861 -77.437439 0 88 5 0
2021-09-22 16:08:02 GMT 38.954899 -77.437531 0 71 2 0
2021-09-22 16:08:01 GMT 38.954891 -77.437508 0 72 4 0
2021-09-22 16:07:59 GMT 38.954880 -77.437561 0 95 3 0
2021-09-22 16:07:57 GMT 38.954849 -77.437561 0 98 3 0
2021-09-22 16:07:56 GMT 38.954842 -77.437592 0 106 5 0
2021-09-22 16:07:55 GMT 38.954868 -77.437653 0 104 3 0
2021-09-22 16:07:54 GMT 38.954868 -77.437660 0 106 3 0
2021-09-22 16:07:52 GMT 38.954861 -77.437698 0 106 1 0
2021-09-22 16:07:50 GMT 38.954868 -77.437721 0 106 1 0
2021-09-22 16:07:49 GMT 38.954861 -77.437714 0 106 1 0
2021-09-22 16:07:48 GMT 38.954849 -77.437691 0 99 3 0
2021-09-22 16:07:42 GMT 38.954891 -77.437759 0 84 0 0
2021-09-22 16:07:35 GMT 38.954880 -77.437759 0 84 0 0
2021-09-22 16:07:34 GMT 38.954868 -77.437767 0 84 0 0
2021-09-22 16:07:33 GMT 38.954880 -77.437767 0 84 1 0
2021-09-22 16:07:31 GMT 38.954868 -77.437782 0 83 1 0
2021-09-22 16:07:30 GMT 38.954868 -77.437782 0 87 0 0
2021-09-22 16:07:28 GMT 38.954868 -77.437767 0 87 0 0
2021-09-22 16:07:27 GMT 38.954868 -77.437790 0 87 1 0
2021-09-22 16:07:25 GMT 38.954861 -77.437767 0 88 3 0
2021-09-22 16:07:24 GMT 38.954868 -77.437813 0 82 3 0
2021-09-22 16:07:22 GMT 38.954868 -77.437813 0 86 5 0
2021-09-22 16:07:20 GMT 38.954830 -77.437859 0 104 7 0
2021-09-22 16:07:19 GMT 38.954849 -77.437889 0 94 8 0
2021-09-22 16:07:18 GMT 38.954880 -77.437981 0 75 7 0
2021-09-22 16:07:16 GMT 38.954899 -77.438011 0 69 8 0
2021-09-22 16:07:14 GMT 38.954868 -77.438103 0 64 7 0
2021-09-22 16:07:13 GMT 38.954849 -77.438179 0 53 7 0
2021-09-22 16:07:11 GMT 38.954842 -77.438248 0 44 6 0
2021-09-22 16:07:09 GMT 38.954811 -77.438301 0 35 6 0
2021-09-22 16:07:08 GMT 38.954800 -77.438332 0 25 6 0
2021-09-22 16:07:06 GMT 38.954762 -77.438400 0 10 4 0
2021-09-22 16:07:05 GMT 38.954739 -77.438400 0 10 5 0
2021-09-22 16:07:04 GMT 38.954731 -77.438400 0 8 6 0
2021-09-22 16:07:02 GMT 38.954681 -77.438423 0 2 7 0
2021-09-22 16:07:01 GMT 38.954651 -77.438431 0 2 7 0
2021-09-22 16:07:00 GMT 38.954601 -77.438423 0 6 6 0
2021-09-22 16:06:59 GMT 38.954540 -77.438408 0 15 4 0
2021-09-22 16:06:57 GMT 38.954529 -77.438408 0 10 5 0
2021-09-22 16:06:55 GMT 38.954498 -77.438438 0 359 7 0
2021-09-22 16:06:54 GMT 38.954449 -77.438438 0 0 6 0
2021-09-22 16:06:53 GMT 38.954391 -77.438423 0 8 6 0
2021-09-22 16:06:51 GMT 38.954330 -77.438461 0 356 6 0
2021-09-22 16:06:49 GMT 38.954311 -77.438438 0 357 6 0
2021-09-22 16:06:48 GMT 38.954281 -77.438438 0 353 5 0
2021-09-22 16:06:46 GMT 38.954231 -77.438438 0 350 5 0
2021-09-22 16:06:45 GMT 38.954170 -77.438423 0 342 2 0
2021-09-22 16:06:43 GMT 38.954121 -77.438469 0 342 2 0
2021-09-22 16:06:41 GMT 38.954010 -77.438499 0 341 1 0
2021-09-22 16:06:38 GMT 38.953999 -77.438499 0 340 1 0
2021-09-22 16:06:36 GMT 38.953979 -77.438492 0 340 1 0
2021-09-22 16:06:34 GMT 38.954041 -77.438469 0 340 1 0
2021-09-22 16:06:33 GMT 38.954021 -77.438469 0 340 0 0
2021-09-22 16:06:32 GMT 38.953979 -77.438469 0 340 0 0
2021-09-22 16:06:30 GMT 38.953991 -77.438492 0 340 0 0
2021-09-22 16:06:29 GMT 38.954010 -77.438477 0 340 0 0
2021-09-22 16:06:28 GMT 38.953979 -77.438499 0 340 0 0
2021-09-22 16:06:26 GMT 38.953999 -77.438477 0 340 0 32
2021-09-22 16:06:23 GMT 38.954041 -77.438461 0 340 0 32
2021-09-22 16:06:21 GMT 38.953972 -77.438499 0 340 0 32
2021-09-22 16:06:18 GMT 38.953979 -77.438492 0 341 0 32
2021-09-22 16:06:17 GMT 38.953949 -77.438499 0 341 0 32
2021-09-22 16:06:16 GMT 38.953991 -77.438492 0 341 0 32
2021-09-22 16:06:14 GMT 38.954021 -77.438469 0 341 0 32
2021-09-22 16:06:13 GMT 38.954021 -77.438477 0 341 0 32
2021-09-22 16:06:12 GMT 38.953991 -77.438477 0 341 0 32
2021-09-22 16:06:11 GMT 38.954010 -77.438477 0 341 0 32
2021-09-22 16:06:09 GMT 38.954021 -77.438477 0 341 0 32
2021-09-22 16:06:08 GMT 38.954021 -77.438469 0 341 0 32
2021-09-22 16:06:06 GMT 38.953991 -77.438477 0 341 0 32
2021-09-22 16:06:05 GMT 38.954010 -77.438492 0 341 0 32
2021-09-22 16:06:04 GMT 38.953979 -77.438492 0 342 0 32
2021-09-22 16:06:03 GMT 38.953979 -77.438492 0 342 0 32
2021-09-22 16:06:01 GMT 38.953979 -77.438469 0 342 1 32
2021-09-22 16:06:00 GMT 38.953991 -77.438477 0 342 0 32
2021-09-22 16:05:58 GMT 38.954021 -77.438477 0 342 0 32
2021-09-22 16:05:56 GMT 38.953991 -77.438469 0 343 1 0
2021-09-22 16:05:55 GMT 38.954010 -77.438461 0 343 1 0
2021-09-22 16:05:53 GMT 38.954029 -77.438454 0 343 0 0
2021-09-22 16:05:52 GMT 38.954060 -77.438492 0 344 1 0
2021-09-22 16:05:50 GMT 38.954071 -77.438469 0 344 0 0
2021-09-22 16:05:48 GMT 38.954071 -77.438469 0 344 0 0
2021-09-22 16:05:45 GMT 38.954071 -77.438461 0 344 0 0
2021-09-22 16:05:43 GMT 38.954071 -77.438461 0 344 0 0
2021-09-22 16:05:42 GMT 38.954060 -77.438461 0 344 0 0
2021-09-22 16:05:39 GMT 38.954071 -77.438461 0 344 0 0
2021-09-22 16:05:37 GMT 38.954060 -77.438461 0 345 0 0
2021-09-22 16:05:36 GMT 38.954071 -77.438454 0 345 0 0
2021-09-22 16:05:33 GMT 38.954079 -77.438454 0 345 0 0
2021-09-22 16:05:30 GMT 38.954079 -77.438469 0 345 0 0
2021-09-22 16:05:28 GMT 38.954079 -77.438469 0 345 0 0
2021-09-22 16:05:26 GMT 38.954071 -77.438469 0 345 1 0
2021-09-22 16:05:25 GMT 38.954079 -77.438469 0 348 3 0
2021-09-22 16:05:23 GMT 38.954060 -77.438431 0 352 2 0
2021-09-22 16:05:20 GMT 38.954048 -77.438423 0 2 4 0
2021-09-22 16:05:19 GMT 38.954021 -77.438393 0 1 3 0
2021-09-22 16:05:17 GMT 38.953991 -77.438431 0 0 0 0
2021-09-22 16:05:16 GMT 38.953979 -77.438431 0 0 0 0
2021-09-22 16:05:14 GMT 38.953991 -77.438438 0 1 2 0
2021-09-22 16:05:12 GMT 38.953991 -77.438438 0 1 3 0
2021-09-22 16:05:11 GMT 38.953960 -77.438438 0 0 2 0
2021-09-22 16:05:09 GMT 38.953949 -77.438461 0 2 3 0
2021-09-22 16:05:08 GMT 38.953949 -77.438438 0 7 3 0
2021-09-22 16:05:06 GMT 38.953918 -77.438423 0 14 3 0
2021-09-22 16:05:05 GMT 38.953911 -77.438408 0 7 4 0
2021-09-22 16:05:04 GMT 38.953899 -77.438454 0 353 4 0
2021-09-22 16:05:02 GMT 38.953861 -77.438461 0 1 5 0
2021-09-22 16:05:01 GMT 38.953819 -77.438400 0 6 4 0
2021-09-22 16:04:59 GMT 38.953781 -77.438423 0 3 2 0
2021-09-22 16:04:57 GMT 38.953758 -77.438438 0 11 2 0
2021-09-22 16:04:56 GMT 38.953751 -77.438431 0 7 3 0
2021-09-22 16:04:54 GMT 38.953739 -77.438438 0 5 4 0
2021-09-22 16:04:52 GMT 38.953709 -77.438438 0 4 4 0
2021-09-22 16:04:51 GMT 38.953671 -77.438461 0 359 2 0
2021-09-22 16:04:50 GMT 38.953629 -77.438477 0 359 2 0
2021-09-22 16:04:48 GMT 38.953579 -77.438469 0 0 0 0
2021-09-22 16:04:46 GMT 38.953579 -77.438461 0 0 0 0
2021-09-22 16:04:44 GMT 38.953571 -77.438461 0 0 0 0
2021-09-22 16:04:43 GMT 38.953541 -77.438469 0 0 0 0
2021-09-22 16:04:41 GMT 38.953548 -77.438469 0 0 0 0
2021-09-22 16:04:40 GMT 38.953510 -77.438461 0 0 0 0
2021-09-22 16:04:39 GMT 38.953541 -77.438438 0 0 0 0
2021-09-22 16:04:37 GMT 38.953548 -77.438438 0 0 0 0
2021-09-22 16:04:36 GMT 38.953529 -77.438431 0 0 0 0
2021-09-22 16:04:33 GMT 38.953499 -77.438469 0 0 0 0
2021-09-22 16:04:31 GMT 38.953480 -77.438492 0 0 0 0
2021-09-22 16:04:30 GMT 38.953468 -77.438492 0 0 0 0
2021-09-22 16:04:28 GMT 38.953491 -77.438492 0 0 0 0
2021-09-22 16:04:27 GMT 38.953499 -77.438477 0 0 0 0
2021-09-22 16:04:25 GMT 38.953468 -77.438477 0 1 0 0
2021-09-22 16:04:24 GMT 38.953499 -77.438461 0 1 0 0
2021-09-22 16:04:21 GMT 38.953548 -77.438438 0 2 0 0
2021-09-22 16:04:19 GMT 38.953541 -77.438400 0 0 2 0
2021-09-22 16:04:17 GMT 38.953541 -77.438438 0 359 0 0
2021-09-22 16:04:16 GMT 38.953548 -77.438454 0 359 0 0
2021-09-22 16:04:15 GMT 38.953541 -77.438461 0 359 0 0
2021-09-22 16:04:13 GMT 38.953541 -77.438454 0 0 1 0
2021-09-22 16:04:12 GMT 38.953541 -77.438438 0 2 0 0
2021-09-22 16:04:11 GMT 38.953548 -77.438454 0 2 0 0
2021-09-22 16:04:09 GMT 38.953560 -77.438431 0 1 1 0
2021-09-22 16:04:08 GMT 38.953548 -77.438431 0 1 0 0
2021-09-22 16:04:06 GMT 38.953541 -77.438431 0 1 0 0
2021-09-22 16:04:03 GMT 38.953541 -77.438454 0 1 0 0
2021-09-22 16:04:02 GMT 38.953522 -77.438438 0 1 0 0
2021-09-22 16:03:59 GMT 38.953529 -77.438438 0 1 1 0
2021-09-22 16:03:57 GMT 38.953529 -77.438461 0 0 2 0
2021-09-22 16:03:55 GMT 38.953510 -77.438438 0 356 3 0
2021-09-22 16:03:53 GMT 38.953491 -77.438461 0 354 2 0
2021-09-22 16:03:52 GMT 38.953510 -77.438492 0 348 6 0
2021-09-22 16:03:50 GMT 38.953480 -77.438499 0 346 6 0
2021-09-22 16:03:49 GMT 38.953419 -77.438461 0 359 5 0
2021-09-22 16:03:47 GMT 38.953388 -77.438431 0 2 4 0
2021-09-22 16:03:46 GMT 38.953381 -77.438438 0 351 5 0
2021-09-22 16:03:44 GMT 38.953339 -77.438492 0 338 3 0
2021-09-22 16:03:43 GMT 38.953308 -77.438438 0 335 2 0
2021-09-22 16:03:41 GMT 38.953239 -77.438423 0 334 0 0
2021-09-22 16:03:40 GMT 38.953251 -77.438408 0 333 1 0
2021-09-22 16:03:38 GMT 38.953259 -77.438461 0 330 1 0
2021-09-22 16:03:36 GMT 38.953201 -77.438408 0 329 2 0
2021-09-22 16:03:35 GMT 38.953201 -77.438423 0 328 2 0
2021-09-22 16:03:32 GMT 38.953190 -77.438469 0 328 0 0
2021-09-22 16:03:31 GMT 38.953152 -77.438499 0 329 0 0
2021-09-22 16:03:29 GMT 38.953159 -77.438499 0 329 0 0
2021-09-22 16:03:27 GMT 38.953171 -77.438499 0 329 0 0
2021-09-22 16:03:24 GMT 38.953201 -77.438492 0 329 0 0
2021-09-22 16:03:23 GMT 38.953190 -77.438477 0 329 0 0
2021-09-22 16:03:20 GMT 38.953190 -77.438492 0 329 0 0
2021-09-22 16:03:19 GMT 38.953129 -77.438507 0 329 0 0
2021-09-22 16:03:17 GMT 38.953129 -77.438499 0 329 0 0
2021-09-22 16:03:15 GMT 38.953159 -77.438477 0 329 0 0
2021-09-22 16:03:13 GMT 38.953159 -77.438477 0 329 0 0
2021-09-22 16:03:12 GMT 38.953178 -77.438507 0 329 0 0
2021-09-22 16:03:09 GMT 38.953201 -77.438507 0 329 0 0
2021-09-22 16:03:08 GMT 38.953129 -77.438492 0 330 0 0
2021-09-22 16:03:06 GMT 38.953190 -77.438454 0 332 0 0
2021-09-22 16:03:05 GMT 38.953190 -77.438438 0 333 0 0
2021-09-22 16:03:04 GMT 38.953201 -77.438438 0 333 0 0
2021-09-22 16:03:01 GMT 38.953190 -77.438438 0 333 0 0
2021-09-22 16:02:58 GMT 38.953190 -77.438469 0 335 0 0
2021-09-22 16:02:57 GMT 38.953171 -77.438469 0 335 0 0
2021-09-22 16:02:54 GMT 38.953190 -77.438469 0 335 0 0
2021-09-22 16:02:53 GMT 38.953171 -77.438469 0 335 0 0
2021-09-22 16:02:52 GMT 38.953152 -77.438477 0 335 0 0
2021-09-22 16:02:49 GMT 38.953121 -77.438522 0 335 0 0
2021-09-22 16:02:47 GMT 38.953098 -77.438507 0 335 0 0
2021-09-22 16:02:46 GMT 38.953140 -77.438477 0 335 0 0
2021-09-22 16:02:44 GMT 38.953140 -77.438492 0 335 0 0
2021-09-22 16:02:42 GMT 38.953121 -77.438499 0 338 1 0
2021-09-22 16:02:39 GMT 38.953159 -77.438477 0 341 0 0
2021-09-22 16:02:38 GMT 38.953152 -77.438492 0 341 0 0
2021-09-22 16:02:37 GMT 38.953178 -77.438469 0 341 0 0
2021-09-22 16:02:34 GMT 38.953220 -77.438461 0 341 0 0
2021-09-22 16:02:33 GMT 38.953220 -77.438461 0 341 0 0
2021-09-22 16:02:31 GMT 38.953232 -77.438492 0 342 1 0
2021-09-22 16:02:30 GMT 38.953239 -77.438492 0 342 1 0
2021-09-22 16:02:28 GMT 38.953178 -77.438461 0 342 0 0
2021-09-22 16:02:25 GMT 38.953209 -77.438438 0 342 0 0
2021-09-22 16:02:21 GMT 38.953201 -77.438431 0 344 0 0
2021-09-22 16:02:19 GMT 38.953201 -77.438477 0 348 0 0
2021-09-22 16:02:17 GMT 38.953209 -77.438469 0 348 1 0
2021-09-22 16:02:15 GMT 38.953201 -77.438454 0 348 1 0
2021-09-22 16:02:13 GMT 38.953201 -77.438461 0 348 1 0
2021-09-22 16:02:09 GMT 38.953209 -77.438454 0 352 0 0
2021-09-22 16:02:07 GMT 38.953232 -77.438469 0 352 3 0
2021-09-22 16:02:06 GMT 38.953209 -77.438438 0 352 0 0
2021-09-22 16:02:04 GMT 38.953220 -77.438438 0 352 0 0
2021-09-22 16:02:03 GMT 38.953209 -77.438438 0 352 0 0
2021-09-22 16:02:01 GMT 38.953220 -77.438438 0 352 0 0
2021-09-22 16:01:59 GMT 38.953209 -77.438454 0 352 1 0
2021-09-22 16:01:56 GMT 38.953220 -77.438438 0 350 2 0
2021-09-22 16:01:54 GMT 38.953201 -77.438454 0 341 3 0
2021-09-22 16:01:52 GMT 38.953171 -77.438438 0 343 2 0
2021-09-22 16:01:51 GMT 38.953159 -77.438438 0 341 2 0
2021-09-22 16:01:50 GMT 38.953171 -77.438477 0 341 4 0
2021-09-22 16:01:49 GMT 38.953140 -77.438477 0 343 7 0
2021-09-22 16:01:47 GMT 38.953110 -77.438454 0 355 6 0
2021-09-22 16:01:46 GMT 38.953091 -77.438438 0 7 6 0
2021-09-22 16:01:44 GMT 38.953041 -77.438423 0 12 6 0
2021-09-22 16:01:43 GMT 38.952999 -77.438423 0 5 5 0
2021-09-22 16:01:41 GMT 38.952961 -77.438431 0 1 5 0
2021-09-22 16:01:40 GMT 38.952919 -77.438438 0 11 5 0
2021-09-22 16:01:38 GMT 38.952900 -77.438423 0 14 6 0
2021-09-22 16:01:36 GMT 38.952862 -77.438461 0 6 7 0
2021-09-22 16:01:35 GMT 38.952789 -77.438477 0 358 7 0
2021-09-22 16:01:34 GMT 38.952740 -77.438477 0 358 5 0
2021-09-22 16:01:32 GMT 38.952728 -77.438477 0 359 6 0
2021-09-22 16:01:30 GMT 38.952679 -77.438477 0 354 6 0
2021-09-22 16:01:29 GMT 38.952629 -77.438492 0 348 5 0
2021-09-22 16:01:27 GMT 38.952599 -77.438477 0 1 6 0
2021-09-22 16:01:26 GMT 38.952541 -77.438469 0 7 4 0
2021-09-22 16:01:24 GMT 38.952518 -77.438461 0 8 4 0
2021-09-22 16:01:23 GMT 38.952480 -77.438469 0 11 4 0
2021-09-22 16:01:21 GMT 38.952450 -77.438477 0 8 3 0
2021-09-22 16:01:19 GMT 38.952431 -77.438477 0 359 3 0
2021-09-22 16:01:18 GMT 38.952419 -77.438507 0 352 4 0
2021-09-22 16:01:16 GMT 38.952389 -77.438499 0 349 4 0
2021-09-22 16:01:15 GMT 38.952351 -77.438522 0 345 2 0
2021-09-22 16:01:13 GMT 38.952358 -77.438507 0 351 4 0
2021-09-22 16:01:12 GMT 38.952339 -77.438492 0 356 3 0
2021-09-22 16:01:10 GMT 38.952309 -77.438492 0 3 3 0
2021-09-22 16:01:09 GMT 38.952278 -77.438477 0 6 1 0
2021-09-22 16:01:07 GMT 38.952278 -77.438469 0 7 3 0
2021-09-22 16:01:06 GMT 38.952271 -77.438461 0 8 2 0
2021-09-22 16:01:03 GMT 38.952240 -77.438469 0 8 1 0
2021-09-22 16:01:01 GMT 38.952221 -77.438454 0 11 2 0
2021-09-22 16:01:00 GMT 38.952209 -77.438461 0 10 2 0
2021-09-22 16:00:59 GMT 38.952179 -77.438492 0 10 0 0
2021-09-22 16:00:56 GMT 38.952202 -77.438492 0 13 2 0
2021-09-22 16:00:55 GMT 38.952190 -77.438469 0 17 3 0
2021-09-22 16:00:54 GMT 38.952179 -77.438461 0 18 3 0
2021-09-22 16:00:52 GMT 38.952148 -77.438438 0 16 2 0
2021-09-22 16:00:51 GMT 38.952129 -77.438461 0 11 2 0
2021-09-22 16:00:49 GMT 38.952148 -77.438492 0 11 1 0
2021-09-22 16:00:48 GMT 38.952160 -77.438499 0 10 1 0
2021-09-22 16:00:46 GMT 38.952141 -77.438499 0 12 0 0
2021-09-22 16:00:44 GMT 38.952129 -77.438492 0 12 0 0
2021-09-22 16:00:43 GMT 38.952122 -77.438499 0 12 0 0
2021-09-22 16:00:41 GMT 38.952129 -77.438477 0 12 0 0
2021-09-22 16:00:39 GMT 38.952122 -77.438461 0 11 2 0
2021-09-22 16:00:38 GMT 38.952110 -77.438477 0 11 0 0
2021-09-22 16:00:36 GMT 38.952099 -77.438477 0 11 1 0
2021-09-22 16:00:35 GMT 38.952099 -77.438492 0 11 1 0
2021-09-22 16:00:33 GMT 38.952091 -77.438507 0 11 1 0
2021-09-22 16:00:32 GMT 38.952068 -77.438499 0 12 0 0
2021-09-22 16:00:29 GMT 38.952061 -77.438469 0 12 0 0
2021-09-22 16:00:27 GMT 38.952061 -77.438477 0 11 2 0
2021-09-22 16:00:26 GMT 38.952049 -77.438469 0 10 2 0
2021-09-22 16:00:24 GMT 38.952042 -77.438477 0 7 3 0
2021-09-22 16:00:23 GMT 38.952019 -77.438492 0 357 4 0
2021-09-22 16:00:21 GMT 38.952019 -77.438522 0 352 5 0
2021-09-22 16:00:19 GMT 38.951988 -77.438522 0 354 8 0
2021-09-22 16:00:18 GMT 38.951939 -77.438507 0 353 7 0
2021-09-22 16:00:15 GMT 38.951859 -77.438477 0 0 6 0
2021-09-22 16:00:14 GMT 38.951820 -77.438492 0 356 6 0
2021-09-22 16:00:13 GMT 38.951809 -77.438499 0 357 7 0
2021-09-22 16:00:11 GMT 38.951740 -77.438492 0 356 6 0
2021-09-22 16:00:09 GMT 38.951691 -77.438492 0 359 7 0
2021-09-22 16:00:08 GMT 38.951660 -77.438469 0 3 7 0
2021-09-22 16:00:07 GMT 38.951630 -77.438477 0 7 6 0
2021-09-22 16:00:05 GMT 38.951569 -77.438461 0 15 5 0
2021-09-22 16:00:04 GMT 38.951550 -77.438492 0 10 5 0
2021-09-22 16:00:02 GMT 38.951511 -77.438492 0 5 4 0
2021-09-22 16:00:01 GMT 38.951500 -77.438492 0 4 5 0
2021-09-22 15:59:59 GMT 38.951469 -77.438499 0 0 7 0
2021-09-22 15:59:58 GMT 38.951420 -77.438507 0 359 5 0
2021-09-22 15:59:56 GMT 38.951359 -77.438507 0 357 2 0
2021-09-22 15:59:54 GMT 38.951321 -77.438522 0 355 3 0
2021-09-22 15:59:53 GMT 38.951210 -77.438538 0 354 0 0
2021-09-22 15:59:51 GMT 38.951172 -77.438538 0 354 0 0
2021-09-22 15:59:48 GMT 38.951210 -77.438507 0 354 0 0
2021-09-22 15:59:47 GMT 38.951199 -77.438507 0 354 0 0
2021-09-22 15:59:43 GMT 38.951241 -77.438507 0 354 0 0
2021-09-22 15:59:42 GMT 38.951221 -77.438507 0 354 0 0
2021-09-22 15:59:39 GMT 38.951199 -77.438499 0 354 0 0
2021-09-22 15:59:37 GMT 38.951149 -77.438522 0 354 0 0
2021-09-22 15:59:36 GMT 38.951172 -77.438507 0 354 0 0
2021-09-22 15:59:32 GMT 38.951199 -77.438492 0 354 0 0
2021-09-22 15:59:31 GMT 38.951172 -77.438507 0 354 0 0
2021-09-22 15:59:29 GMT 38.951199 -77.438492 0 354 0 0
2021-09-22 15:59:28 GMT 38.951210 -77.438492 0 354 0 0
2021-09-22 15:59:27 GMT 38.951160 -77.438553 0 354 0 0
2021-09-22 15:59:24 GMT 38.951141 -77.438553 0 354 0 0
2021-09-22 15:59:23 GMT 38.951130 -77.438538 0 354 0 0
2021-09-22 15:59:22 GMT 38.951118 -77.438553 0 354 0 0
2021-09-22 15:59:21 GMT 38.951080 -77.438568 0 354 1 0
2021-09-22 15:59:19 GMT 38.951141 -77.438560 0 354 0 0
2021-09-22 15:59:18 GMT 38.951149 -77.438553 0 354 0 0
2021-09-22 15:59:16 GMT 38.951099 -77.438568 0 356 1 0
2021-09-22 15:59:15 GMT 38.951160 -77.438553 0 357 0 0
2021-09-22 15:59:12 GMT 38.951180 -77.438538 0 357 0 0
2021-09-22 15:59:10 GMT 38.951180 -77.438530 0 357 0 0
2021-09-22 15:59:09 GMT 38.951210 -77.438507 0 358 0 0
2021-09-22 15:59:07 GMT 38.951221 -77.438507 0 358 0 0
2021-09-22 15:59:06 GMT 38.951199 -77.438499 0 0 0 0
2021-09-22 15:59:03 GMT 38.951221 -77.438492 0 0 0 0
2021-09-22 15:59:02 GMT 38.951191 -77.438530 0 0 0 0
2021-09-22 15:59:01 GMT 38.951191 -77.438530 0 0 0 0
2021-09-22 15:58:59 GMT 38.951199 -77.438522 0 0 0 0
2021-09-22 15:58:55 GMT 38.951160 -77.438538 0 0 0 0
2021-09-22 15:58:52 GMT 38.951221 -77.438522 0 0 0 0
2021-09-22 15:58:51 GMT 38.951221 -77.438530 0 0 0 0
2021-09-22 15:58:50 GMT 38.951199 -77.438507 0 0 0 0
2021-09-22 15:58:44 GMT 38.951229 -77.438499 0 0 0 0
2021-09-22 15:58:41 GMT 38.951221 -77.438492 0 0 0 0
2021-09-22 15:58:39 GMT 38.951221 -77.438492 0 0 0 0
2021-09-22 15:58:38 GMT 38.951229 -77.438492 0 0 0 0
2021-09-22 15:58:37 GMT 38.951229 -77.438499 0 358 1 0
2021-09-22 15:58:35 GMT 38.951229 -77.438507 0 357 0 0
2021-09-22 15:58:32 GMT 38.951221 -77.438522 0 357 0 0
2021-09-22 15:58:30 GMT 38.951221 -77.438507 0 357 0 0
2021-09-22 15:58:26 GMT 38.951221 -77.438507 0 357 0 0
2021-09-22 15:58:21 GMT 38.951221 -77.438499 0 357 0 0
2021-09-22 15:58:19 GMT 38.951210 -77.438499 0 357 0 0
2021-09-22 15:58:18 GMT 38.951199 -77.438499 0 357 0 0
2021-09-22 15:58:16 GMT 38.951199 -77.438507 0 357 1 0
2021-09-22 15:58:14 GMT 38.951199 -77.438522 0 353 4 0
2021-09-22 15:58:13 GMT 38.951199 -77.438507 0 351 5 0
2021-09-22 15:58:11 GMT 38.951172 -77.438522 0 354 7 0
2021-09-22 15:58:09 GMT 38.951099 -77.438492 0 3 6 0
2021-09-22 15:58:08 GMT 38.951080 -77.438492 0 1 7 0
2021-09-22 15:58:06 GMT 38.951000 -77.438469 0 15 5 0
2021-09-22 15:58:05 GMT 38.950981 -77.438492 0 14 5 0
2021-09-22 15:58:03 GMT 38.950920 -77.438492 0 7 5 0
2021-09-22 15:58:02 GMT 38.950932 -77.438538 0 358 8 0
2021-09-22 15:58:00 GMT 38.950851 -77.438522 0 359 7 0
2021-09-22 15:57:59 GMT 38.950821 -77.438530 0 358 8 0
2021-09-22 15:57:57 GMT 38.950741 -77.438553 0 345 6 0
2021-09-22 15:57:56 GMT 38.950722 -77.438538 0 341 6 0
2021-09-22 15:57:54 GMT 38.950680 -77.438553 0 346 8 0
2021-09-22 15:57:53 GMT 38.950649 -77.438507 0 353 8 0
2021-09-22 15:57:52 GMT 38.950619 -77.438492 0 2 8 0
2021-09-22 15:57:50 GMT 38.950539 -77.438454 0 26 5 0
2021-09-22 15:57:49 GMT 38.950508 -77.438454 0 30 5 0
2021-09-22 15:57:47 GMT 38.950481 -77.438469 0 26 6 0
2021-09-22 15:57:46 GMT 38.950459 -77.438499 0 10 6 0
2021-09-22 15:57:45 GMT 38.950409 -77.438560 0 348 5 0
2021-09-22 15:57:43 GMT 38.950401 -77.438560 0 344 6 0
2021-09-22 15:57:41 GMT 38.950340 -77.438538 0 348 5 0
2021-09-22 15:57:39 GMT 38.950291 -77.438507 0 359 5 0
2021-09-22 15:57:38 GMT 38.950260 -77.438507 0 6 4 0
2021-09-22 15:57:37 GMT 38.950230 -77.438499 0 357 4 0
2021-09-22 15:57:35 GMT 38.950218 -77.438522 0 354 4 0
2021-09-22 15:57:33 GMT 38.950191 -77.438507 0 1 5 0
2021-09-22 15:57:31 GMT 38.950142 -77.438492 0 10 5 0
2021-09-22 15:57:30 GMT 38.950130 -77.438492 0 10 5 0
2021-09-22 15:57:29 GMT 38.950100 -77.438507 0 13 5 0
2021-09-22 15:57:28 GMT 38.950050 -77.438492 0 15 4 0
2021-09-22 15:57:26 GMT 38.950031 -77.438522 0 5 3 0
2021-09-22 15:57:24 GMT 38.950020 -77.438538 0 350 5 0
2021-09-22 15:57:23 GMT 38.950001 -77.438553 0 345 4 0
2021-09-22 15:57:21 GMT 38.949959 -77.438530 0 354 4 0
2021-09-22 15:57:20 GMT 38.949940 -77.438522 0 3 3 0
2021-09-22 15:57:18 GMT 38.949902 -77.438530 0 334 3 0
2021-09-22 15:57:17 GMT 38.949879 -77.438522 0 333 2 0
2021-09-22 15:57:14 GMT 38.949760 -77.438538 0 332 0 0
2021-09-22 15:57:13 GMT 38.949730 -77.438560 0 332 0 0
2021-09-22 15:57:12 GMT 38.949760 -77.438530 0 333 0 0
2021-09-22 15:57:09 GMT 38.949772 -77.438507 0 333 0 0
2021-09-22 15:57:07 GMT 38.949760 -77.438507 0 333 0 0
2021-09-22 15:57:05 GMT 38.949780 -77.438499 0 334 0 0
2021-09-22 15:57:04 GMT 38.949749 -77.438507 0 334 0 0
2021-09-22 15:57:03 GMT 38.949730 -77.438530 0 334 0 0
2021-09-22 15:56:59 GMT 38.949760 -77.438507 0 334 0 0
2021-09-22 15:56:58 GMT 38.949741 -77.438499 0 334 0 0
2021-09-22 15:56:56 GMT 38.949749 -77.438499 0 334 0 0
2021-09-22 15:56:54 GMT 38.949718 -77.438538 0 334 0 0
2021-09-22 15:56:52 GMT 38.949749 -77.438522 0 334 0 0
2021-09-22 15:56:50 GMT 38.949760 -77.438507 0 334 0 0
2021-09-22 15:56:49 GMT 38.949749 -77.438507 0 334 0 0
2021-09-22 15:56:46 GMT 38.949760 -77.438530 0 332 0 0
2021-09-22 15:56:44 GMT 38.949760 -77.438530 0 334 0 0
2021-09-22 15:56:43 GMT 38.949760 -77.438522 0 334 0 0
2021-09-22 15:56:41 GMT 38.949730 -77.438530 0 334 0 0
2021-09-22 15:56:39 GMT 38.949730 -77.438538 0 334 0 0
2021-09-22 15:56:38 GMT 38.949699 -77.438538 0 334 0 0
2021-09-22 15:56:37 GMT 38.949741 -77.438522 0 334 0 0
2021-09-22 15:56:28 GMT 38.949760 -77.438507 0 334 0 0
2021-09-22 15:56:27 GMT 38.949780 -77.438507 0 334 0 0
2021-09-22 15:56:26 GMT 38.949772 -77.438507 0 334 1 0
2021-09-22 15:56:24 GMT 38.949749 -77.438522 0 334 0 0
2021-09-22 15:56:22 GMT 38.949760 -77.438507 0 334 0 0
2021-09-22 15:56:21 GMT 38.949760 -77.438507 0 337 0 0
2021-09-22 15:56:18 GMT 38.949760 -77.438507 0 339 0 0
2021-09-22 15:56:17 GMT 38.949749 -77.438530 0 339 0 0
2021-09-22 15:56:15 GMT 38.949749 -77.438530 0 339 0 0
2021-09-22 15:56:13 GMT 38.949749 -77.438530 0 341 0 0
2021-09-22 15:56:11 GMT 38.949760 -77.438522 0 341 0 0
2021-09-22 15:56:10 GMT 38.949760 -77.438522 0 342 0 0
2021-09-22 15:56:07 GMT 38.949760 -77.438507 0 343 0 0
2021-09-22 15:56:05 GMT 38.949760 -77.438522 0 343 0 0
2021-09-22 15:56:02 GMT 38.949772 -77.438507 0 346 0 0
2021-09-22 15:56:01 GMT 38.949772 -77.438499 0 347 0 0
2021-09-22 15:55:59 GMT 38.949780 -77.438499 0 347 1 0
2021-09-22 15:55:58 GMT 38.949780 -77.438492 0 348 0 0
2021-09-22 15:55:56 GMT 38.949772 -77.438499 0 348 0 0
2021-09-22 15:55:55 GMT 38.949772 -77.438507 0 348 0 0
2021-09-22 15:55:53 GMT 38.949772 -77.438499 0 347 1 0
2021-09-22 15:55:52 GMT 38.949760 -77.438522 0 352 0 0
2021-09-22 15:55:50 GMT 38.949772 -77.438522 0 358 0 0
2021-09-22 15:55:49 GMT 38.949772 -77.438477 0 0 2 0
2021-09-22 15:55:47 GMT 38.949772 -77.438507 0 359 1 0
2021-09-22 15:55:45 GMT 38.949772 -77.438507 0 358 2 0
2021-09-22 15:55:44 GMT 38.949780 -77.438507 0 357 4 0
2021-09-22 15:55:42 GMT 38.949772 -77.438538 0 351 5 0
2021-09-22 15:55:40 GMT 38.949741 -77.438507 0 354 6 0
2021-09-22 15:55:39 GMT 38.949711 -77.438507 0 354 7 0
2021-09-22 15:55:37 GMT 38.949638 -77.438499 0 10 5 0
2021-09-22 15:55:36 GMT 38.949619 -77.438492 0 5 5 0
2021-09-22 15:55:34 GMT 38.949589 -77.438522 0 354 4 0
2021-09-22 15:55:33 GMT 38.949551 -77.438522 0 353 5 0
2021-09-22 15:55:32 GMT 38.949532 -77.438507 0 359 5 0
2021-09-22 15:55:31 GMT 38.949501 -77.438499 0 6 4 0
2021-09-22 15:55:30 GMT 38.949471 -77.438499 0 10 6 0
2021-09-22 15:55:28 GMT 38.949440 -77.438492 0 14 6 0
2021-09-22 15:55:27 GMT 38.949429 -77.438507 0 11 6 0
2021-09-22 15:55:25 GMT 38.949360 -77.438522 0 0 5 0
2021-09-22 15:55:24 GMT 38.949322 -77.438553 0 352 3 0
2021-09-22 15:55:22 GMT 38.949291 -77.438553 0 357 3 0
2021-09-22 15:55:21 GMT 38.949310 -77.438530 0 356 6 0
2021-09-22 15:55:19 GMT 38.949261 -77.438530 0 1 5 0
2021-09-22 15:55:18 GMT 38.949230 -77.438530 0 357 4 0
2021-09-22 15:55:16 GMT 38.949211 -77.438553 0 356 5 0
2021-09-22 15:55:15 GMT 38.949188 -77.438530 0 0 5 0
2021-09-22 15:55:14 GMT 38.949162 -77.438530 0 4 4 0
2021-09-22 15:55:13 GMT 38.949150 -77.438530 0 4 4 0
2021-09-22 15:55:11 GMT 38.949108 -77.438538 0 355 4 0
2021-09-22 15:55:09 GMT 38.949070 -77.438553 0 347 2 0
2021-09-22 15:55:08 GMT 38.949081 -77.438538 0 350 4 0
2021-09-22 15:55:06 GMT 38.949032 -77.438530 0 352 3 0
2021-09-22 15:55:05 GMT 38.948990 -77.438507 0 352 2 0
2021-09-22 15:55:02 GMT 38.948959 -77.438522 0 351 0 0
2021-09-22 15:54:58 GMT 38.948929 -77.438507 0 351 0 0
2021-09-22 15:54:57 GMT 38.948929 -77.438530 0 351 0 0
2021-09-22 15:54:55 GMT 38.948929 -77.438522 0 351 0 0
2021-09-22 15:54:54 GMT 38.948929 -77.438499 0 351 0 0
2021-09-22 15:54:53 GMT 38.948940 -77.438499 0 351 0 0
2021-09-22 15:54:51 GMT 38.948929 -77.438522 0 351 0 0
2021-09-22 15:54:49 GMT 38.948929 -77.438507 0 351 0 0
2021-09-22 15:54:48 GMT 38.948921 -77.438507 0 351 0 0
2021-09-22 15:54:46 GMT 38.948929 -77.438507 0 351 0 0
2021-09-22 15:54:45 GMT 38.948940 -77.438507 0 351 0 0
2021-09-22 15:54:44 GMT 38.948929 -77.438522 0 351 0 0
2021-09-22 15:54:43 GMT 38.948940 -77.438507 0 351 0 0
2021-09-22 15:54:41 GMT 38.948891 -77.438538 0 351 0 0
2021-09-22 15:54:37 GMT 38.948929 -77.438507 0 351 0 0
2021-09-22 15:54:35 GMT 38.948921 -77.438507 0 351 0 0
2021-09-22 15:54:32 GMT 38.948929 -77.438492 0 352 0 0
2021-09-22 15:54:30 GMT 38.948879 -77.438538 0 352 0 0
2021-09-22 15:54:28 GMT 38.948860 -77.438560 0 352 0 0
2021-09-22 15:54:26 GMT 38.948879 -77.438538 0 352 0 0
2021-09-22 15:54:24 GMT 38.948891 -77.438530 0 354 0 0
2021-09-22 15:54:23 GMT 38.948879 -77.438530 0 357 0 0
2021-09-22 15:54:22 GMT 38.948891 -77.438530 0 357 0 0
2021-09-22 15:54:20 GMT 38.948910 -77.438522 0 357 0 0
2021-09-22 15:54:18 GMT 38.948929 -77.438499 0 357 0 0
2021-09-22 15:54:17 GMT 38.948891 -77.438538 0 357 0 0
2021-09-22 15:54:15 GMT 38.948891 -77.438538 0 357 0 0
2021-09-22 15:54:13 GMT 38.948910 -77.438530 0 357 0 0
2021-09-22 15:54:12 GMT 38.948891 -77.438538 0 357 0 0
2021-09-22 15:54:11 GMT 38.948910 -77.438530 0 357 0 0
2021-09-22 15:54:09 GMT 38.948921 -77.438522 0 357 0 0
2021-09-22 15:54:08 GMT 38.948879 -77.438553 0 357 0 0
2021-09-22 15:54:07 GMT 38.948849 -77.438560 0 357 0 0
2021-09-22 15:54:06 GMT 38.948872 -77.438538 0 357 0 0
2021-09-22 15:54:05 GMT 38.948910 -77.438499 0 358 0 0
2021-09-22 15:54:03 GMT 38.948910 -77.438499 0 358 0 0
2021-09-22 15:54:00 GMT 38.948921 -77.438492 0 356 1 0
2021-09-22 15:53:58 GMT 38.948921 -77.438492 0 350 2 0
2021-09-22 15:53:56 GMT 38.948910 -77.438530 0 349 0 0
2021-09-22 15:53:55 GMT 38.948921 -77.438538 0 349 0 0
2021-09-22 15:53:53 GMT 38.948921 -77.438553 0 354 2 0
2021-09-22 15:53:51 GMT 38.948921 -77.438507 0 356 0 0
2021-09-22 15:53:48 GMT 38.948921 -77.438522 0 0 0 0
2021-09-22 15:53:47 GMT 38.948921 -77.438530 0 0 0 0
2021-09-22 15:53:45 GMT 38.948929 -77.438530 0 0 0 0
2021-09-22 15:53:44 GMT 38.948921 -77.438507 0 0 1 0
2021-09-22 15:53:42 GMT 38.948910 -77.438507 0 359 1 0
2021-09-22 15:53:41 GMT 38.948910 -77.438499 0 355 2 0
2021-09-22 15:53:39 GMT 38.948940 -77.438530 0 351 2 0
2021-09-22 15:53:38 GMT 38.948952 -77.438553 0 350 4 0
2021-09-22 15:53:36 GMT 38.948921 -77.438538 0 358 5 0
2021-09-22 15:53:34 GMT 38.948891 -77.438522 0 13 6 0
2021-09-22 15:53:33 GMT 38.948849 -77.438499 0 4 5 0
2021-09-22 15:53:32 GMT 38.948841 -77.438538 0 354 6 0
2021-09-22 15:53:30 GMT 38.948792 -77.438553 0 351 6 0
2021-09-22 15:53:29 GMT 38.948769 -77.438553 0 350 7 0
2021-09-22 15:53:27 GMT 38.948700 -77.438538 0 358 7 0
2021-09-22 15:53:26 GMT 38.948650 -77.438507 0 9 7 0
2021-09-22 15:53:24 GMT 38.948608 -77.438499 0 9 6 0
2021-09-22 15:53:23 GMT 38.948570 -77.438507 0 7 6 0
2021-09-22 15:53:21 GMT 38.948521 -77.438522 0 4 7 0
2021-09-22 15:53:19 GMT 38.948460 -77.438538 0 5 6 0
2021-09-22 15:53:18 GMT 38.948421 -77.438538 0 3 5 0
2021-09-22 15:53:16 GMT 38.948380 -77.438553 0 3 6 0
2021-09-22 15:53:15 GMT 38.948318 -77.438568 0 348 4 0
2021-09-22 15:53:13 GMT 38.948318 -77.438583 0 342 6 0
2021-09-22 15:53:11 GMT 38.948269 -77.438553 0 354 8 0
2021-09-22 15:53:10 GMT 38.948219 -77.438538 0 359 6 0
2021-09-22 15:53:09 GMT 38.948139 -77.438499 0 1 3 0
2021-09-22 15:53:07 GMT 38.948139 -77.438530 0 355 3 0
2021-09-22 15:53:06 GMT 38.948139 -77.438553 0 347 5 0
2021-09-22 15:53:04 GMT 38.948101 -77.438538 0 349 6 0
2021-09-22 15:53:02 GMT 38.948059 -77.438522 0 327 6 0
2021-09-22 15:53:01 GMT 38.948021 -77.438507 0 268 5 0
2021-09-22 15:53:00 GMT 38.947990 -77.438538 0 234 3 0
2021-09-22 15:52:58 GMT 38.947948 -77.438553 0 226 1 0
2021-09-22 15:52:57 GMT 38.947948 -77.438538 0 225 2 0
2021-09-22 15:52:55 GMT 38.947891 -77.438553 0 221 2 0
2021-09-22 15:52:54 GMT 38.947830 -77.438560 0 218 0 0
2021-09-22 15:52:52 GMT 38.947868 -77.438530 0 218 0 0
2021-09-22 15:52:51 GMT 38.947861 -77.438530 0 218 0 0
2021-09-22 15:52:47 GMT 38.947861 -77.438538 0 216 0 0
2021-09-22 15:52:45 GMT 38.947861 -77.438553 0 216 0 0
2021-09-22 15:52:44 GMT 38.947842 -77.438553 0 217 0 0
2021-09-22 15:52:41 GMT 38.947819 -77.438553 0 217 0 0
2021-09-22 15:52:39 GMT 38.947800 -77.438568 0 217 0 0
2021-09-22 15:52:38 GMT 38.947830 -77.438560 0 217 0 0
2021-09-22 15:52:35 GMT 38.947868 -77.438553 0 217 0 0
2021-09-22 15:52:34 GMT 38.947880 -77.438553 0 217 0 0
2021-09-22 15:52:33 GMT 38.947861 -77.438560 0 217 0 0
2021-09-22 15:52:30 GMT 38.947868 -77.438553 0 217 0 0
2021-09-22 15:52:25 GMT 38.947861 -77.438560 0 217 0 0
2021-09-22 15:52:22 GMT 38.947868 -77.438560 0 217 0 0
2021-09-22 15:52:20 GMT 38.947861 -77.438568 0 217 0 0
2021-09-22 15:52:19 GMT 38.947868 -77.438538 0 217 0 0
2021-09-22 15:52:14 GMT 38.947819 -77.438560 0 217 0 0
2021-09-22 15:52:13 GMT 38.947811 -77.438583 0 217 0 0
2021-09-22 15:52:12 GMT 38.947842 -77.438568 0 217 0 0
2021-09-22 15:52:10 GMT 38.947849 -77.438568 0 217 0 0
2021-09-22 15:52:08 GMT 38.947819 -77.438568 0 217 0 0
2021-09-22 15:52:07 GMT 38.947788 -77.438583 0 217 0 0
2021-09-22 15:52:03 GMT 38.947811 -77.438568 0 218 0 0
2021-09-22 15:51:59 GMT 38.947861 -77.438553 0 218 1 0
2021-09-22 15:51:54 GMT 38.947861 -77.438560 0 218 0 0
2021-09-22 15:51:52 GMT 38.947861 -77.438553 0 218 0 0
2021-09-22 15:51:50 GMT 38.947849 -77.438538 0 218 0 0
2021-09-22 15:51:48 GMT 38.947861 -77.438530 0 218 0 0
2021-09-22 15:51:46 GMT 38.947849 -77.438560 0 218 0 0
2021-09-22 15:51:42 GMT 38.947861 -77.438560 0 219 0 0
2021-09-22 15:51:41 GMT 38.947849 -77.438560 0 219 0 0
2021-09-22 15:51:39 GMT 38.947861 -77.438553 0 219 0 0
2021-09-22 15:51:38 GMT 38.947842 -77.438560 0 219 0 0
2021-09-22 15:51:37 GMT 38.947849 -77.438553 0 219 0 0
2021-09-22 15:51:35 GMT 38.947861 -77.438553 0 219 0 0
2021-09-22 15:51:34 GMT 38.947861 -77.438560 0 220 0 0
2021-09-22 15:51:32 GMT 38.947868 -77.438553 0 220 0 0
2021-09-22 15:51:31 GMT 38.947868 -77.438538 0 220 0 0
2021-09-22 15:51:29 GMT 38.947868 -77.438538 0 220 0 0
2021-09-22 15:51:28 GMT 38.947849 -77.438553 0 220 0 0
2021-09-22 15:51:26 GMT 38.947868 -77.438538 0 220 0 0
2021-09-22 15:51:23 GMT 38.947842 -77.438553 0 220 0 0
2021-09-22 15:51:19 GMT 38.947868 -77.438530 0 221 0 0
2021-09-22 15:51:17 GMT 38.947868 -77.438530 0 221 1 0
2021-09-22 15:51:14 GMT 38.947880 -77.438553 0 222 0 0
2021-09-22 15:51:13 GMT 38.947868 -77.438560 0 222 0 0
2021-09-22 15:51:12 GMT 38.947861 -77.438568 0 222 1 0
2021-09-22 15:51:11 GMT 38.947861 -77.438560 0 222 0 0
2021-09-22 15:51:09 GMT 38.947868 -77.438560 0 222 0 0
2021-09-22 15:51:06 GMT 38.947868 -77.438530 0 220 0 0
2021-09-22 15:51:04 GMT 38.947861 -77.438530 0 220 0 0
2021-09-22 15:51:03 GMT 38.947849 -77.438530 0 220 0 0
2021-09-22 15:51:00 GMT 38.947849 -77.438553 0 221 0 0
2021-09-22 15:50:54 GMT 38.947880 -77.438530 0 221 0 0
2021-09-22 15:50:53 GMT 38.947880 -77.438522 0 221 0 0
2021-09-22 15:50:50 GMT 38.947849 -77.438530 0 221 0 0
2021-09-22 15:50:49 GMT 38.947861 -77.438530 0 221 0 0
2021-09-22 15:50:47 GMT 38.947861 -77.438530 0 221 0 0
2021-09-22 15:50:45 GMT 38.947861 -77.438538 0 221 0 0
2021-09-22 15:50:43 GMT 38.947842 -77.438522 0 221 0 0
2021-09-22 15:50:40 GMT 38.947861 -77.438530 0 222 0 0
2021-09-22 15:50:37 GMT 38.947849 -77.438530 0 222 0 0
2021-09-22 15:50:35 GMT 38.947849 -77.438553 0 223 0 0
2021-09-22 15:50:34 GMT 38.947861 -77.438538 0 223 0 0
2021-09-22 15:50:30 GMT 38.947849 -77.438538 0 223 0 0
2021-09-22 15:50:29 GMT 38.947868 -77.438530 0 223 0 0
2021-09-22 15:50:25 GMT 38.947868 -77.438530 0 223 0 0
2021-09-22 15:50:24 GMT 38.947861 -77.438538 0 223 0 0
2021-09-22 15:50:21 GMT 38.947861 -77.438530 0 223 0 0
2021-09-22 15:50:20 GMT 38.947861 -77.438538 0 223 0 0
2021-09-22 15:50:17 GMT 38.947861 -77.438530 0 223 0 0
2021-09-22 15:50:16 GMT 38.947849 -77.438560 0 223 0 0
2021-09-22 15:50:15 GMT 38.947849 -77.438553 0 223 0 0
2021-09-22 15:50:13 GMT 38.947830 -77.438560 0 223 0 0
2021-09-22 15:50:10 GMT 38.947861 -77.438553 0 224 0 0
2021-09-22 15:50:09 GMT 38.947842 -77.438553 0 224 0 0
2021-09-22 15:50:07 GMT 38.947842 -77.438553 0 224 0 0
2021-09-22 15:50:05 GMT 38.947830 -77.438560 0 225 0 0
2021-09-22 15:50:04 GMT 38.947819 -77.438560 0 225 0 0
2021-09-22 15:50:00 GMT 38.947830 -77.438538 0 225 0 0
2021-09-22 15:49:58 GMT 38.947781 -77.438583 0 225 0 0
2021-09-22 15:49:54 GMT 38.947788 -77.438583 0 226 0 0
2021-09-22 15:49:53 GMT 38.947781 -77.438583 0 226 0 0
2021-09-22 15:49:50 GMT 38.947819 -77.438568 0 226 0 0
2021-09-22 15:49:48 GMT 38.947800 -77.438591 0 227 1 0
2021-09-22 15:49:47 GMT 38.947842 -77.438568 0 227 0 0
2021-09-22 15:49:44 GMT 38.947861 -77.438560 0 227 0 0
2021-09-22 15:49:42 GMT 38.947861 -77.438553 0 228 0 0
2021-09-22 15:49:41 GMT 38.947861 -77.438538 0 228 0 0
2021-09-22 15:49:38 GMT 38.947861 -77.438553 0 229 0 0
2021-09-22 15:49:37 GMT 38.947849 -77.438560 0 229 0 0
2021-09-22 15:49:35 GMT 38.947861 -77.438560 0 229 0 0
2021-09-22 15:49:33 GMT 38.947861 -77.438553 0 229 0 0
2021-09-22 15:49:31 GMT 38.947861 -77.438538 0 229 0 0
2021-09-22 15:49:28 GMT 38.947861 -77.438530 0 229 0 0
2021-09-22 15:49:27 GMT 38.947849 -77.438538 0 229 0 0
2021-09-22 15:49:25 GMT 38.947861 -77.438538 0 229 0 0
2021-09-22 15:49:24 GMT 38.947842 -77.438538 0 230 0 0
2021-09-22 15:49:22 GMT 38.947868 -77.438530 0 230 0 0
2021-09-22 15:49:20 GMT 38.947819 -77.438560 0 230 0 0
2021-09-22 15:49:19 GMT 38.947800 -77.438583 0 230 0 0
2021-09-22 15:49:18 GMT 38.947819 -77.438560 0 230 0 0
2021-09-22 15:49:16 GMT 38.947849 -77.438553 0 230 0 0
2021-09-22 15:49:15 GMT 38.947849 -77.438538 0 230 0 0
2021-09-22 15:49:14 GMT 38.947830 -77.438568 0 230 0 0
2021-09-22 15:49:09 GMT 38.947849 -77.438560 0 231 0 0
2021-09-22 15:49:07 GMT 38.947849 -77.438553 0 231 0 0
2021-09-22 15:49:05 GMT 38.947830 -77.438538 0 232 1 0
2021-09-22 15:49:02 GMT 38.947849 -77.438538 0 234 1 0
2021-09-22 15:49:00 GMT 38.947868 -77.438553 0 235 0 0
2021-09-22 15:48:59 GMT 38.947861 -77.438538 0 235 0 0
2021-09-22 15:48:57 GMT 38.947868 -77.438560 0 235 0 0
2021-09-22 15:48:54 GMT 38.947910 -77.438538 0 231 2 0
2021-09-22 15:48:53 GMT 38.947899 -77.438538 0 231 2 0
2021-09-22 15:48:52 GMT 38.947861 -77.438553 0 231 0 0
2021-09-22 15:48:50 GMT 38.947861 -77.438553 0 231 0 0
2021-09-22 15:48:49 GMT 38.947868 -77.438553 0 231 0 0
2021-09-22 15:48:47 GMT 38.947849 -77.438538 0 231 0 0
2021-09-22 15:48:46 GMT 38.947861 -77.438530 0 231 0 0
2021-09-22 15:48:42 GMT 38.947861 -77.438530 0 231 1 0
2021-09-22 15:48:39 GMT 38.947868 -77.438553 0 231 0 0
2021-09-22 15:48:38 GMT 38.947849 -77.438568 0 232 1 0
2021-09-22 15:48:35 GMT 38.947849 -77.438568 0 233 1 0
2021-09-22 15:48:33 GMT 38.947861 -77.438568 0 233 1 0
2021-09-22 15:48:32 GMT 38.947861 -77.438560 0 233 0 0
2021-09-22 15:48:31 GMT 38.947849 -77.438553 0 234 1 0
2021-09-22 15:48:29 GMT 38.947861 -77.438553 0 234 0 0
2021-09-22 15:48:28 GMT 38.947922 -77.438553 0 233 2 0
2021-09-22 15:48:26 GMT 38.947899 -77.438553 0 232 1 0
2021-09-22 15:48:24 GMT 38.947868 -77.438553 0 232 0 0
2021-09-22 15:48:23 GMT 38.947868 -77.438538 0 232 0 0
2021-09-22 15:48:22 GMT 38.947861 -77.438538 0 232 0 0
2021-09-22 15:48:19 GMT 38.947861 -77.438507 0 231 0 0
2021-09-22 15:48:16 GMT 38.947861 -77.438507 0 232 1 0
2021-09-22 15:48:14 GMT 38.947842 -77.438553 0 234 0 0
2021-09-22 15:48:13 GMT 38.947819 -77.438553 0 236 1 0
2021-09-22 15:48:09 GMT 38.947880 -77.438499 0 239 1 0
2021-09-22 15:48:06 GMT 38.947880 -77.438507 0 239 1 0
2021-09-22 15:48:04 GMT 38.947849 -77.438538 0 242 1 0
2021-09-22 15:48:03 GMT 38.947861 -77.438538 0 242 0 0
2021-09-22 15:48:00 GMT 38.947891 -77.438560 0 240 1 0
2021-09-22 15:47:58 GMT 38.947868 -77.438568 0 238 1 0
2021-09-22 15:47:56 GMT 38.947861 -77.438538 0 238 0 0
2021-09-22 15:47:55 GMT 38.947861 -77.438530 0 238 0 0
2021-09-22 15:47:53 GMT 38.947861 -77.438538 0 239 0 0
2021-09-22 15:47:50 GMT 38.947861 -77.438553 0 239 0 0
2021-09-22 15:47:45 GMT 38.947868 -77.438553 0 239 0 0
2021-09-22 15:47:37 GMT 38.947861 -77.438538 0 241 0 0
2021-09-22 15:47:35 GMT 38.947861 -77.438553 0 241 0 0
2021-09-22 15:47:33 GMT 38.947849 -77.438553 0 241 0 0
2021-09-22 15:47:30 GMT 38.947849 -77.438553 0 241 0 0
2021-09-22 15:47:25 GMT 38.947861 -77.438553 0 241 0 0
2021-09-22 15:47:23 GMT 38.947849 -77.438553 0 241 0 0
2021-09-22 15:47:22 GMT 38.947868 -77.438538 0 241 0 0
2021-09-22 15:47:20 GMT 38.947880 -77.438538 0 241 0 0
2021-09-22 15:47:18 GMT 38.947849 -77.438553 0 241 0 0
2021-09-22 15:47:16 GMT 38.947830 -77.438553 0 242 0 0
2021-09-22 15:47:15 GMT 38.947842 -77.438553 0 242 0 0
2021-09-22 15:47:13 GMT 38.947830 -77.438553 0 242 0 0
2021-09-22 15:47:12 GMT 38.947861 -77.438538 0 242 0 0
2021-09-22 15:47:10 GMT 38.947868 -77.438538 0 242 0 0
2021-09-22 15:47:07 GMT 38.947868 -77.438560 0 242 0 0
2021-09-22 15:47:06 GMT 38.947861 -77.438538 0 243 0 0
2021-09-22 15:47:05 GMT 38.947868 -77.438530 0 243 0 0
2021-09-22 15:47:03 GMT 38.947849 -77.438538 0 244 0 0
2021-09-22 15:47:02 GMT 38.947861 -77.438538 0 244 0 0
2021-09-22 15:47:01 GMT 38.947861 -77.438530 0 244 1 0
2021-09-22 15:46:58 GMT 38.947849 -77.438560 0 244 0 0
2021-09-22 15:46:57 GMT 38.947861 -77.438560 0 244 1 0
2021-09-22 15:46:55 GMT 38.947842 -77.438507 0 244 1 0
2021-09-22 15:46:54 GMT 38.947830 -77.438499 0 246 2 0
2021-09-22 15:46:53 GMT 38.947849 -77.438560 0 246 0 0
2021-09-22 15:46:51 GMT 38.947861 -77.438553 0 246 0 0
2021-09-22 15:46:50 GMT 38.947868 -77.438560 0 246 0 0
2021-09-22 15:46:48 GMT 38.947819 -77.438568 0 246 0 0
2021-09-22 15:46:47 GMT 38.947788 -77.438591 0 247 0 0
2021-09-22 15:46:45 GMT 38.947819 -77.438583 0 247 0 0
2021-09-22 15:46:44 GMT 38.947800 -77.438599 0 248 1 0
2021-09-22 15:46:42 GMT 38.947830 -77.438583 0 248 1 0
2021-09-22 15:46:41 GMT 38.947868 -77.438553 0 249 0 0
2021-09-22 15:46:39 GMT 38.947868 -77.438553 0 249 0 0
2021-09-22 15:46:37 GMT 38.947830 -77.438560 0 249 1 0
2021-09-22 15:46:36 GMT 38.947849 -77.438553 0 250 1 0
2021-09-22 15:46:34 GMT 38.947861 -77.438553 0 251 0 0
2021-09-22 15:46:33 GMT 38.947861 -77.438568 0 254 1 0
2021-09-22 15:46:31 GMT 38.947842 -77.438553 0 255 1 0
2021-09-22 15:46:30 GMT 38.947849 -77.438553 0 256 1 0
2021-09-22 15:46:29 GMT 38.947849 -77.438538 0 257 1 0
2021-09-22 15:46:27 GMT 38.947861 -77.438553 0 258 0 0
2021-09-22 15:46:25 GMT 38.947868 -77.438553 0 256 0 0
2021-09-22 15:46:22 GMT 38.947861 -77.438553 0 256 0 0
2021-09-22 15:46:21 GMT 38.947842 -77.438530 0 257 1 0
2021-09-22 15:46:19 GMT 38.947849 -77.438538 0 261 1 0
2021-09-22 15:46:18 GMT 38.947861 -77.438530 0 261 1 0
2021-09-22 15:46:15 GMT 38.947868 -77.438560 0 257 1 0
2021-09-22 15:46:13 GMT 38.947880 -77.438591 0 253 2 0
2021-09-22 15:46:12 GMT 38.947868 -77.438583 0 253 2 0
2021-09-22 15:46:11 GMT 38.947830 -77.438538 0 253 1 0
2021-09-22 15:46:09 GMT 38.947842 -77.438538 0 254 1 0
2021-09-22 15:46:08 GMT 38.947868 -77.438568 0 254 1 0
2021-09-22 15:46:07 GMT 38.947861 -77.438591 0 253 1 0
2021-09-22 15:46:05 GMT 38.947861 -77.438568 0 253 0 0
2021-09-22 15:46:04 GMT 38.947861 -77.438538 0 253 0 0
2021-09-22 15:45:59 GMT 38.947861 -77.438538 0 253 0 0
2021-09-22 15:45:54 GMT 38.947849 -77.438530 0 253 0 0
2021-09-22 15:45:52 GMT 38.947830 -77.438530 0 253 0 0
2021-09-22 15:45:49 GMT 38.947830 -77.438568 0 254 0 0
2021-09-22 15:45:48 GMT 38.947819 -77.438560 0 254 0 0
2021-09-22 15:45:47 GMT 38.947849 -77.438553 0 254 0 0
2021-09-22 15:45:44 GMT 38.947861 -77.438538 0 254 0 0
2021-09-22 15:45:42 GMT 38.947861 -77.438553 0 254 0 0
2021-09-22 15:45:39 GMT 38.947849 -77.438530 0 254 0 0
2021-09-22 15:45:38 GMT 38.947861 -77.438538 0 255 0 0
2021-09-22 15:45:36 GMT 38.947868 -77.438538 0 255 0 0
2021-09-22 15:45:34 GMT 38.947861 -77.438538 0 255 0 0
2021-09-22 15:45:33 GMT 38.947868 -77.438553 0 255 0 0
2021-09-22 15:45:32 GMT 38.947849 -77.438553 0 255 0 0
2021-09-22 15:45:29 GMT 38.947868 -77.438553 0 256 0 0
2021-09-22 15:45:26 GMT 38.947861 -77.438538 0 256 0 0
2021-09-22 15:45:24 GMT 38.947861 -77.438538 0 256 0 0
2021-09-22 15:45:22 GMT 38.947849 -77.438553 0 257 0 0
2021-09-22 15:45:16 GMT 38.947861 -77.438553 0 258 0 0
2021-09-22 15:45:14 GMT 38.947861 -77.438530 0 258 0 0
2021-09-22 15:45:13 GMT 38.947861 -77.438553 0 258 0 0
2021-09-22 15:45:10 GMT 38.947861 -77.438553 0 258 0 0
2021-09-22 15:45:06 GMT 38.947842 -77.438553 0 259 0 0
2021-09-22 15:45:04 GMT 38.947849 -77.438553 0 259 0 0
2021-09-22 15:45:03 GMT 38.947868 -77.438560 0 259 1 0
2021-09-22 15:45:00 GMT 38.947861 -77.438522 0 262 1 0
2021-09-22 15:44:57 GMT 38.947891 -77.438553 0 264 0 0
2021-09-22 15:44:53 GMT 38.947861 -77.438538 0 265 0 0
2021-09-22 15:44:50 GMT 38.947868 -77.438553 0 265 0 0
2021-09-22 15:44:49 GMT 38.947868 -77.438538 0 265 0 0
2021-09-22 15:44:47 GMT 38.947880 -77.438560 0 265 0 0
2021-09-22 15:44:45 GMT 38.947861 -77.438530 0 265 0 0
2021-09-22 15:44:44 GMT 38.947868 -77.438530 0 265 0 0
2021-09-22 15:44:43 GMT 38.947842 -77.438553 0 265 0 0
2021-09-22 15:44:40 GMT 38.947861 -77.438538 0 265 1 0
2021-09-22 15:44:37 GMT 38.947849 -77.438553 0 268 0 0
2021-09-22 15:44:34 GMT 38.947849 -77.438553 0 268 0 0
2021-09-22 15:44:31 GMT 38.947861 -77.438553 0 269 0 0
2021-09-22 15:44:29 GMT 38.947861 -77.438560 0 269 0 0
2021-09-22 15:44:27 GMT 38.947880 -77.438553 0 269 0 0
2021-09-22 15:44:25 GMT 38.947880 -77.438538 0 267 1 0
2021-09-22 15:44:23 GMT 38.947868 -77.438591 0 266 2 0
2021-09-22 15:44:22 GMT 38.947880 -77.438583 0 266 2 0
2021-09-22 15:44:19 GMT 38.947861 -77.438530 0 266 0 0
2021-09-22 15:44:18 GMT 38.947842 -77.438522 0 266 0 0
2021-09-22 15:44:16 GMT 38.947842 -77.438553 0 267 0 0
2021-09-22 15:44:14 GMT 38.947861 -77.438538 0 268 0 0
2021-09-22 15:44:13 GMT 38.947849 -77.438538 0 268 0 0
2021-09-22 15:44:11 GMT 38.947861 -77.438538 0 268 0 0
2021-09-22 15:44:08 GMT 38.947861 -77.438530 0 268 0 0
2021-09-22 15:44:07 GMT 38.947861 -77.438538 0 268 0 0
2021-09-22 15:44:04 GMT 38.947849 -77.438553 0 269 0 0
2021-09-22 15:44:02 GMT 38.947861 -77.438553 0 270 0 0
2021-09-22 15:43:58 GMT 38.947868 -77.438553 0 270 0 0
2021-09-22 15:43:57 GMT 38.947842 -77.438560 0 270 0 0
2021-09-22 15:43:55 GMT 38.947861 -77.438553 0 270 0 0
2021-09-22 15:43:53 GMT 38.947861 -77.438560 0 270 0 0
2021-09-22 15:43:51 GMT 38.947849 -77.438560 0 270 0 0
2021-09-22 15:43:48 GMT 38.947842 -77.438560 0 270 0 0
2021-09-22 15:43:46 GMT 38.947861 -77.438553 0 273 0 0
2021-09-22 15:43:43 GMT 38.947861 -77.438553 0 275 1 0
2021-09-22 15:43:42 GMT 38.947891 -77.438553 0 275 0 0
2021-09-22 15:43:38 GMT 38.947868 -77.438530 0 278 0 0
2021-09-22 15:43:36 GMT 38.947861 -77.438507 0 276 1 0
2021-09-22 15:43:35 GMT 38.947861 -77.438522 0 276 1 0
2021-09-22 15:43:33 GMT 38.947849 -77.438553 0 277 0 0
2021-09-22 15:43:32 GMT 38.947861 -77.438538 0 277 1 0
2021-09-22 15:43:29 GMT 38.947842 -77.438568 0 280 0 0
2021-09-22 15:43:28 GMT 38.947830 -77.438560 0 281 1 0
2021-09-22 15:43:25 GMT 38.947849 -77.438560 0 284 0 0
2021-09-22 15:43:23 GMT 38.947849 -77.438560 0 284 0 0
2021-09-22 15:43:22 GMT 38.947811 -77.438583 0 284 0 0
2021-09-22 15:43:19 GMT 38.947819 -77.438583 0 284 0 0
2021-09-22 15:43:18 GMT 38.947811 -77.438583 0 284 1 0
2021-09-22 15:43:17 GMT 38.947842 -77.438568 0 284 0 0
2021-09-22 15:43:14 GMT 38.947861 -77.438553 0 284 0 0
2021-09-22 15:43:12 GMT 38.947842 -77.438530 0 284 0 0
2021-09-22 15:43:09 GMT 38.947849 -77.438538 0 284 0 0
2021-09-22 15:43:07 GMT 38.947861 -77.438538 0 284 0 0
2021-09-22 15:43:06 GMT 38.947861 -77.438530 0 284 1 0
2021-09-22 15:43:04 GMT 38.947861 -77.438553 0 287 0 0
2021-09-22 15:43:02 GMT 38.947880 -77.438553 0 286 1 0
2021-09-22 15:43:01 GMT 38.947842 -77.438568 0 285 0 0
2021-09-22 15:42:58 GMT 38.947849 -77.438560 0 285 1 0
2021-09-22 15:42:56 GMT 38.947842 -77.438553 0 285 1 0
2021-09-22 15:42:53 GMT 38.947849 -77.438560 0 287 0 0
2021-09-22 15:42:52 GMT 38.947849 -77.438553 0 287 0 0
2021-09-22 15:42:49 GMT 38.947861 -77.438553 0 287 1 0
2021-09-22 15:42:48 GMT 38.947861 -77.438560 0 289 0 0
2021-09-22 15:42:46 GMT 38.947868 -77.438538 0 289 0 0
2021-09-22 15:42:43 GMT 38.947868 -77.438538 0 289 0 0
2021-09-22 15:42:41 GMT 38.947880 -77.438538 0 287 1 0
2021-09-22 15:42:40 GMT 38.947861 -77.438553 0 287 0 0
2021-09-22 15:42:36 GMT 38.947861 -77.438553 0 287 0 0
2021-09-22 15:42:33 GMT 38.947861 -77.438530 0 288 0 0
2021-09-22 15:42:30 GMT 38.947868 -77.438568 0 288 0 0
2021-09-22 15:42:29 GMT 38.947880 -77.438568 0 287 1 0
2021-09-22 15:42:27 GMT 38.947868 -77.438560 0 287 0 0
2021-09-22 15:42:25 GMT 38.947842 -77.438560 0 287 0 0
2021-09-22 15:42:23 GMT 38.947849 -77.438560 0 287 0 0
2021-09-22 15:42:22 GMT 38.947849 -77.438553 0 287 0 0
2021-09-22 15:42:20 GMT 38.947849 -77.438538 0 287 0 0
2021-09-22 15:42:18 GMT 38.947861 -77.438530 0 287 0 0
2021-09-22 15:42:17 GMT 38.947849 -77.438553 0 289 0 0
2021-09-22 15:42:16 GMT 38.947800 -77.438553 0 289 0 0
2021-09-22 15:42:13 GMT 38.947819 -77.438538 0 290 0 0
2021-09-22 15:42:10 GMT 38.947811 -77.438560 0 290 0 0
2021-09-22 15:42:08 GMT 38.947769 -77.438583 0 290 0 0
2021-09-22 15:42:07 GMT 38.947781 -77.438583 0 291 0 0
2021-09-22 15:42:06 GMT 38.947811 -77.438568 0 292 0 0
2021-09-22 15:42:05 GMT 38.947842 -77.438560 0 293 0 0
2021-09-22 15:42:03 GMT 38.947842 -77.438560 0 293 0 0
2021-09-22 15:42:01 GMT 38.947830 -77.438553 0 293 0 0
2021-09-22 15:42:00 GMT 38.947842 -77.438553 0 293 0 0
2021-09-22 15:41:57 GMT 38.947811 -77.438560 0 295 0 0
2021-09-22 15:41:54 GMT 38.947819 -77.438560 0 295 0 0
2021-09-22 15:41:53 GMT 38.947800 -77.438560 0 295 0 0
2021-09-22 15:41:52 GMT 38.947830 -77.438553 0 298 1 0
2021-09-22 15:41:48 GMT 38.947861 -77.438538 0 302 0 0
2021-09-22 15:41:47 GMT 38.947849 -77.438560 0 304 0 0
2021-09-22 15:41:43 GMT 38.947868 -77.438553 0 304 0 0
2021-09-22 15:41:41 GMT 38.947849 -77.438522 0 304 0 0
2021-09-22 15:41:39 GMT 38.947849 -77.438522 0 304 0 0
2021-09-22 15:41:37 GMT 38.947842 -77.438560 0 304 0 0
2021-09-22 15:41:34 GMT 38.947861 -77.438553 0 304 0 0
2021-09-22 15:41:33 GMT 38.947849 -77.438553 0 304 1 0
2021-09-22 15:41:31 GMT 38.947842 -77.438553 0 305 1 0
2021-09-22 15:41:29 GMT 38.947849 -77.438530 0 306 0 0
2021-09-22 15:41:28 GMT 38.947861 -77.438530 0 306 0 0
2021-09-22 15:41:27 GMT 38.947842 -77.438538 0 306 0 0
2021-09-22 15:41:25 GMT 38.947849 -77.438530 0 306 0 0
2021-09-22 15:41:23 GMT 38.947849 -77.438538 0 307 0 0
2021-09-22 15:41:22 GMT 38.947849 -77.438530 0 307 0 0
2021-09-22 15:41:21 GMT 38.947849 -77.438538 0 307 0 0
2021-09-22 15:41:19 GMT 38.947861 -77.438538 0 307 0 0
2021-09-22 15:41:18 GMT 38.947849 -77.438553 0 309 0 0
2021-09-22 15:41:15 GMT 38.947868 -77.438538 0 310 0 0
2021-09-22 15:41:14 GMT 38.947861 -77.438538 0 310 0 0
2021-09-22 15:41:13 GMT 38.947868 -77.438538 0 310 1 0
2021-09-22 15:41:12 GMT 38.947861 -77.438538 0 310 0 0
2021-09-22 15:41:09 GMT 38.947880 -77.438560 0 313 0 0
2021-09-22 15:41:06 GMT 38.947861 -77.438538 0 313 0 0
2021-09-22 15:41:05 GMT 38.947868 -77.438538 0 313 1 0
2021-09-22 15:41:04 GMT 38.947849 -77.438538 0 314 1 0
2021-09-22 15:41:02 GMT 38.947842 -77.438560 0 317 2 0
2021-09-22 15:41:01 GMT 38.947880 -77.438568 0 317 1 0
2021-09-22 15:40:59 GMT 38.947880 -77.438553 0 317 0 0
2021-09-22 15:40:57 GMT 38.947891 -77.438560 0 315 1 0
2021-09-22 15:40:56 GMT 38.947880 -77.438560 0 314 1 0
2021-09-22 15:40:55 GMT 38.947880 -77.438553 0 314 1 0
2021-09-22 15:40:49 GMT 38.947868 -77.438553 0 315 0 0
2021-09-22 15:40:48 GMT 38.947842 -77.438560 0 316 0 0
2021-09-22 15:40:45 GMT 38.947842 -77.438560 0 318 1 0
2021-09-22 15:40:43 GMT 38.947880 -77.438553 0 319 0 0
2021-09-22 15:40:42 GMT 38.947868 -77.438553 0 319 0 0
2021-09-22 15:40:39 GMT 38.947868 -77.438568 0 319 1 0
2021-09-22 15:40:38 GMT 38.947849 -77.438560 0 320 0 0
2021-09-22 15:40:36 GMT 38.947849 -77.438560 0 320 1 0
2021-09-22 15:40:35 GMT 38.947861 -77.438553 0 320 0 0
2021-09-22 15:40:30 GMT 38.947868 -77.438530 0 320 0 0
2021-09-22 15:40:27 GMT 38.947922 -77.438522 0 318 2 0
2021-09-22 15:40:25 GMT 38.947861 -77.438538 0 318 0 0
2021-09-22 15:40:23 GMT 38.947842 -77.438553 0 319 0 0
2021-09-22 15:40:21 GMT 38.947849 -77.438538 0 320 0 0
2021-09-22 15:40:19 GMT 38.947849 -77.438553 0 322 1 0
2021-09-22 15:40:18 GMT 38.947849 -77.438530 0 324 0 0
2021-09-22 15:40:16 GMT 38.947861 -77.438530 0 325 0 0
2021-09-22 15:40:13 GMT 38.947849 -77.438553 0 326 0 0
2021-09-22 15:40:12 GMT 38.947861 -77.438499 0 323 2 0
2021-09-22 15:40:10 GMT 38.947868 -77.438499 0 322 2 0
2021-09-22 15:40:09 GMT 38.947868 -77.438522 0 322 2 0
2021-09-22 15:40:08 GMT 38.947868 -77.438599 0 322 1 0
2021-09-22 15:40:06 GMT 38.947868 -77.438583 0 322 0 0
2021-09-22 15:40:03 GMT 38.947849 -77.438553 0 325 0 0
2021-09-22 15:40:02 GMT 38.947842 -77.438530 0 325 0 0
2021-09-22 15:40:00 GMT 38.947849 -77.438530 0 327 0 0
2021-09-22 15:39:59 GMT 38.947849 -77.438499 0 327 1 0
2021-09-22 15:39:56 GMT 38.947861 -77.438553 0 327 0 0
2021-09-22 15:39:53 GMT 38.947861 -77.438538 0 329 0 0
2021-09-22 15:39:52 GMT 38.947849 -77.438499 0 330 1 0
2021-09-22 15:39:51 GMT 38.947849 -77.438522 0 330 0 0
2021-09-22 15:39:49 GMT 38.947868 -77.438553 0 330 0 0
2021-09-22 15:39:48 GMT 38.947861 -77.438553 0 330 0 0
2021-09-22 15:39:46 GMT 38.947849 -77.438538 0 330 1 0
2021-09-22 15:39:45 GMT 38.947861 -77.438568 0 331 1 0
2021-09-22 15:39:43 GMT 38.947861 -77.438560 0 331 0 0
2021-09-22 15:39:40 GMT 38.947861 -77.438553 0 331 0 0
2021-09-22 15:39:39 GMT 38.947861 -77.438538 0 331 0 0
2021-09-22 15:39:35 GMT 38.947861 -77.438538 0 331 0 0
2021-09-22 15:39:33 GMT 38.947861 -77.438560 0 331 0 0
2021-09-22 15:39:32 GMT 38.947861 -77.438553 0 333 0 0
2021-09-22 15:39:30 GMT 38.947868 -77.438553 0 333 0 0
2021-09-22 15:39:21 GMT 38.947849 -77.438553 0 333 0 0
2021-09-22 15:39:18 GMT 38.947861 -77.438538 0 333 0 0
2021-09-22 15:39:14 GMT 38.947849 -77.438538 0 333 0 0
2021-09-22 15:39:13 GMT 38.947861 -77.438538 0 333 0 0
2021-09-22 15:39:10 GMT 38.947842 -77.438538 0 333 0 0
2021-09-22 15:39:08 GMT 38.947849 -77.438530 0 333 0 0
2021-09-22 15:39:06 GMT 38.947842 -77.438560 0 335 0 0
2021-09-22 15:39:03 GMT 38.947849 -77.438553 0 335 0 0
2021-09-22 15:39:02 GMT 38.947861 -77.438568 0 338 1 0
2021-09-22 15:39:01 GMT 38.947842 -77.438553 0 338 0 0
2021-09-22 15:38:59 GMT 38.947868 -77.438553 0 338 0 0
2021-09-22 15:38:57 GMT 38.947861 -77.438530 0 338 1 0
2021-09-22 15:38:56 GMT 38.947880 -77.438522 0 338 1 0
2021-09-22 15:38:55 GMT 38.947868 -77.438538 0 338 0 0
2021-09-22 15:38:53 GMT 38.947861 -77.438538 0 338 0 0
2021-09-22 15:38:52 GMT 38.947861 -77.438553 0 338 0 0
2021-09-22 15:38:51 GMT 38.947861 -77.438538 0 338 0 0
2021-09-22 15:38:49 GMT 38.947849 -77.438553 0 340 0 0
2021-09-22 15:38:48 GMT 38.947861 -77.438553 0 340 0 0
2021-09-22 15:38:46 GMT 38.947861 -77.438538 0 342 0 0
2021-09-22 15:38:45 GMT 38.947868 -77.438553 0 342 0 0
2021-09-22 15:38:43 GMT 38.947861 -77.438553 0 342 0 0
2021-09-22 15:38:42 GMT 38.947861 -77.438560 0 342 0 0
2021-09-22 15:38:41 GMT 38.947868 -77.438553 0 342 0 0
2021-09-22 15:38:39 GMT 38.947861 -77.438553 0 342 0 0
2021-09-22 15:38:38 GMT 38.947868 -77.438553 0 342 0 0
2021-09-22 15:38:34 GMT 38.947861 -77.438553 0 346 0 0
2021-09-22 15:38:33 GMT 38.947868 -77.438553 0 346 0 0
2021-09-22 15:38:31 GMT 38.947868 -77.438538 0 345 1 0
2021-09-22 15:38:30 GMT 38.947880 -77.438568 0 344 3 0
2021-09-22 15:38:28 GMT 38.947868 -77.438553 0 352 4 0
2021-09-22 15:38:27 GMT 38.947861 -77.438538 0 357 5 0
2021-09-22 15:38:25 GMT 38.947811 -77.438522 0 355 3 0
2021-09-22 15:38:24 GMT 38.947788 -77.438538 0 352 2 0
2021-09-22 15:38:22 GMT 38.947800 -77.438591 0 349 5 0
2021-09-22 15:38:20 GMT 38.947769 -77.438560 0 357 4 0
2021-09-22 15:38:19 GMT 38.947739 -77.438553 0 2 5 0
2021-09-22 15:38:18 GMT 38.947708 -77.438560 0 4 5 0
2021-09-22 15:38:16 GMT 38.947659 -77.438530 0 12 3 0
2021-09-22 15:38:15 GMT 38.947651 -77.438553 0 5 4 0
2021-09-22 15:38:14 GMT 38.947639 -77.438583 0 346 6 0
2021-09-22 15:38:12 GMT 38.947601 -77.438568 0 337 5 0
2021-09-22 15:38:09 GMT 38.947441 -77.438568 0 326 1 0
2021-09-22 15:38:07 GMT 38.947441 -77.438568 0 326 0 0
2021-09-22 15:38:04 GMT 38.947449 -77.438560 0 326 0 0
2021-09-22 15:38:03 GMT 38.947430 -77.438583 0 326 0 0
2021-09-22 15:38:02 GMT 38.947441 -77.438553 0 326 0 0
2021-09-22 15:37:59 GMT 38.947441 -77.438553 0 326 0 0
2021-09-22 15:37:56 GMT 38.947441 -77.438560 0 326 0 0
2021-09-22 15:37:54 GMT 38.947441 -77.438568 0 328 0 0
2021-09-22 15:37:53 GMT 38.947449 -77.438560 0 328 1 0
2021-09-22 15:37:49 GMT 38.947411 -77.438560 0 328 0 0
2021-09-22 15:37:46 GMT 38.947430 -77.438553 0 328 1 0
2021-09-22 15:37:44 GMT 38.947418 -77.438553 0 328 0 0
2021-09-22 15:37:43 GMT 38.947430 -77.438560 0 328 0 0
2021-09-22 15:37:41 GMT 38.947441 -77.438553 0 328 1 0
2021-09-22 15:37:40 GMT 38.947350 -77.438591 0 328 0 0
2021-09-22 15:37:39 GMT 38.947361 -77.438583 0 328 0 0
2021-09-22 15:37:36 GMT 38.947350 -77.438599 0 329 0 0
2021-09-22 15:37:34 GMT 38.947311 -77.438622 0 334 0 0
2021-09-22 15:37:33 GMT 38.947319 -77.438622 0 334 0 0
2021-09-22 15:37:30 GMT 38.947319 -77.438599 0 334 0 0
2021-09-22 15:37:28 GMT 38.947311 -77.438606 0 334 0 0
2021-09-22 15:37:27 GMT 38.947338 -77.438599 0 334 0 0
2021-09-22 15:37:25 GMT 38.947350 -77.438591 0 334 0 0
2021-09-22 15:37:23 GMT 38.947361 -77.438583 0 334 0 0
2021-09-22 15:37:20 GMT 38.947380 -77.438568 0 334 0 0
2021-09-22 15:37:19 GMT 38.947392 -77.438568 0 334 0 0
2021-09-22 15:37:17 GMT 38.947418 -77.438560 0 334 0 0
2021-09-22 15:37:14 GMT 38.947411 -77.438560 0 335 0 0
2021-09-22 15:37:12 GMT 38.947380 -77.438568 0 335 0 0
2021-09-22 15:37:10 GMT 38.947369 -77.438583 0 335 0 0
2021-09-22 15:37:09 GMT 38.947369 -77.438599 0 338 1 0
2021-09-22 15:37:07 GMT 38.947392 -77.438591 0 339 1 0
2021-09-22 15:37:06 GMT 38.947411 -77.438583 0 341 1 0
2021-09-22 15:37:05 GMT 38.947399 -77.438583 0 347 0 0
2021-09-22 15:37:03 GMT 38.947399 -77.438583 0 348 0 0
2021-09-22 15:37:00 GMT 38.947392 -77.438591 0 354 0 0
2021-09-22 15:36:58 GMT 38.947369 -77.438568 0 356 1 0
2021-09-22 15:36:57 GMT 38.947418 -77.438553 0 356 0 0
2021-09-22 15:36:55 GMT 38.947418 -77.438553 0 354 0 0
2021-09-22 15:36:53 GMT 38.947399 -77.438583 0 354 1 0
2021-09-22 15:36:52 GMT 38.947399 -77.438560 0 354 0 0
2021-09-22 15:36:50 GMT 38.947411 -77.438553 0 354 0 0
2021-09-22 15:36:49 GMT 38.947430 -77.438583 0 353 2 0
2021-09-22 15:36:48 GMT 38.947460 -77.438560 0 352 2 0
2021-09-22 15:36:46 GMT 38.947460 -77.438560 0 352 2 -32
2021-09-22 15:36:44 GMT 38.947418 -77.438560 0 352 0 -32
2021-09-22 15:36:41 GMT 38.947411 -77.438568 0 352 0 -32
2021-09-22 15:36:40 GMT 38.947418 -77.438560 0 356 0 -32
2021-09-22 15:36:36 GMT 38.947418 -77.438560 0 356 0 -32
2021-09-22 15:36:35 GMT 38.947418 -77.438568 0 356 0 -32
2021-09-22 15:36:34 GMT 38.947411 -77.438568 0 356 1 -32
2021-09-22 15:36:32 GMT 38.947418 -77.438560 0 1 0 -32
2021-09-22 15:36:31 GMT 38.947418 -77.438553 0 1 1 -32
2021-09-22 15:36:25 GMT 38.947430 -77.438560 0 0 0 -32
2021-09-22 15:36:22 GMT 38.947418 -77.438553 0 3 0 -32
2021-09-22 15:36:20 GMT 38.947441 -77.438538 0 6 3 -32
2021-09-22 15:36:19 GMT 38.947418 -77.438522 0 16 5 -32
2021-09-22 15:36:17 GMT 38.947392 -77.438522 0 12 4 -32
2021-09-22 15:36:16 GMT 38.947361 -77.438560 0 7 3 -32
2021-09-22 15:36:14 GMT 38.947361 -77.438553 0 8 5 -32
2021-09-22 15:36:12 GMT 38.947319 -77.438560 0 28 6 -32
2021-09-22 15:36:11 GMT 38.947289 -77.438538 0 60 6 -32
2021-09-22 15:36:10 GMT 38.947231 -77.438530 0 71 4 -32
2021-09-22 15:36:09 GMT 38.947208 -77.438530 0 78 6 -32
2021-09-22 15:36:07 GMT 38.947201 -77.438599 0 82 6 -32
2021-09-22 15:36:06 GMT 38.947189 -77.438637 0 86 6 -32
2021-09-22 15:36:04 GMT 38.947182 -77.438713 0 94 5 -32
2021-09-22 15:36:02 GMT 38.947182 -77.438744 0 103 8 -32
2021-09-22 15:36:01 GMT 38.947170 -77.438812 0 104 6 -32
2021-09-22 15:35:59 GMT 38.947201 -77.438911 0 86 3 -32
2021-09-22 15:35:58 GMT 38.947231 -77.438919 0 89 5 -32
2021-09-22 15:35:56 GMT 38.947189 -77.438972 0 100 3 -32
2021-09-22 15:35:54 GMT 38.947201 -77.439011 0 87 3 -32
2021-09-22 15:35:52 GMT 38.947220 -77.439079 0 85 1 -32
2021-09-22 15:35:51 GMT 38.947239 -77.439102 0 85 1 -32
2021-09-22 15:35:50 GMT 38.947231 -77.439087 0 87 1 -32
2021-09-22 15:35:48 GMT 38.947220 -77.439072 0 87 2 -32
2021-09-22 15:35:47 GMT 38.947220 -77.439056 0 90 4 -32
2021-09-22 15:35:45 GMT 38.947208 -77.439140 0 91 2 -32
2021-09-22 15:35:44 GMT 38.947220 -77.439148 0 96 2 -32
2021-09-22 15:35:43 GMT 38.947220 -77.439163 0 91 3 -32
2021-09-22 15:35:41 GMT 38.947231 -77.439194 0 85 3 -32
2021-09-22 15:35:39 GMT 38.947220 -77.439209 0 93 3 -32
2021-09-22 15:35:38 GMT 38.947220 -77.439240 0 98 2 -32
2021-09-22 15:35:37 GMT 38.947208 -77.439247 0 98 3 -32
2021-09-22 15:35:35 GMT 38.947208 -77.439293 0 98 2 -32
2021-09-22 15:35:34 GMT 38.947208 -77.439301 0 98 1 -32
2021-09-22 15:35:32 GMT 38.947208 -77.439323 0 99 2 -32
2021-09-22 15:35:31 GMT 38.947208 -77.439331 0 98 2 -32
2021-09-22 15:35:28 GMT 38.947220 -77.439362 0 101 3 -32
2021-09-22 15:35:27 GMT 38.947220 -77.439377 0 101 2 -32
2021-09-22 15:35:25 GMT 38.947208 -77.439400 0 100 3 -32
2021-09-22 15:35:24 GMT 38.947220 -77.439438 0 91 2 -32
2021-09-22 15:35:21 GMT 38.947231 -77.439438 0 88 5 -32
2021-09-22 15:35:20 GMT 38.947231 -77.439484 0 81 4 -32
2021-09-22 15:35:19 GMT 38.947231 -77.439507 0 82 5 -32
2021-09-22 15:35:16 GMT 38.947231 -77.439568 0 82 4 -32
2021-09-22 15:35:15 GMT 38.947220 -77.439598 0 91 6 -32
2021-09-22 15:35:14 GMT 38.947208 -77.439636 0 91 5 -32
2021-09-22 15:35:13 GMT 38.947208 -77.439651 0 89 7 -32
2021-09-22 15:35:11 GMT 38.947208 -77.439728 0 91 6 -32
2021-09-22 15:35:10 GMT 38.947208 -77.439758 0 86 6 -32
2021-09-22 15:35:09 GMT 38.947208 -77.439850 0 79 7 -32
2021-09-22 15:35:07 GMT 38.947231 -77.439873 0 79 8 -32
2021-09-22 15:35:06 GMT 38.947208 -77.439941 0 86 7 -32
2021-09-22 15:35:04 GMT 38.947201 -77.440002 0 87 7 -32
2021-09-22 15:35:03 GMT 38.947189 -77.440041 0 96 8 -32
2021-09-22 15:35:01 GMT 38.947170 -77.440102 0 99 11 -32
2021-09-22 15:34:59 GMT 38.947220 -77.440231 0 91 10 -32
2021-09-22 15:34:58 GMT 38.947208 -77.440277 0 94 11 -32
2021-09-22 15:34:57 GMT 38.947220 -77.440369 0 90 9 -32
2021-09-22 15:34:56 GMT 38.947220 -77.440399 0 92 11 -32
2021-09-22 15:34:54 GMT 38.947208 -77.440529 0 93 10 -32
2021-09-22 15:34:52 GMT 38.947231 -77.440689 0 88 9 -32
2021-09-22 15:34:51 GMT 38.947239 -77.440750 0 86 8 -32
2021-09-22 15:34:50 GMT 38.947239 -77.440788 0 85 8 -32
2021-09-22 15:34:49 GMT 38.947250 -77.440849 0 84 8 -32
2021-09-22 15:34:47 GMT 38.947239 -77.440948 0 90 7 -32
2021-09-22 15:34:46 GMT 38.947220 -77.441002 0 93 10 -32
2021-09-22 15:34:44 GMT 38.947231 -77.441071 0 92 9 -32
2021-09-22 15:34:42 GMT 38.947239 -77.441177 0 90 9 -32
2021-09-22 15:34:41 GMT 38.947250 -77.441254 0 90 7 -32
2021-09-22 15:34:40 GMT 38.947231 -77.441353 0 97 7 -32
2021-09-22 15:34:38 GMT 38.947250 -77.441406 0 94 6 -32
2021-09-22 15:34:37 GMT 38.947262 -77.441498 0 88 4 -32
2021-09-22 15:34:35 GMT 38.947239 -77.441521 0 88 5 -32
2021-09-22 15:34:34 GMT 38.947262 -77.441566 0 76 4 -32
2021-09-22 15:34:32 GMT 38.947262 -77.441566 0 75 6 -32
2021-09-22 15:34:31 GMT 38.947262 -77.441612 0 69 7 -32
2021-09-22 15:34:30 GMT 38.947269 -77.441650 0 63 6 -32

Making use of Plane Finder data

You are free to use the raw flight data, aircraft information and images provided in this report for your own purposes provided the data is correctly attributed to Plane Finder. We ask that you please credit Plane Finder and link to planefinder.net in close proximity to the content.

Optionally one of the following logos (no smaller then 150x24px) can be used and must link to planefinder.net

Embedding the Plane Finder map

You are welcome to embed the Plane Finder playback map on your website to offer visitors a more interactive experience. We suggest using the following HTML code:

<iframe src="//planefinder.net/data/report/UA3859-N445AW-7700-squawk-2021-09-22/map" width="800" height="600" seamless="seamless"></iframe>

Where our data comes from

Plane Finder has a global network of data feeds and antenna radars that receive data broadcast directly from aircraft. The primary technologies used are ADS-B and MLAT. We also show feeds from the FAA and a FLARM glider feed.

Click here to find out more about the Plane Finder network.

How we collect our data